PWSweather.com
Personal Weather Stations
Station Observations
BOOMEPH
Weather On The Hill Or Not, Ephrata, PA 17522

Weather On The Hill Or NotEphrata, PA 17522

Lat: 40.17243, Lon: -76.180815

Elevation: 597

Station Type: Ambient WS 1080

Latest ConditionsUpdated 11:15:13 PM EST Wednesday, Jan 28, 2015
Currently Today's Max Today's Min Today's Average
Temperature 21.4°F-5.9°C 33.1°F0.6°C 15.8°F-9.0°C 22.9°F-5.1°C
Dew Point -3.8°F-19.9°C -1.8°F-18.8°C -16.5°F-26.9°C -10.0°F-23.3°C
Winds 1.6 mph ENE2.6 kmh ENE 16.8 mph NNE27.0 kmh NNE - 6.3 mph 10.1 kmh
Wind Gusts 2.2 mph3.5 kmh 28.2 mph45.4 kmh - -
Humidity 32% 43% 13% 23%
Pressure 30.16 in1021.3 mb 30.17 in1021.7 mb 29.81 in1009.5 mb -
Hour Temp Dew Point Humidity Winds Wind Gusts Pressure Precip Precip Rate Daily Precip Total
11:15 PM 21.4°F-5.9°C -3.8°F-19.9°C 32% 1.6 mph ENE2.6 kmh ENE 2.2 mph3.5 kmh 30.16 in1021.3 mb 0.00 in0.0 mm 0.00 in/hr0.0 mm/hr 0.00 in0.0 mm
11:14 PM 20.3°F-6.5°C -4.1°F-20.1°C 33% Calm Calm 2.2 mph3.5 kmh 30.17 in1021.7 mb 0.00 in0.0 mm 0.00 in/hr0.0 mm/hr 0.00 in0.0 mm
11:13 PM 20.3°F-6.5°C -4.1°F-20.1°C 33% Calm Calm 2.2 mph3.5 kmh 30.17 in1021.7 mb 0.00 in0.0 mm 0.00 in/hr0.0 mm/hr 0.00 in0.0 mm
11:12 PM 20.3°F-6.5°C -4.1°F-20.1°C 33% Calm Calm 2.2 mph3.5 kmh 30.17 in1021.7 mb 0.00 in0.0 mm 0.00 in/hr0.0 mm/hr 0.00 in0.0 mm
11:11 PM 20.5°F-6.4°C -4.0°F-20.0°C 33% Calm Calm 2.2 mph3.5 kmh 30.16 in1021.3 mb 0.00 in0.0 mm 0.00 in/hr0.0 mm/hr 0.00 in0.0 mm
11:10 PM 20.5°F-6.4°C -4.0°F-20.0°C 33% Calm Calm 2.2 mph3.5 kmh 30.17 in1021.7 mb 0.00 in0.0 mm 0.00 in/hr0.0 mm/hr 0.00 in0.0 mm
11:09 PM 20.1°F-6.6°C -4.3°F-20.2°C 33% Calm Calm 2.2 mph3.5 kmh 30.17 in1021.7 mb 0.00 in0.0 mm 0.00 in/hr0.0 mm/hr 0.00 in0.0 mm
11:08 PM 20.1°F-6.6°C -4.3°F-20.2°C 33% Calm Calm 2.2 mph3.5 kmh 30.17 in1021.7 mb 0.00 in0.0 mm 0.00 in/hr0.0 mm/hr 0.00 in0.0 mm
11:07 PM 20.1°F-6.6°C -4.3°F-20.2°C 33% Calm Calm 2.2 mph3.5 kmh 30.17 in1021.7 mb 0.00 in0.0 mm 0.00 in/hr0.0 mm/hr 0.00 in0.0 mm
11:06 PM 20.5°F-6.4°C -4.0°F-20.0°C 33% 0.7 mph SW1.1 kmh SW 2.2 mph3.5 kmh 30.17 in1021.7 mb 0.00 in0.0 mm 0.00 in/hr0.0 mm/hr 0.00 in0.0 mm
11:05 PM 20.7°F-6.3°C -3.8°F-19.9°C 33% 0.7 mph SW1.1 kmh SW 2.2 mph3.5 kmh 30.17 in1021.7 mb 0.00 in0.0 mm 0.00 in/hr0.0 mm/hr 0.00 in0.0 mm
11:04 PM 20.7°F-6.3°C -4.5°F-20.3°C 32% 1.6 mph SW2.6 kmh SW 2.2 mph3.5 kmh 30.17 in1021.7 mb 0.00 in0.0 mm 0.00 in/hr0.0 mm/hr 0.00 in0.0 mm
11:03 PM 20.5°F-6.4°C -4.6°F-20.3°C 32% 1.6 mph SW2.6 kmh SW 2.2 mph3.5 kmh 30.17 in1021.7 mb 0.00 in0.0 mm 0.00 in/hr0.0 mm/hr 0.00 in0.0 mm
11:02 PM 20.7°F-6.3°C -5.8°F-21.0°C 30% 1.6 mph SW2.6 kmh SW 2.2 mph3.5 kmh 30.17 in1021.7 mb 0.00 in0.0 mm 0.00 in/hr0.0 mm/hr 0.00 in0.0 mm
11:01 PM 20.5°F-6.4°C -5.9°F-21.1°C 30% 0.7 mph SW1.1 kmh SW 2.2 mph3.5 kmh 30.17 in1021.7 mb 0.00 in0.0 mm 0.00 in/hr0.0 mm/hr 0.00 in0.0 mm
11:00 PM 20.5°F-6.4°C -5.9°F-21.1°C 30% 0.7 mph SW1.1 kmh SW 2.2 mph3.5 kmh 30.17 in1021.7 mb 0.00 in0.0 mm 0.00 in/hr0.0 mm/hr 0.00 in0.0 mm
10:59 PM 20.5°F-6.4°C -5.9°F-21.1°C 30% 0.7 mph WSW1.1 kmh WSW 2.2 mph3.5 kmh 30.17 in1021.7 mb 0.00 in0.0 mm 0.00 in/hr0.0 mm/hr 0.00 in0.0 mm
10:58 PM 20.5°F-6.4°C -5.9°F-21.1°C 30% Calm Calm 2.2 mph3.5 kmh 30.17 in1021.7 mb 0.00 in0.0 mm 0.00 in/hr0.0 mm/hr 0.00 in0.0 mm
10:57 PM 19.9°F-6.7°C -7.8°F-22.1°C 28% Calm Calm 2.2 mph3.5 kmh 30.16 in1021.3 mb 0.00 in0.0 mm 0.00 in/hr0.0 mm/hr 0.00 in0.0 mm
10:56 PM 20.1°F-6.6°C -7.7°F-22.1°C 28% Calm Calm 2.2 mph3.5 kmh 30.17 in1021.7 mb 0.00 in0.0 mm 0.00 in/hr0.0 mm/hr 0.00 in0.0 mm
10:55 PM 20.3°F-6.5°C -7.5°F-21.9°C 28% Calm Calm 2.2 mph3.5 kmh 30.17 in1021.7 mb 0.00 in0.0 mm 0.00 in/hr0.0 mm/hr 0.00 in0.0 mm
10:54 PM 20.7°F-6.3°C -7.9°F-22.2°C 27% Calm Calm 2.2 mph3.5 kmh 30.17 in1021.7 mb 0.00 in0.0 mm 0.00 in/hr0.0 mm/hr 0.00 in0.0 mm
10:53 PM 20.5°F-6.4°C -8.1°F-22.3°C 27% 1.6 mph WSW2.6 kmh WSW 2.2 mph3.5 kmh 30.17 in1021.7 mb 0.00 in0.0 mm 0.00 in/hr0.0 mm/hr 0.00 in0.0 mm
10:52 PM 20.5°F-6.4°C -8.9°F-22.7°C 26% 0.7 mph WSW1.1 kmh WSW 1.6 mph2.6 kmh 30.17 in1021.7 mb 0.00 in0.0 mm 0.00 in/hr0.0 mm/hr 0.00 in0.0 mm
10:51 PM 20.5°F-6.4°C -8.9°F-22.7°C 26% Calm Calm 1.6 mph2.6 kmh 30.17 in1021.7 mb 0.00 in0.0 mm 0.00 in/hr0.0 mm/hr 0.00 in0.0 mm
10:50 PM 21.4°F-5.9°C -10.6°F-23.7°C 23% Calm Calm 0.7 mph1.1 kmh 30.17 in1021.7 mb 0.00 in0.0 mm 0.00 in/hr0.0 mm/hr 0.00 in0.0 mm
10:49 PM 22.1°F-5.5°C -10.0°F-23.3°C 23% Calm Calm 0.7 mph1.1 kmh 30.17 in1021.7 mb 0.00 in0.0 mm 0.00 in/hr0.0 mm/hr 0.00 in0.0 mm
10:48 PM 22.5°F-5.3°C -9.7°F-23.2°C 23% Calm Calm 1.6 mph2.6 kmh 30.17 in1021.7 mb 0.00 in0.0 mm 0.00 in/hr0.0 mm/hr 0.00 in0.0 mm
10:47 PM 22.8°F-5.1°C -9.3°F-22.9°C 23% Calm Calm 1.6 mph2.6 kmh 30.16 in1021.3 mb 0.00 in0.0 mm 0.00 in/hr0.0 mm/hr 0.00 in0.0 mm
10:46 PM 23.0°F-5.0°C -10.1°F-23.4°C 22% Calm Calm 1.6 mph2.6 kmh 30.16 in1021.3 mb 0.00 in0.0 mm 0.00 in/hr0.0 mm/hr 0.00 in0.0 mm
10:45 PM 23.0°F-5.0°C -10.1°F-23.4°C 22% Calm Calm 3.1 mph5.0 kmh 30.16 in1021.3 mb 0.00 in0.0 mm 0.00 in/hr0.0 mm/hr 0.00 in0.0 mm
10:44 PM 23.0°F-5.0°C -10.1°F-23.4°C 22% Calm Calm 3.8 mph6.1 kmh 30.16 in1021.3 mb 0.00 in0.0 mm 0.00 in/hr0.0 mm/hr 0.00 in0.0 mm
10:43 PM 23.0°F-5.0°C -10.1°F-23.4°C 22% Calm Calm 4.5 mph7.2 kmh 30.16 in1021.3 mb 0.00 in0.0 mm 0.00 in/hr0.0 mm/hr 0.00 in0.0 mm
10:42 PM 23.2°F-4.9°C -9.9°F-23.3°C 22% Calm Calm 4.5 mph7.2 kmh 30.16 in1021.3 mb 0.00 in0.0 mm 0.00 in/hr0.0 mm/hr 0.00 in0.0 mm
10:41 PM 23.4°F-4.8°C -8.9°F-22.7°C 23% Calm Calm 4.5 mph7.2 kmh 30.16 in1021.3 mb 0.00 in0.0 mm 0.00 in/hr0.0 mm/hr 0.00 in0.0 mm
10:40 PM 23.4°F-4.8°C -8.9°F-22.7°C 23% Calm Calm 4.5 mph7.2 kmh 30.16 in1021.3 mb 0.00 in0.0 mm 0.00 in/hr0.0 mm/hr 0.00 in0.0 mm
10:39 PM 23.4°F-4.8°C -7.2°F-21.8°C 25% Calm Calm 4.5 mph7.2 kmh 30.16 in1021.3 mb 0.00 in0.0 mm 0.00 in/hr0.0 mm/hr 0.00 in0.0 mm
10:38 PM 23.5°F-4.7°C -6.2°F-21.2°C 26% Calm Calm 4.5 mph7.2 kmh 30.16 in1021.3 mb 0.00 in0.0 mm 0.00 in/hr0.0 mm/hr 0.00 in0.0 mm
10:37 PM 23.5°F-4.7°C -6.2°F-21.2°C 26% 0.7 mph NNW1.1 kmh NNW 4.5 mph7.2 kmh 30.16 in1021.3 mb 0.00 in0.0 mm 0.00 in/hr0.0 mm/hr 0.00 in0.0 mm
10:36 PM 23.5°F-4.7°C -6.2°F-21.2°C 26% Calm Calm 4.5 mph7.2 kmh 30.16 in1021.3 mb 0.00 in0.0 mm 0.00 in/hr0.0 mm/hr 0.00 in0.0 mm
10:35 PM 23.5°F-4.7°C -6.2°F-21.2°C 26% 1.6 mph NNW2.6 kmh NNW 4.5 mph7.2 kmh 30.16 in1021.3 mb 0.00 in0.0 mm 0.00 in/hr0.0 mm/hr 0.00 in0.0 mm
10:34 PM 23.2°F-4.9°C -5.0°F-20.6°C 28% 2.2 mph NW3.5 kmh NW 4.5 mph7.2 kmh 30.16 in1021.3 mb 0.00 in0.0 mm 0.00 in/hr0.0 mm/hr 0.00 in0.0 mm
10:33 PM 23.0°F-5.0°C -3.7°F-19.8°C 30% 3.1 mph WSW5.0 kmh WSW 4.5 mph7.2 kmh 30.16 in1021.3 mb 0.00 in0.0 mm 0.00 in/hr0.0 mm/hr 0.00 in0.0 mm
10:32 PM 22.6°F-5.2°C -2.7°F-19.3°C 32% 1.6 mph SSW2.6 kmh SSW 3.1 mph5.0 kmh 30.16 in1021.3 mb 0.00 in0.0 mm 0.00 in/hr0.0 mm/hr 0.00 in0.0 mm
10:31 PM 22.5°F-5.3°C -2.9°F-19.4°C 32% 1.6 mph SSW2.6 kmh SSW 3.1 mph5.0 kmh 30.16 in1021.3 mb 0.00 in0.0 mm 0.00 in/hr0.0 mm/hr 0.00 in0.0 mm
10:30 PM 21.4°F-5.9°C -3.8°F-19.9°C 32% Calm Calm 3.1 mph5.0 kmh 30.16 in1021.3 mb 0.00 in0.0 mm 0.00 in/hr0.0 mm/hr 0.00 in0.0 mm
10:29 PM 21.0°F-6.1°C -3.5°F-19.7°C 33% Calm Calm 3.1 mph5.0 kmh 30.16 in1021.3 mb 0.00 in0.0 mm 0.00 in/hr0.0 mm/hr 0.00 in0.0 mm
10:28 PM 20.8°F-6.2°C -3.7°F-19.8°C 33% Calm Calm 3.1 mph5.0 kmh 30.16 in1021.3 mb 0.00 in0.0 mm 0.00 in/hr0.0 mm/hr 0.00 in0.0 mm
10:27 PM 20.3°F-6.5°C -4.1°F-20.1°C 33% 0.7 mph SW1.1 kmh SW 3.8 mph6.1 kmh 30.16 in1021.3 mb 0.00 in0.0 mm 0.00 in/hr0.0 mm/hr 0.00 in0.0 mm
10:26 PM 20.3°F-6.5°C -4.8°F-20.4°C 32% Calm Calm 3.8 mph6.1 kmh 30.16 in1021.3 mb 0.00 in0.0 mm 0.00 in/hr0.0 mm/hr 0.00 in0.0 mm
10:25 PM 20.7°F-6.3°C -5.1°F-20.6°C 31% 2.2 mph SW3.5 kmh SW 3.8 mph6.1 kmh 30.16 in1021.3 mb 0.00 in0.0 mm 0.00 in/hr0.0 mm/hr 0.00 in0.0 mm
10:24 PM 21.0°F-6.1°C -4.8°F-20.4°C 31% 1.6 mph WSW2.6 kmh WSW 3.8 mph6.1 kmh 30.16 in1021.3 mb 0.00 in0.0 mm 0.00 in/hr0.0 mm/hr 0.00 in0.0 mm
10:23 PM 21.6°F-5.8°C -5.0°F-20.6°C 30% 1.6 mph W2.6 kmh W 3.8 mph6.1 kmh 30.16 in1021.3 mb 0.00 in0.0 mm 0.00 in/hr0.0 mm/hr 0.00 in0.0 mm
10:22 PM 21.7°F-5.7°C -6.3°F-21.3°C 28% 0.7 mph WNW1.1 kmh WNW 5.4 mph8.7 kmh 30.16 in1021.3 mb 0.00 in0.0 mm 0.00 in/hr0.0 mm/hr 0.00 in0.0 mm
10:21 PM 21.9°F-5.6°C -6.1°F-21.2°C 28% 0.7 mph NW1.1 kmh NW 5.4 mph8.7 kmh 30.16 in1021.3 mb 0.00 in0.0 mm 0.00 in/hr0.0 mm/hr 0.00 in0.0 mm
10:20 PM 21.9°F-5.6°C -6.1°F-21.2°C 28% 0.7 mph NW1.1 kmh NW 5.4 mph8.7 kmh 30.16 in1021.3 mb 0.00 in0.0 mm 0.00 in/hr0.0 mm/hr 0.00 in0.0 mm
10:19 PM 22.1°F-5.5°C -6.0°F-21.1°C 28% 0.7 mph NW1.1 kmh NW 5.4 mph8.7 kmh 30.16 in1021.3 mb 0.00 in0.0 mm 0.00 in/hr0.0 mm/hr 0.00 in0.0 mm
10:18 PM 21.9°F-5.6°C -6.9°F-21.6°C 27% 1.6 mph NW2.6 kmh NW 5.4 mph8.7 kmh 30.16 in1021.3 mb 0.00 in0.0 mm 0.00 in/hr0.0 mm/hr 0.00 in0.0 mm
10:17 PM 21.9°F-5.6°C -6.9°F-21.6°C 27% 2.2 mph NNW3.5 kmh NNW 5.4 mph8.7 kmh 30.16 in1021.3 mb 0.00 in0.0 mm 0.00 in/hr0.0 mm/hr 0.00 in0.0 mm
10:16 PM 22.1°F-5.5°C -6.7°F-21.5°C 27% 0.7 mph NNW1.1 kmh NNW 5.4 mph8.7 kmh 30.16 in1021.3 mb 0.00 in0.0 mm 0.00 in/hr0.0 mm/hr 0.00 in0.0 mm
10:15 PM 22.3°F-5.4°C -6.5°F-21.4°C 27% 0.7 mph NNW1.1 kmh NNW 5.4 mph8.7 kmh 30.16 in1021.3 mb 0.00 in0.0 mm 0.00 in/hr0.0 mm/hr 0.00 in0.0 mm
10:14 PM 22.5°F-5.3°C -6.4°F-21.3°C 27% 2.2 mph NNW3.5 kmh NNW 5.4 mph8.7 kmh 30.16 in1021.3 mb 0.00 in0.0 mm 0.00 in/hr0.0 mm/hr 0.00 in0.0 mm
10:13 PM 22.6°F-5.2°C -6.2°F-21.2°C 27% 1.6 mph NNW2.6 kmh NNW 5.4 mph8.7 kmh 30.15 in1021.0 mb 0.00 in0.0 mm 0.00 in/hr0.0 mm/hr 0.00 in0.0 mm
10:12 PM 22.8°F-5.1°C -6.1°F-21.2°C 27% 3.8 mph NNW6.1 kmh NNW 5.4 mph8.7 kmh 30.15 in1021.0 mb 0.00 in0.0 mm 0.00 in/hr0.0 mm/hr 0.00 in0.0 mm
10:11 PM 23.0°F-5.0°C -6.7°F-21.5°C 26% 3.8 mph NNW6.1 kmh NNW 5.4 mph8.7 kmh 30.15 in1021.0 mb 0.00 in0.0 mm 0.00 in/hr0.0 mm/hr 0.00 in0.0 mm
10:10 PM 23.2°F-4.9°C -6.5°F-21.4°C 26% 3.8 mph NNW6.1 kmh NNW 5.4 mph8.7 kmh 30.15 in1021.0 mb 0.00 in0.0 mm 0.00 in/hr0.0 mm/hr 0.00 in0.0 mm
10:09 PM 23.0°F-5.0°C -6.7°F-21.5°C 26% 3.8 mph NNW6.1 kmh NNW 5.4 mph8.7 kmh 30.15 in1021.0 mb 0.00 in0.0 mm 0.00 in/hr0.0 mm/hr 0.00 in0.0 mm
10:08 PM 23.0°F-5.0°C -6.7°F-21.5°C 26% 3.1 mph NW5.0 kmh NW 4.5 mph7.2 kmh 30.15 in1021.0 mb 0.00 in0.0 mm 0.00 in/hr0.0 mm/hr 0.00 in0.0 mm
10:07 PM 23.2°F-4.9°C -5.8°F-21.0°C 27% 2.2 mph NW3.5 kmh NW 4.5 mph7.2 kmh 30.15 in1021.0 mb 0.00 in0.0 mm 0.00 in/hr0.0 mm/hr 0.00 in0.0 mm
10:06 PM 22.8°F-5.1°C -5.3°F-20.7°C 28% 3.1 mph W5.0 kmh W 3.8 mph6.1 kmh 30.15 in1021.0 mb 0.00 in0.0 mm 0.00 in/hr0.0 mm/hr 0.00 in0.0 mm
10:05 PM 22.6°F-5.2°C -5.5°F-20.8°C 28% 2.2 mph WSW3.5 kmh WSW 3.8 mph6.1 kmh 30.15 in1021.0 mb 0.00 in0.0 mm 0.00 in/hr0.0 mm/hr 0.00 in0.0 mm
10:04 PM 22.3°F-5.4°C -5.8°F-21.0°C 28% 1.6 mph SW2.6 kmh SW 3.1 mph5.0 kmh 30.15 in1021.0 mb 0.00 in0.0 mm 0.00 in/hr0.0 mm/hr 0.00 in0.0 mm
10:03 PM 21.9°F-5.6°C -6.1°F-21.2°C 28% 0.7 mph SW1.1 kmh SW 3.1 mph5.0 kmh 30.15 in1021.0 mb 0.00 in0.0 mm 0.00 in/hr0.0 mm/hr 0.00 in0.0 mm
10:02 PM 21.7°F-5.7°C -6.3°F-21.3°C 28% Calm Calm 3.1 mph5.0 kmh 30.15 in1021.0 mb 0.00 in0.0 mm 0.00 in/hr0.0 mm/hr 0.00 in0.0 mm
10:01 PM 21.6°F-5.8°C -6.4°F-21.3°C 28% Calm Calm 3.1 mph5.0 kmh 30.15 in1021.0 mb 0.00 in0.0 mm 0.00 in/hr0.0 mm/hr 0.00 in0.0 mm
10:00 PM 21.4°F-5.9°C -6.6°F-21.4°C 28% Calm Calm 3.1 mph5.0 kmh 30.15 in1021.0 mb 0.00 in0.0 mm 0.00 in/hr0.0 mm/hr 0.00 in0.0 mm
09:59 PM 21.2°F-6.0°C -7.5°F-21.9°C 27% 0.7 mph SW1.1 kmh SW 3.1 mph5.0 kmh 30.15 in1021.0 mb 0.00 in0.0 mm 0.00 in/hr0.0 mm/hr 0.00 in0.0 mm
09:58 PM 20.8°F-6.2°C -7.0°F-21.7°C 28% 2.2 mph SW3.5 kmh SW 3.1 mph5.0 kmh 30.15 in1021.0 mb 0.00 in0.0 mm 0.00 in/hr0.0 mm/hr 0.00 in0.0 mm
09:57 PM 20.8°F-6.2°C -7.8°F-22.1°C 27% 2.2 mph SW3.5 kmh SW 3.1 mph5.0 kmh 30.15 in1021.0 mb 0.00 in0.0 mm 0.00 in/hr0.0 mm/hr 0.00 in0.0 mm
09:56 PM 21.0°F-6.1°C -7.6°F-22.0°C 27% 2.2 mph WSW3.5 kmh WSW 3.1 mph5.0 kmh 30.15 in1021.0 mb 0.00 in0.0 mm 0.00 in/hr0.0 mm/hr 0.00 in0.0 mm
09:55 PM 21.2°F-6.0°C -9.0°F-22.8°C 25% 1.6 mph W2.6 kmh W 3.1 mph5.0 kmh 30.15 in1021.0 mb 0.00 in0.0 mm 0.00 in/hr0.0 mm/hr 0.00 in0.0 mm
09:54 PM 21.9°F-5.6°C -10.1°F-23.4°C 23% 2.2 mph WNW3.5 kmh WNW 3.8 mph6.1 kmh 30.15 in1021.0 mb 0.00 in0.0 mm 0.00 in/hr0.0 mm/hr 0.00 in0.0 mm
09:53 PM 22.6°F-5.2°C -9.5°F-23.1°C 23% 2.2 mph NW3.5 kmh NW 3.8 mph6.1 kmh 30.15 in1021.0 mb 0.00 in0.0 mm 0.00 in/hr0.0 mm/hr 0.00 in0.0 mm
09:52 PM 23.2°F-4.9°C -9.9°F-23.3°C 22% 1.6 mph NW2.6 kmh NW 3.8 mph6.1 kmh 30.15 in1021.0 mb 0.00 in0.0 mm 0.00 in/hr0.0 mm/hr 0.00 in0.0 mm
09:51 PM 23.2°F-4.9°C -9.9°F-23.3°C 22% Calm Calm 4.5 mph7.2 kmh 30.14 in1020.7 mb 0.00 in0.0 mm 0.00 in/hr0.0 mm/hr 0.00 in0.0 mm
09:50 PM 23.4°F-4.8°C -9.8°F-23.2°C 22% Calm Calm 4.5 mph7.2 kmh 30.15 in1021.0 mb 0.00 in0.0 mm 0.00 in/hr0.0 mm/hr 0.00 in0.0 mm
09:49 PM 23.4°F-4.8°C -9.8°F-23.2°C 22% Calm Calm 4.5 mph7.2 kmh 30.14 in1020.7 mb 0.00 in0.0 mm 0.00 in/hr0.0 mm/hr 0.00 in0.0 mm
09:48 PM 23.5°F-4.7°C -9.6°F-23.1°C 22% 0.7 mph NNW1.1 kmh NNW 5.4 mph8.7 kmh 30.15 in1021.0 mb 0.00 in0.0 mm 0.00 in/hr0.0 mm/hr 0.00 in0.0 mm
09:47 PM 23.5°F-4.7°C -9.6°F-23.1°C 22% 0.7 mph NNW1.1 kmh NNW 5.4 mph8.7 kmh 30.15 in1021.0 mb 0.00 in0.0 mm 0.00 in/hr0.0 mm/hr 0.00 in0.0 mm
09:46 PM 23.4°F-4.8°C -9.8°F-23.2°C 22% 1.6 mph NNW2.6 kmh NNW 5.4 mph8.7 kmh 30.15 in1021.0 mb 0.00 in0.0 mm 0.00 in/hr0.0 mm/hr 0.00 in0.0 mm
09:45 PM 23.4°F-4.8°C -9.8°F-23.2°C 22% 1.6 mph NNW2.6 kmh NNW 5.4 mph8.7 kmh 30.15 in1021.0 mb 0.00 in0.0 mm 0.00 in/hr0.0 mm/hr 0.00 in0.0 mm
09:44 PM 23.4°F-4.8°C -9.8°F-23.2°C 22% 3.1 mph NNW5.0 kmh NNW 5.4 mph8.7 kmh 30.15 in1021.0 mb 0.00 in0.0 mm 0.00 in/hr0.0 mm/hr 0.00 in0.0 mm
09:43 PM 23.4°F-4.8°C -10.7°F-23.7°C 21% 2.2 mph NNW3.5 kmh NNW 5.4 mph8.7 kmh 30.14 in1020.7 mb 0.00 in0.0 mm 0.00 in/hr0.0 mm/hr 0.00 in0.0 mm
09:42 PM 23.5°F-4.7°C -10.6°F-23.7°C 21% 2.2 mph NNW3.5 kmh NNW 5.4 mph8.7 kmh 30.15 in1021.0 mb 0.00 in0.0 mm 0.00 in/hr0.0 mm/hr 0.00 in0.0 mm
09:41 PM 23.5°F-4.7°C -10.6°F-23.7°C 21% 3.1 mph NNW5.0 kmh NNW 5.4 mph8.7 kmh 30.15 in1021.0 mb 0.00 in0.0 mm 0.00 in/hr0.0 mm/hr 0.00 in0.0 mm
09:40 PM 23.7°F-4.6°C -10.4°F-23.6°C 21% 2.2 mph NNW3.5 kmh NNW 5.4 mph8.7 kmh 30.14 in1020.7 mb 0.00 in0.0 mm 0.00 in/hr0.0 mm/hr 0.00 in0.0 mm
09:39 PM 23.7°F-4.6°C -10.4°F-23.6°C 21% 2.2 mph NNW3.5 kmh NNW 5.4 mph8.7 kmh 30.14 in1020.7 mb 0.00 in0.0 mm 0.00 in/hr0.0 mm/hr 0.00 in0.0 mm
09:38 PM 23.9°F-4.5°C -10.3°F-23.5°C 21% 3.1 mph NNW5.0 kmh NNW 3.8 mph6.1 kmh 30.14 in1020.7 mb 0.00 in0.0 mm 0.00 in/hr0.0 mm/hr 0.00 in0.0 mm
09:37 PM 24.1°F-4.4°C -10.1°F-23.4°C 21% 1.6 mph NNW2.6 kmh NNW 3.1 mph5.0 kmh 30.15 in1021.0 mb 0.00 in0.0 mm 0.00 in/hr0.0 mm/hr 0.00 in0.0 mm
09:36 PM 24.3°F-4.3°C -10.0°F-23.3°C 21% 0.7 mph NW1.1 kmh NW 3.1 mph5.0 kmh 30.14 in1020.7 mb 0.00 in0.0 mm 0.00 in/hr0.0 mm/hr 0.00 in0.0 mm
09:35 PM 24.1°F-4.4°C -10.1°F-23.4°C 21% 1.6 mph NW2.6 kmh NW 3.1 mph5.0 kmh 30.14 in1020.7 mb 0.00 in0.0 mm 0.00 in/hr0.0 mm/hr 0.00 in0.0 mm
09:34 PM 24.1°F-4.4°C -10.1°F-23.4°C 21% 1.6 mph NW2.6 kmh NW 3.1 mph5.0 kmh 30.14 in1020.7 mb 0.00 in0.0 mm 0.00 in/hr0.0 mm/hr 0.00 in0.0 mm
09:33 PM 23.5°F-4.7°C -10.6°F-23.7°C 21% 2.2 mph NW3.5 kmh NW 3.1 mph5.0 kmh 30.14 in1020.7 mb 0.00 in0.0 mm 0.00 in/hr0.0 mm/hr 0.00 in0.0 mm
09:32 PM 23.2°F-4.9°C -10.9°F-23.8°C 21% 1.6 mph NW2.6 kmh NW 2.2 mph3.5 kmh 30.14 in1020.7 mb 0.00 in0.0 mm 0.00 in/hr0.0 mm/hr 0.00 in0.0 mm
09:31 PM 23.0°F-5.0°C -11.0°F-23.9°C 21% 0.7 mph NW1.1 kmh NW 3.1 mph5.0 kmh 30.15 in1021.0 mb 0.00 in0.0 mm 0.00 in/hr0.0 mm/hr 0.00 in0.0 mm
09:30 PM 23.4°F-4.8°C -11.7°F-24.3°C 20% 0.7 mph WNW1.1 kmh WNW 3.1 mph5.0 kmh 30.15 in1021.0 mb 0.00 in0.0 mm 0.00 in/hr0.0 mm/hr 0.00 in0.0 mm
09:29 PM 23.5°F-4.7°C -11.5°F-24.2°C 20% Calm Calm 3.8 mph6.1 kmh 30.15 in1021.0 mb 0.00 in0.0 mm 0.00 in/hr0.0 mm/hr 0.00 in0.0 mm
09:28 PM 23.9°F-4.5°C -11.2°F-24.0°C 20% Calm Calm 3.8 mph6.1 kmh 30.15 in1021.0 mb 0.00 in0.0 mm 0.00 in/hr0.0 mm/hr 0.00 in0.0 mm
09:27 PM 24.3°F-4.3°C -13.0°F-25.0°C 18% 0.7 mph NW1.1 kmh NW 4.5 mph7.2 kmh 30.15 in1021.0 mb 0.00 in0.0 mm 0.00 in/hr0.0 mm/hr 0.00 in0.0 mm
09:26 PM 24.8°F-4.0°C -13.7°F-25.4°C 17% Calm Calm 4.5 mph7.2 kmh 30.15 in1021.0 mb 0.00 in0.0 mm 0.00 in/hr0.0 mm/hr 0.00 in0.0 mm
09:25 PM 25.0°F-3.9°C -13.6°F-25.3°C 17% Calm Calm 4.5 mph7.2 kmh 30.15 in1021.0 mb 0.00 in0.0 mm 0.00 in/hr0.0 mm/hr 0.00 in0.0 mm
09:24 PM 25.3°F-3.7°C -13.3°F-25.2°C 17% Calm Calm 4.5 mph7.2 kmh 30.15 in1021.0 mb 0.00 in0.0 mm 0.00 in/hr0.0 mm/hr 0.00 in0.0 mm
09:23 PM 25.5°F-3.6°C -13.1°F-25.1°C 17% 0.7 mph NNW1.1 kmh NNW 4.5 mph7.2 kmh 30.15 in1021.0 mb 0.00 in0.0 mm 0.00 in/hr0.0 mm/hr 0.00 in0.0 mm
09:22 PM 25.5°F-3.6°C -12.0°F-24.4°C 18% 1.6 mph NNW2.6 kmh NNW 4.5 mph7.2 kmh 30.15 in1021.0 mb 0.00 in0.0 mm 0.00 in/hr0.0 mm/hr 0.00 in0.0 mm
09:21 PM 25.7°F-3.5°C -11.9°F-24.4°C 18% 1.6 mph NNW2.6 kmh NNW 4.5 mph7.2 kmh 30.15 in1021.0 mb 0.00 in0.0 mm 0.00 in/hr0.0 mm/hr 0.00 in0.0 mm
09:20 PM 25.5°F-3.6°C -12.0°F-24.4°C 18% 1.6 mph N2.6 kmh N 4.5 mph7.2 kmh 30.15 in1021.0 mb 0.00 in0.0 mm 0.00 in/hr0.0 mm/hr 0.00 in0.0 mm
09:19 PM 25.5°F-3.6°C -12.0°F-24.4°C 18% 2.2 mph NNW3.5 kmh NNW 4.5 mph7.2 kmh 30.15 in1021.0 mb 0.00 in0.0 mm 0.00 in/hr0.0 mm/hr 0.00 in0.0 mm
09:18 PM 25.3°F-3.7°C -10.0°F-23.3°C 20% 2.2 mph N3.5 kmh N 4.5 mph7.2 kmh 30.15 in1021.0 mb 0.00 in0.0 mm 0.00 in/hr0.0 mm/hr 0.00 in0.0 mm
09:17 PM 25.0°F-3.9°C -10.3°F-23.5°C 20% 2.2 mph N3.5 kmh N 4.5 mph7.2 kmh 30.15 in1021.0 mb 0.00 in0.0 mm 0.00 in/hr0.0 mm/hr 0.00 in0.0 mm
09:16 PM 24.4°F-4.2°C -9.8°F-23.2°C 21% 2.2 mph N3.5 kmh N 4.5 mph7.2 kmh 30.15 in1021.0 mb 0.00 in0.0 mm 0.00 in/hr0.0 mm/hr 0.00 in0.0 mm
09:15 PM 24.4°F-4.2°C -9.8°F-23.2°C 21% Calm Calm 4.5 mph7.2 kmh 30.15 in1021.0 mb 0.00 in0.0 mm 0.00 in/hr0.0 mm/hr 0.00 in0.0 mm
09:14 PM 24.4°F-4.2°C -9.8°F-23.2°C 21% Calm Calm 4.5 mph7.2 kmh 30.14 in1020.7 mb 0.00 in0.0 mm 0.00 in/hr0.0 mm/hr 0.00 in0.0 mm
09:13 PM 24.4°F-4.2°C -9.8°F-23.2°C 21% 1.6 mph N2.6 kmh N 4.5 mph7.2 kmh 30.14 in1020.7 mb 0.00 in0.0 mm 0.00 in/hr0.0 mm/hr 0.00 in0.0 mm
09:12 PM 24.8°F-4.0°C -10.5°F-23.6°C 20% 1.6 mph N2.6 kmh N 4.5 mph7.2 kmh 30.15 in1021.0 mb 0.00 in0.0 mm 0.00 in/hr0.0 mm/hr 0.00 in0.0 mm
09:11 PM 24.6°F-4.1°C -9.7°F-23.2°C 21% 2.2 mph NNW3.5 kmh NNW 4.5 mph7.2 kmh 30.14 in1020.7 mb 0.00 in0.0 mm 0.00 in/hr0.0 mm/hr 0.00 in0.0 mm
09:10 PM 24.8°F-4.0°C -10.5°F-23.6°C 20% 2.2 mph NNW3.5 kmh NNW 3.1 mph5.0 kmh 30.15 in1021.0 mb 0.00 in0.0 mm 0.00 in/hr0.0 mm/hr 0.00 in0.0 mm
09:09 PM 25.0°F-3.9°C -9.4°F-23.0°C 21% 1.6 mph NNW2.6 kmh NNW 3.1 mph5.0 kmh 30.14 in1020.7 mb 0.00 in0.0 mm 0.00 in/hr0.0 mm/hr 0.00 in0.0 mm
09:08 PM 25.0°F-3.9°C -9.4°F-23.0°C 21% 1.6 mph NNW2.6 kmh NNW 2.2 mph3.5 kmh 30.15 in1021.0 mb 0.00 in0.0 mm 0.00 in/hr0.0 mm/hr 0.00 in0.0 mm
09:07 PM 25.0°F-3.9°C -9.4°F-23.0°C 21% 0.7 mph NNW1.1 kmh NNW 2.2 mph3.5 kmh 30.15 in1021.0 mb 0.00 in0.0 mm 0.00 in/hr0.0 mm/hr 0.00 in0.0 mm
09:06 PM 24.3°F-4.3°C -6.4°F-21.3°C 25% 0.7 mph NNW1.1 kmh NNW 2.2 mph3.5 kmh 30.15 in1021.0 mb 0.00 in0.0 mm 0.00 in/hr0.0 mm/hr 0.00 in0.0 mm
09:05 PM 24.3°F-4.3°C -6.4°F-21.3°C 25% 0.7 mph NNW1.1 kmh NNW 3.1 mph5.0 kmh 30.14 in1020.7 mb 0.00 in0.0 mm 0.00 in/hr0.0 mm/hr 0.00 in0.0 mm
09:04 PM 24.3°F-4.3°C -6.4°F-21.3°C 25% 0.7 mph NNW1.1 kmh NNW 3.1 mph5.0 kmh 30.14 in1020.7 mb 0.00 in0.0 mm 0.00 in/hr0.0 mm/hr 0.00 in0.0 mm
09:03 PM 24.3°F-4.3°C -6.4°F-21.3°C 25% 0.7 mph NNW1.1 kmh NNW 3.1 mph5.0 kmh 30.15 in1021.0 mb 0.00 in0.0 mm 0.00 in/hr0.0 mm/hr 0.00 in0.0 mm
09:02 PM 24.3°F-4.3°C -6.4°F-21.3°C 25% 0.7 mph NNW1.1 kmh NNW 3.1 mph5.0 kmh 30.15 in1021.0 mb 0.00 in0.0 mm 0.00 in/hr0.0 mm/hr 0.00 in0.0 mm
09:01 PM 24.3°F-4.3°C -6.4°F-21.3°C 25% 0.7 mph NNW1.1 kmh NNW 3.1 mph5.0 kmh 30.14 in1020.7 mb 0.00 in0.0 mm 0.00 in/hr0.0 mm/hr 0.00 in0.0 mm
09:00 PM 24.3°F-4.3°C -6.4°F-21.3°C 25% 0.7 mph NNW1.1 kmh NNW 3.8 mph6.1 kmh 30.15 in1021.0 mb 0.00 in0.0 mm 0.00 in/hr0.0 mm/hr 0.00 in0.0 mm
08:59 PM 24.3°F-4.3°C -6.4°F-21.3°C 25% 0.7 mph NNW1.1 kmh NNW 4.5 mph7.2 kmh 30.14 in1020.7 mb 0.00 in0.0 mm 0.00 in/hr0.0 mm/hr 0.00 in0.0 mm
08:58 PM 24.3°F-4.3°C -6.4°F-21.3°C 25% Calm Calm 4.5 mph7.2 kmh 30.14 in1020.7 mb 0.00 in0.0 mm 0.00 in/hr0.0 mm/hr 0.00 in0.0 mm
08:57 PM 24.3°F-4.3°C -6.4°F-21.3°C 25% Calm Calm 4.5 mph7.2 kmh 30.15 in1021.0 mb 0.00 in0.0 mm 0.00 in/hr0.0 mm/hr 0.00 in0.0 mm
08:56 PM 24.1°F-4.4°C -5.8°F-21.0°C 26% 0.7 mph NNW1.1 kmh NNW 4.5 mph7.2 kmh 30.15 in1021.0 mb 0.00 in0.0 mm 0.00 in/hr0.0 mm/hr 0.00 in0.0 mm
08:55 PM 24.1°F-4.4°C -5.8°F-21.0°C 26% Calm Calm 4.5 mph7.2 kmh 30.15 in1021.0 mb 0.00 in0.0 mm 0.00 in/hr0.0 mm/hr 0.00 in0.0 mm
08:54 PM 24.1°F-4.4°C -5.8°F-21.0°C 26% Calm Calm 4.5 mph7.2 kmh 30.15 in1021.0 mb 0.00 in0.0 mm 0.00 in/hr0.0 mm/hr 0.00 in0.0 mm
08:53 PM 24.1°F-4.4°C -5.8°F-21.0°C 26% 0.7 mph NNW1.1 kmh NNW 5.4 mph8.7 kmh 30.14 in1020.7 mb 0.00 in0.0 mm 0.00 in/hr0.0 mm/hr 0.00 in0.0 mm
08:52 PM 23.9°F-4.5°C -5.9°F-21.1°C 26% 0.7 mph NNW1.1 kmh NNW 5.4 mph8.7 kmh 30.14 in1020.7 mb 0.00 in0.0 mm 0.00 in/hr0.0 mm/hr 0.00 in0.0 mm
08:51 PM 23.9°F-4.5°C -5.9°F-21.1°C 26% 1.6 mph NNW2.6 kmh NNW 5.4 mph8.7 kmh 30.15 in1021.0 mb 0.00 in0.0 mm 0.00 in/hr0.0 mm/hr 0.00 in0.0 mm
08:50 PM 23.5°F-4.7°C -6.2°F-21.2°C 26% 1.6 mph NNW2.6 kmh NNW 5.4 mph8.7 kmh 30.14 in1020.7 mb 0.00 in0.0 mm 0.00 in/hr0.0 mm/hr 0.00 in0.0 mm
08:49 PM 23.4°F-4.8°C -6.4°F-21.3°C 26% 0.7 mph NNW1.1 kmh NNW 5.4 mph8.7 kmh 30.14 in1020.7 mb 0.00 in0.0 mm 0.00 in/hr0.0 mm/hr 0.00 in0.0 mm
08:48 PM 23.5°F-4.7°C -6.2°F-21.2°C 26% 1.6 mph NNW2.6 kmh NNW 5.4 mph8.7 kmh 30.14 in1020.7 mb 0.00 in0.0 mm 0.00 in/hr0.0 mm/hr 0.00 in0.0 mm
08:47 PM 23.5°F-4.7°C -6.2°F-21.2°C 26% 1.6 mph NNW2.6 kmh NNW 6.0 mph9.7 kmh 30.14 in1020.7 mb 0.00 in0.0 mm 0.00 in/hr0.0 mm/hr 0.00 in0.0 mm
08:46 PM 23.4°F-4.8°C -6.4°F-21.3°C 26% 2.2 mph NNW3.5 kmh NNW 6.0 mph9.7 kmh 30.14 in1020.7 mb 0.00 in0.0 mm 0.00 in/hr0.0 mm/hr 0.00 in0.0 mm
08:45 PM 23.4°F-4.8°C -6.4°F-21.3°C 26% 1.6 mph NNW2.6 kmh NNW 6.0 mph9.7 kmh 30.14 in1020.7 mb 0.00 in0.0 mm 0.00 in/hr0.0 mm/hr 0.00 in0.0 mm
08:44 PM 23.5°F-4.7°C -6.2°F-21.2°C 26% 2.2 mph NNW3.5 kmh NNW 6.0 mph9.7 kmh 30.14 in1020.7 mb 0.00 in0.0 mm 0.00 in/hr0.0 mm/hr 0.00 in0.0 mm
08:43 PM 23.5°F-4.7°C -7.0°F-21.7°C 25% 3.8 mph NNW6.1 kmh NNW 6.0 mph9.7 kmh 30.14 in1020.7 mb 0.00 in0.0 mm 0.00 in/hr0.0 mm/hr 0.00 in0.0 mm
08:42 PM 24.1°F-4.4°C -6.6°F-21.4°C 25% 2.2 mph N3.5 kmh N 6.0 mph9.7 kmh 30.14 in1020.7 mb 0.00 in0.0 mm 0.00 in/hr0.0 mm/hr 0.00 in0.0 mm
08:41 PM 24.1°F-4.4°C -6.6°F-21.4°C 25% 2.2 mph N3.5 kmh N 6.0 mph9.7 kmh 30.14 in1020.7 mb 0.00 in0.0 mm 0.00 in/hr0.0 mm/hr 0.00 in0.0 mm
08:40 PM 24.1°F-4.4°C -6.6°F-21.4°C 25% 3.8 mph N6.1 kmh N 6.0 mph9.7 kmh 30.14 in1020.7 mb 0.00 in0.0 mm 0.00 in/hr0.0 mm/hr 0.00 in0.0 mm
08:39 PM 24.3°F-4.3°C -6.4°F-21.3°C 25% 3.8 mph N6.1 kmh N 6.0 mph9.7 kmh 30.14 in1020.7 mb 0.00 in0.0 mm 0.00 in/hr0.0 mm/hr 0.00 in0.0 mm
08:38 PM 24.4°F-4.2°C -5.5°F-20.8°C 26% 4.5 mph NNW7.2 kmh NNW 6.0 mph9.7 kmh 30.14 in1020.7 mb 0.00 in0.0 mm 0.00 in/hr0.0 mm/hr 0.00 in0.0 mm
08:37 PM 24.6°F-4.1°C -5.3°F-20.7°C 26% 3.8 mph NNW6.1 kmh NNW 5.4 mph8.7 kmh 30.14 in1020.7 mb 0.00 in0.0 mm 0.00 in/hr0.0 mm/hr 0.00 in0.0 mm
08:36 PM 24.6°F-4.1°C -5.3°F-20.7°C 26% 3.1 mph NW5.0 kmh NW 5.4 mph8.7 kmh 30.14 in1020.7 mb 0.00 in0.0 mm 0.00 in/hr0.0 mm/hr 0.00 in0.0 mm
08:35 PM 24.6°F-4.1°C -5.3°F-20.7°C 26% 3.8 mph NW6.1 kmh NW 5.4 mph8.7 kmh 30.14 in1020.7 mb 0.00 in0.0 mm 0.00 in/hr0.0 mm/hr 0.00 in0.0 mm
08:34 PM 24.3°F-4.3°C -5.6°F-20.9°C 26% 2.2 mph WNW3.5 kmh WNW 3.1 mph5.0 kmh 30.14 in1020.7 mb 0.00 in0.0 mm 0.00 in/hr0.0 mm/hr 0.00 in0.0 mm
08:33 PM 23.9°F-4.5°C -5.9°F-21.1°C 26% 2.2 mph WSW3.5 kmh WSW 3.1 mph5.0 kmh 30.14 in1020.7 mb 0.00 in0.0 mm 0.00 in/hr0.0 mm/hr 0.00 in0.0 mm
08:32 PM 23.5°F-4.7°C -5.5°F-20.8°C 27% 0.7 mph WSW1.1 kmh WSW 3.1 mph5.0 kmh 30.14 in1020.7 mb 0.00 in0.0 mm 0.00 in/hr0.0 mm/hr 0.00 in0.0 mm
08:31 PM 23.4°F-4.8°C -5.6°F-20.9°C 27% Calm Calm 3.1 mph5.0 kmh 30.14 in1020.7 mb 0.00 in0.0 mm 0.00 in/hr0.0 mm/hr 0.00 in0.0 mm
08:30 PM 23.4°F-4.8°C -5.6°F-20.9°C 27% Calm Calm 3.1 mph5.0 kmh 30.14 in1020.7 mb 0.00 in0.0 mm 0.00 in/hr0.0 mm/hr 0.00 in0.0 mm
08:29 PM 23.4°F-4.8°C -5.6°F-20.9°C 27% Calm Calm 3.1 mph5.0 kmh 30.14 in1020.7 mb 0.00 in0.0 mm 0.00 in/hr0.0 mm/hr 0.00 in0.0 mm
08:28 PM 23.2°F-4.9°C -5.8°F-21.0°C 27% 0.7 mph SW1.1 kmh SW 3.1 mph5.0 kmh 30.15 in1021.0 mb 0.00 in0.0 mm 0.00 in/hr0.0 mm/hr 0.00 in0.0 mm
08:27 PM 22.8°F-5.1°C -5.3°F-20.7°C 28% 1.6 mph SW2.6 kmh SW 3.1 mph5.0 kmh 30.14 in1020.7 mb 0.00 in0.0 mm 0.00 in/hr0.0 mm/hr 0.00 in0.0 mm
08:26 PM 22.5°F-5.3°C -5.6°F-20.9°C 28% 0.7 mph WSW1.1 kmh WSW 3.1 mph5.0 kmh 30.15 in1021.0 mb 0.00 in0.0 mm 0.00 in/hr0.0 mm/hr 0.00 in0.0 mm
08:25 PM 22.5°F-5.3°C -6.4°F-21.3°C 27% 0.7 mph WSW1.1 kmh WSW 3.1 mph5.0 kmh 30.15 in1021.0 mb 0.00 in0.0 mm 0.00 in/hr0.0 mm/hr 0.00 in0.0 mm
08:24 PM 22.3°F-5.4°C -6.5°F-21.4°C 27% 0.7 mph WSW1.1 kmh WSW 3.1 mph5.0 kmh 30.15 in1021.0 mb 0.00 in0.0 mm 0.00 in/hr0.0 mm/hr 0.00 in0.0 mm
08:23 PM 22.5°F-5.3°C -6.4°F-21.3°C 27% 1.6 mph WSW2.6 kmh WSW 2.2 mph3.5 kmh 30.15 in1021.0 mb 0.00 in0.0 mm 0.00 in/hr0.0 mm/hr 0.00 in0.0 mm
08:22 PM 24.1°F-4.4°C -9.2°F-22.9°C 22% 0.7 mph WSW1.1 kmh WSW 1.6 mph2.6 kmh 30.14 in1020.7 mb 0.00 in0.0 mm 0.00 in/hr0.0 mm/hr 0.00 in0.0 mm
08:21 PM 24.1°F-4.4°C -9.2°F-22.9°C 22% 0.7 mph WSW1.1 kmh WSW 1.6 mph2.6 kmh 30.14 in1020.7 mb 0.00 in0.0 mm 0.00 in/hr0.0 mm/hr 0.00 in0.0 mm
08:20 PM 24.1°F-4.4°C -9.2°F-22.9°C 22% 0.7 mph WSW1.1 kmh WSW 2.2 mph3.5 kmh 30.14 in1020.7 mb 0.00 in0.0 mm 0.00 in/hr0.0 mm/hr 0.00 in0.0 mm
08:19 PM 24.1°F-4.4°C -9.2°F-22.9°C 22% 0.7 mph W1.1 kmh W 3.1 mph5.0 kmh 30.14 in1020.7 mb 0.00 in0.0 mm 0.00 in/hr0.0 mm/hr 0.00 in0.0 mm
08:18 PM 24.1°F-4.4°C -9.2°F-22.9°C 22% 0.7 mph WNW1.1 kmh WNW 3.1 mph5.0 kmh 30.14 in1020.7 mb 0.00 in0.0 mm 0.00 in/hr0.0 mm/hr 0.00 in0.0 mm
08:17 PM 24.1°F-4.4°C -9.2°F-22.9°C 22% 0.7 mph NW1.1 kmh NW 3.1 mph5.0 kmh 30.14 in1020.7 mb 0.00 in0.0 mm 0.00 in/hr0.0 mm/hr 0.00 in0.0 mm
08:16 PM 24.1°F-4.4°C -9.2°F-22.9°C 22% 0.7 mph NW1.1 kmh NW 3.1 mph5.0 kmh 30.14 in1020.7 mb 0.00 in0.0 mm 0.00 in/hr0.0 mm/hr 0.00 in0.0 mm
08:15 PM 24.1°F-4.4°C -9.2°F-22.9°C 22% 0.7 mph NNW1.1 kmh NNW 7.6 mph12.2 kmh 30.14 in1020.7 mb 0.00 in0.0 mm 0.00 in/hr0.0 mm/hr 0.00 in0.0 mm
08:14 PM 24.3°F-4.3°C -9.0°F-22.8°C 22% 0.7 mph NNW1.1 kmh NNW 7.6 mph12.2 kmh 30.14 in1020.7 mb 0.00 in0.0 mm 0.00 in/hr0.0 mm/hr 0.00 in0.0 mm
08:13 PM 24.3°F-4.3°C -9.0°F-22.8°C 22% Calm Calm 7.6 mph12.2 kmh 30.14 in1020.7 mb 0.00 in0.0 mm 0.00 in/hr0.0 mm/hr 0.00 in0.0 mm
08:12 PM 24.3°F-4.3°C -9.0°F-22.8°C 22% Calm Calm 7.6 mph12.2 kmh 30.14 in1020.7 mb 0.00 in0.0 mm 0.00 in/hr0.0 mm/hr 0.00 in0.0 mm
08:11 PM 24.1°F-4.4°C -9.2°F-22.9°C 22% 0.7 mph N1.1 kmh N 7.6 mph12.2 kmh 30.14 in1020.7 mb 0.00 in0.0 mm 0.00 in/hr0.0 mm/hr 0.00 in0.0 mm
08:10 PM 23.9°F-4.5°C -9.3°F-22.9°C 22% 0.7 mph N1.1 kmh N 7.6 mph12.2 kmh 30.14 in1020.7 mb 0.00 in0.0 mm 0.00 in/hr0.0 mm/hr 0.00 in0.0 mm
08:09 PM 23.9°F-4.5°C -9.3°F-22.9°C 22% 1.6 mph N2.6 kmh N 10.7 mph17.2 kmh 30.14 in1020.7 mb 0.00 in0.0 mm 0.00 in/hr0.0 mm/hr 0.00 in0.0 mm
08:08 PM 23.7°F-4.6°C -9.5°F-23.1°C 22% 0.7 mph N1.1 kmh N 10.7 mph17.2 kmh 30.14 in1020.7 mb 0.00 in0.0 mm 0.00 in/hr0.0 mm/hr 0.00 in0.0 mm
08:07 PM 23.7°F-4.6°C -10.4°F-23.6°C 21% 0.7 mph N1.1 kmh N 10.7 mph17.2 kmh 30.14 in1020.7 mb 0.00 in0.0 mm 0.00 in/hr0.0 mm/hr 0.00 in0.0 mm
08:06 PM 24.1°F-4.4°C -10.1°F-23.4°C 21% 1.6 mph NNE2.6 kmh NNE 10.7 mph17.2 kmh 30.14 in1020.7 mb 0.00 in0.0 mm 0.00 in/hr0.0 mm/hr 0.00 in0.0 mm
08:05 PM 23.9°F-4.5°C -11.2°F-24.0°C 20% 3.8 mph NNE6.1 kmh NNE 10.7 mph17.2 kmh 30.14 in1020.7 mb 0.00 in0.0 mm 0.00 in/hr0.0 mm/hr 0.00 in0.0 mm
08:04 PM 24.6°F-4.1°C -10.6°F-23.7°C 20% 2.2 mph NNE3.5 kmh NNE 10.7 mph17.2 kmh 30.14 in1020.7 mb 0.00 in0.0 mm 0.00 in/hr0.0 mm/hr 0.00 in0.0 mm
08:03 PM 24.8°F-4.0°C -13.7°F-25.4°C 17% 2.2 mph NNE3.5 kmh NNE 10.7 mph17.2 kmh 30.14 in1020.7 mb 0.00 in0.0 mm 0.00 in/hr0.0 mm/hr 0.00 in0.0 mm
08:02 PM 24.1°F-4.4°C -13.2°F-25.1°C 18% 6.0 mph NE9.7 kmh NE 10.7 mph17.2 kmh 30.13 in1020.3 mb 0.00 in0.0 mm 0.00 in/hr0.0 mm/hr 0.00 in0.0 mm
08:01 PM 25.0°F-3.9°C -13.6°F-25.3°C 17% 3.1 mph NE5.0 kmh NE 10.7 mph17.2 kmh 30.13 in1020.3 mb 0.00 in0.0 mm 0.00 in/hr0.0 mm/hr 0.00 in0.0 mm
08:00 PM 25.9°F-3.4°C -12.8°F-24.9°C 17% 3.1 mph NE5.0 kmh NE 10.7 mph17.2 kmh 30.13 in1020.3 mb 0.00 in0.0 mm 0.00 in/hr0.0 mm/hr 0.00 in0.0 mm
07:59 PM 26.1°F-3.3°C -12.7°F-24.8°C 17% 5.4 mph NE8.7 kmh NE 10.7 mph17.2 kmh 30.13 in1020.3 mb 0.00 in0.0 mm 0.00 in/hr0.0 mm/hr 0.00 in0.0 mm
07:58 PM 25.9°F-3.4°C -12.8°F-24.9°C 17% 4.5 mph NE7.2 kmh NE 6.9 mph11.1 kmh 30.13 in1020.3 mb 0.00 in0.0 mm 0.00 in/hr0.0 mm/hr 0.00 in0.0 mm
07:57 PM 25.3°F-3.7°C -13.3°F-25.2°C 17% 4.5 mph NE7.2 kmh NE 6.0 mph9.7 kmh 30.13 in1020.3 mb 0.00 in0.0 mm 0.00 in/hr0.0 mm/hr 0.00 in0.0 mm
07:56 PM 25.7°F-3.5°C -13.0°F-25.0°C 17% 3.1 mph NE5.0 kmh NE 5.4 mph8.7 kmh 30.13 in1020.3 mb 0.00 in0.0 mm 0.00 in/hr0.0 mm/hr 0.00 in0.0 mm
07:55 PM 25.3°F-3.7°C -13.3°F-25.2°C 17% 3.8 mph NE6.1 kmh NE 5.4 mph8.7 kmh 30.13 in1020.3 mb 0.00 in0.0 mm 0.00 in/hr0.0 mm/hr 0.00 in0.0 mm
07:54 PM 25.9°F-3.4°C -12.8°F-24.9°C 17% 3.1 mph NE5.0 kmh NE 4.5 mph7.2 kmh 30.13 in1020.3 mb 0.00 in0.0 mm 0.00 in/hr0.0 mm/hr 0.00 in0.0 mm
07:53 PM 25.9°F-3.4°C -12.8°F-24.9°C 17% 3.1 mph NE5.0 kmh NE 4.5 mph7.2 kmh 30.13 in1020.3 mb 0.00 in0.0 mm 0.00 in/hr0.0 mm/hr 0.00 in0.0 mm
07:52 PM 25.9°F-3.4°C -12.8°F-24.9°C 17% 3.1 mph NE5.0 kmh NE 4.5 mph7.2 kmh 30.14 in1020.7 mb 0.00 in0.0 mm 0.00 in/hr0.0 mm/hr 0.00 in0.0 mm
07:51 PM 26.1°F-3.3°C -12.7°F-24.8°C 17% 3.8 mph NE6.1 kmh NE 4.5 mph7.2 kmh 30.13 in1020.3 mb 0.00 in0.0 mm 0.00 in/hr0.0 mm/hr 0.00 in0.0 mm
07:50 PM 27.1°F-2.7°C -13.0°F-25.0°C 16% 2.2 mph NNE3.5 kmh NNE 4.5 mph7.2 kmh 30.13 in1020.3 mb 0.00 in0.0 mm 0.00 in/hr0.0 mm/hr 0.00 in0.0 mm
07:49 PM 26.6°F-3.0°C -13.5°F-25.3°C 16% 2.2 mph NNW3.5 kmh NNW 4.5 mph7.2 kmh 30.13 in1020.3 mb 0.00 in0.0 mm 0.00 in/hr0.0 mm/hr 0.00 in0.0 mm
07:48 PM 26.6°F-3.0°C -13.5°F-25.3°C 16% Calm Calm 4.5 mph7.2 kmh 30.14 in1020.7 mb 0.00 in0.0 mm 0.00 in/hr0.0 mm/hr 0.00 in0.0 mm
07:47 PM 27.0°F-2.8°C -13.2°F-25.1°C 16% Calm Calm 4.5 mph7.2 kmh 30.13 in1020.3 mb 0.00 in0.0 mm 0.00 in/hr0.0 mm/hr 0.00 in0.0 mm
07:46 PM 27.3°F-2.6°C -12.9°F-24.9°C 16% Calm Calm 4.5 mph7.2 kmh 30.14 in1020.7 mb 0.00 in0.0 mm 0.00 in/hr0.0 mm/hr 0.00 in0.0 mm
07:45 PM 27.5°F-2.5°C -11.5°F-24.2°C 17% 0.7 mph WSW1.1 kmh WSW 4.5 mph7.2 kmh 30.14 in1020.7 mb 0.00 in0.0 mm 0.00 in/hr0.0 mm/hr 0.00 in0.0 mm
07:44 PM 25.2°F-3.8°C -12.3°F-24.6°C 18% 3.8 mph WSW6.1 kmh WSW 4.5 mph7.2 kmh 30.13 in1020.3 mb 0.00 in0.0 mm 0.00 in/hr0.0 mm/hr 0.00 in0.0 mm
07:43 PM 25.2°F-3.8°C -12.3°F-24.6°C 18% Calm Calm 4.5 mph7.2 kmh 30.14 in1020.7 mb 0.00 in0.0 mm 0.00 in/hr0.0 mm/hr 0.00 in0.0 mm
07:42 PM 24.8°F-4.0°C -10.5°F-23.6°C 20% 1.6 mph WSW2.6 kmh WSW 4.5 mph7.2 kmh 30.13 in1020.3 mb 0.00 in0.0 mm 0.00 in/hr0.0 mm/hr 0.00 in0.0 mm
07:41 PM 25.0°F-3.9°C -10.3°F-23.5°C 20% 1.6 mph WSW2.6 kmh WSW 4.5 mph7.2 kmh 30.14 in1020.7 mb 0.00 in0.0 mm 0.00 in/hr0.0 mm/hr 0.00 in0.0 mm
07:40 PM 25.3°F-3.7°C -10.0°F-23.3°C 20% 0.7 mph WSW1.1 kmh WSW 4.5 mph7.2 kmh 30.13 in1020.3 mb 0.00 in0.0 mm 0.00 in/hr0.0 mm/hr 0.00 in0.0 mm
07:39 PM 25.3°F-3.7°C -10.0°F-23.3°C 20% 2.2 mph WSW3.5 kmh WSW 4.5 mph7.2 kmh 30.13 in1020.3 mb 0.00 in0.0 mm 0.00 in/hr0.0 mm/hr 0.00 in0.0 mm
07:38 PM 25.3°F-3.7°C -10.0°F-23.3°C 20% 3.1 mph WSW5.0 kmh WSW 4.5 mph7.2 kmh 30.13 in1020.3 mb 0.00 in0.0 mm 0.00 in/hr0.0 mm/hr 0.00 in0.0 mm
07:37 PM 24.6°F-4.1°C -9.7°F-23.2°C 21% 3.8 mph WSW6.1 kmh WSW 4.5 mph7.2 kmh 30.13 in1020.3 mb 0.00 in0.0 mm 0.00 in/hr0.0 mm/hr 0.00 in0.0 mm
07:36 PM 24.8°F-4.0°C -10.5°F-23.6°C 20% 1.6 mph WSW2.6 kmh WSW 4.5 mph7.2 kmh 30.13 in1020.3 mb 0.00 in0.0 mm 0.00 in/hr0.0 mm/hr 0.00 in0.0 mm
07:35 PM 24.6°F-4.1°C -9.7°F-23.2°C 21% 3.1 mph WSW5.0 kmh WSW 4.5 mph7.2 kmh 30.13 in1020.3 mb 0.00 in0.0 mm 0.00 in/hr0.0 mm/hr 0.00 in0.0 mm
07:34 PM 24.4°F-4.2°C -9.8°F-23.2°C 21% 1.6 mph WSW2.6 kmh WSW 3.1 mph5.0 kmh 30.13 in1020.3 mb 0.00 in0.0 mm 0.00 in/hr0.0 mm/hr 0.00 in0.0 mm
07:33 PM 24.3°F-4.3°C -10.0°F-23.3°C 21% 0.7 mph WSW1.1 kmh WSW 3.1 mph5.0 kmh 30.13 in1020.3 mb 0.00 in0.0 mm 0.00 in/hr0.0 mm/hr 0.00 in0.0 mm
07:32 PM 24.1°F-4.4°C -10.1°F-23.4°C 21% 0.7 mph WSW1.1 kmh WSW 3.1 mph5.0 kmh 30.13 in1020.3 mb 0.00 in0.0 mm 0.00 in/hr0.0 mm/hr 0.00 in0.0 mm
07:31 PM 24.3°F-4.3°C -10.0°F-23.3°C 21% 1.6 mph WSW2.6 kmh WSW 3.1 mph5.0 kmh 30.13 in1020.3 mb 0.00 in0.0 mm 0.00 in/hr0.0 mm/hr 0.00 in0.0 mm
07:30 PM 24.3°F-4.3°C -10.0°F-23.3°C 21% 2.2 mph W3.5 kmh W 3.1 mph5.0 kmh 30.13 in1020.3 mb 0.00 in0.0 mm 0.00 in/hr0.0 mm/hr 0.00 in0.0 mm
07:29 PM 24.3°F-4.3°C -10.0°F-23.3°C 21% 0.7 mph W1.1 kmh W 2.2 mph3.5 kmh 30.13 in1020.3 mb 0.00 in0.0 mm 0.00 in/hr0.0 mm/hr 0.00 in0.0 mm
07:28 PM 24.4°F-4.2°C -9.8°F-23.2°C 21% Calm Calm 3.1 mph5.0 kmh 30.13 in1020.3 mb 0.00 in0.0 mm 0.00 in/hr0.0 mm/hr 0.00 in0.0 mm
07:27 PM 24.6°F-4.1°C -9.7°F-23.2°C 21% 1.6 mph NNE2.6 kmh NNE 3.1 mph5.0 kmh 30.13 in1020.3 mb 0.00 in0.0 mm 0.00 in/hr0.0 mm/hr 0.00 in0.0 mm
07:26 PM 24.6°F-4.1°C -10.6°F-23.7°C 20% 0.7 mph ENE1.1 kmh ENE 3.1 mph5.0 kmh 30.13 in1020.3 mb 0.00 in0.0 mm 0.00 in/hr0.0 mm/hr 0.00 in0.0 mm
07:25 PM 24.6°F-4.1°C -10.6°F-23.7°C 20% 0.7 mph ENE1.1 kmh ENE 3.8 mph6.1 kmh 30.13 in1020.3 mb 0.00 in0.0 mm 0.00 in/hr0.0 mm/hr 0.00 in0.0 mm
07:24 PM 24.8°F-4.0°C -12.6°F-24.8°C 18% 0.7 mph ENE1.1 kmh ENE 3.8 mph6.1 kmh 30.13 in1020.3 mb 0.00 in0.0 mm 0.00 in/hr0.0 mm/hr 0.00 in0.0 mm
07:23 PM 24.8°F-4.0°C -12.6°F-24.8°C 18% Calm Calm 3.8 mph6.1 kmh 30.13 in1020.3 mb 0.00 in0.0 mm 0.00 in/hr0.0 mm/hr 0.00 in0.0 mm
07:22 PM 25.0°F-3.9°C -12.4°F-24.7°C 18% Calm Calm 3.8 mph6.1 kmh 30.12 in1020.0 mb 0.00 in0.0 mm 0.00 in/hr0.0 mm/hr 0.00 in0.0 mm
07:21 PM 25.2°F-3.8°C -12.3°F-24.6°C 18% Calm Calm 3.8 mph6.1 kmh 30.12 in1020.0 mb 0.00 in0.0 mm 0.00 in/hr0.0 mm/hr 0.00 in0.0 mm
07:20 PM 25.2°F-3.8°C -13.4°F-25.2°C 17% 0.7 mph ENE1.1 kmh ENE 3.8 mph6.1 kmh 30.12 in1020.0 mb 0.00 in0.0 mm 0.00 in/hr0.0 mm/hr 0.00 in0.0 mm
07:19 PM 25.2°F-3.8°C -12.3°F-24.6°C 18% 1.6 mph ENE2.6 kmh ENE 3.8 mph6.1 kmh 30.12 in1020.0 mb 0.00 in0.0 mm 0.00 in/hr0.0 mm/hr 0.00 in0.0 mm
07:18 PM 25.0°F-3.9°C -13.6°F-25.3°C 17% 2.2 mph ENE3.5 kmh ENE 3.8 mph6.1 kmh 30.12 in1020.0 mb 0.00 in0.0 mm 0.00 in/hr0.0 mm/hr 0.00 in0.0 mm
07:17 PM 25.0°F-3.9°C -13.6°F-25.3°C 17% 1.6 mph ENE2.6 kmh ENE 4.5 mph7.2 kmh 30.12 in1020.0 mb 0.00 in0.0 mm 0.00 in/hr0.0 mm/hr 0.00 in0.0 mm
07:16 PM 25.0°F-3.9°C -13.6°F-25.3°C 17% 1.6 mph ENE2.6 kmh ENE 4.5 mph7.2 kmh 30.12 in1020.0 mb 0.00 in0.0 mm 0.00 in/hr0.0 mm/hr 0.00 in0.0 mm
07:15 PM 25.3°F-3.7°C -13.3°F-25.2°C 17% 2.2 mph ENE3.5 kmh ENE 4.5 mph7.2 kmh 30.12 in1020.0 mb 0.00 in0.0 mm 0.00 in/hr0.0 mm/hr 0.00 in0.0 mm
07:14 PM 25.3°F-3.7°C -13.3°F-25.2°C 17% 2.2 mph ENE3.5 kmh ENE 4.5 mph7.2 kmh 30.12 in1020.0 mb 0.00 in0.0 mm 0.00 in/hr0.0 mm/hr 0.00 in0.0 mm
07:13 PM 25.3°F-3.7°C -13.3°F-25.2°C 17% 2.2 mph ENE3.5 kmh ENE 4.5 mph7.2 kmh 30.12 in1020.0 mb 0.00 in0.0 mm 0.00 in/hr0.0 mm/hr 0.00 in0.0 mm
07:12 PM 25.5°F-3.6°C -13.1°F-25.1°C 17% 2.2 mph ENE3.5 kmh ENE 4.5 mph7.2 kmh 30.12 in1020.0 mb 0.00 in0.0 mm 0.00 in/hr0.0 mm/hr 0.00 in0.0 mm
07:11 PM 25.5°F-3.6°C -13.1°F-25.1°C 17% 3.1 mph ENE5.0 kmh ENE 4.5 mph7.2 kmh 30.12 in1020.0 mb 0.00 in0.0 mm 0.00 in/hr0.0 mm/hr 0.00 in0.0 mm
07:10 PM 25.9°F-3.4°C -14.0°F-25.6°C 16% 3.1 mph ENE5.0 kmh ENE 4.5 mph7.2 kmh 30.12 in1020.0 mb 0.00 in0.0 mm 0.00 in/hr0.0 mm/hr 0.00 in0.0 mm
07:09 PM 26.1°F-3.3°C -13.9°F-25.5°C 16% 2.2 mph ENE3.5 kmh ENE 4.5 mph7.2 kmh 30.12 in1020.0 mb 0.00 in0.0 mm 0.00 in/hr0.0 mm/hr 0.00 in0.0 mm
07:08 PM 26.2°F-3.2°C -13.7°F-25.4°C 16% 2.2 mph ENE3.5 kmh ENE 4.5 mph7.2 kmh 30.12 in1020.0 mb 0.00 in0.0 mm 0.00 in/hr0.0 mm/hr 0.00 in0.0 mm
07:07 PM 26.4°F-3.1°C -13.6°F-25.3°C 16% 3.1 mph NE5.0 kmh NE 4.5 mph7.2 kmh 30.12 in1020.0 mb 0.00 in0.0 mm 0.00 in/hr0.0 mm/hr 0.00 in0.0 mm
07:06 PM 27.1°F-2.7°C -14.3°F-25.7°C 15% 3.1 mph NE5.0 kmh NE 4.5 mph7.2 kmh 30.12 in1020.0 mb 0.00 in0.0 mm 0.00 in/hr0.0 mm/hr 0.00 in0.0 mm
07:05 PM 27.7°F-2.4°C -13.8°F-25.4°C 15% 3.1 mph NE5.0 kmh NE 4.5 mph7.2 kmh 30.12 in1020.0 mb 0.00 in0.0 mm 0.00 in/hr0.0 mm/hr 0.00 in0.0 mm
07:04 PM 27.9°F-2.3°C -13.7°F-25.4°C 15% 3.1 mph NE5.0 kmh NE 3.8 mph6.1 kmh 30.12 in1020.0 mb 0.00 in0.0 mm 0.00 in/hr0.0 mm/hr 0.00 in0.0 mm
07:03 PM 27.9°F-2.3°C -13.7°F-25.4°C 15% 2.2 mph NE3.5 kmh NE 3.8 mph6.1 kmh 30.12 in1020.0 mb 0.00 in0.0 mm 0.00 in/hr0.0 mm/hr 0.00 in0.0 mm
07:02 PM 28.2°F-2.1°C -13.4°F-25.2°C 15% 1.6 mph NNE2.6 kmh NNE 3.1 mph5.0 kmh 30.12 in1020.0 mb 0.00 in0.0 mm 0.00 in/hr0.0 mm/hr 0.00 in0.0 mm
07:01 PM 28.0°F-2.2°C -13.6°F-25.3°C 15% 2.2 mph NNE3.5 kmh NNE 3.1 mph5.0 kmh 30.12 in1020.0 mb 0.00 in0.0 mm 0.00 in/hr0.0 mm/hr 0.00 in0.0 mm
07:00 PM 27.9°F-2.3°C -13.7°F-25.4°C 15% 2.2 mph N3.5 kmh N 3.1 mph5.0 kmh 30.12 in1020.0 mb 0.00 in0.0 mm 0.00 in/hr0.0 mm/hr 0.00 in0.0 mm
06:59 PM 27.7°F-2.4°C -13.8°F-25.4°C 15% 1.6 mph N2.6 kmh N 2.2 mph3.5 kmh 30.12 in1020.0 mb 0.00 in0.0 mm 0.00 in/hr0.0 mm/hr 0.00 in0.0 mm
06:58 PM 27.1°F-2.7°C -14.3°F-25.7°C 15% Calm Calm 2.2 mph3.5 kmh 30.12 in1020.0 mb 0.00 in0.0 mm 0.00 in/hr0.0 mm/hr 0.00 in0.0 mm
06:57 PM 26.8°F-2.9°C -14.6°F-25.9°C 15% 0.7 mph NNW1.1 kmh NNW 2.2 mph3.5 kmh 30.12 in1020.0 mb 0.00 in0.0 mm 0.00 in/hr0.0 mm/hr 0.00 in0.0 mm
06:56 PM 26.8°F-2.9°C -14.6°F-25.9°C 15% 0.7 mph NW1.1 kmh NW 2.2 mph3.5 kmh 30.12 in1020.0 mb 0.00 in0.0 mm 0.00 in/hr0.0 mm/hr 0.00 in0.0 mm
06:55 PM 26.4°F-3.1°C -13.6°F-25.3°C 16% 0.7 mph WSW1.1 kmh WSW 2.2 mph3.5 kmh 30.12 in1020.0 mb 0.00 in0.0 mm 0.00 in/hr0.0 mm/hr 0.00 in0.0 mm
06:54 PM 26.2°F-3.2°C -13.7°F-25.4°C 16% Calm Calm 1.6 mph2.6 kmh 30.12 in1020.0 mb 0.00 in0.0 mm 0.00 in/hr0.0 mm/hr 0.00 in0.0 mm
06:53 PM 26.2°F-3.2°C -13.7°F-25.4°C 16% Calm Calm 1.6 mph2.6 kmh 30.12 in1020.0 mb 0.00 in0.0 mm 0.00 in/hr0.0 mm/hr 0.00 in0.0 mm
06:52 PM 26.2°F-3.2°C -13.7°F-25.4°C 16% Calm Calm 1.6 mph2.6 kmh 30.12 in1020.0 mb 0.00 in0.0 mm 0.00 in/hr0.0 mm/hr 0.00 in0.0 mm
06:51 PM 26.2°F-3.2°C -13.7°F-25.4°C 16% Calm Calm 1.6 mph2.6 kmh 30.12 in1020.0 mb 0.00 in0.0 mm 0.00 in/hr0.0 mm/hr 0.00 in0.0 mm
06:50 PM 26.4°F-3.1°C -13.6°F-25.3°C 16% Calm Calm 1.6 mph2.6 kmh 30.12 in1020.0 mb 0.00 in0.0 mm 0.00 in/hr0.0 mm/hr 0.00 in0.0 mm
06:49 PM 26.4°F-3.1°C -13.6°F-25.3°C 16% Calm Calm 1.6 mph2.6 kmh 30.12 in1020.0 mb 0.00 in0.0 mm 0.00 in/hr0.0 mm/hr 0.00 in0.0 mm
06:48 PM 26.2°F-3.2°C -13.7°F-25.4°C 16% Calm Calm 1.6 mph2.6 kmh 30.12 in1020.0 mb 0.00 in0.0 mm 0.00 in/hr0.0 mm/hr 0.00 in0.0 mm
06:47 PM 26.2°F-3.2°C -13.7°F-25.4°C 16% Calm Calm 1.6 mph2.6 kmh 30.12 in1020.0 mb 0.00 in0.0 mm 0.00 in/hr0.0 mm/hr 0.00 in0.0 mm
06:46 PM 26.6°F-3.0°C -14.7°F-25.9°C 15% 0.7 mph S1.1 kmh S 1.6 mph2.6 kmh 30.12 in1020.0 mb 0.00 in0.0 mm 0.00 in/hr0.0 mm/hr 0.00 in0.0 mm
06:45 PM 26.8°F-2.9°C -14.6°F-25.9°C 15% 0.7 mph S1.1 kmh S 1.6 mph2.6 kmh 30.12 in1020.0 mb 0.00 in0.0 mm 0.00 in/hr0.0 mm/hr 0.00 in0.0 mm
06:44 PM 26.8°F-2.9°C -14.6°F-25.9°C 15% 0.7 mph ENE1.1 kmh ENE 1.6 mph2.6 kmh 30.11 in1019.6 mb 0.00 in0.0 mm 0.00 in/hr0.0 mm/hr 0.00 in0.0 mm
06:43 PM 26.8°F-2.9°C -14.6°F-25.9°C 15% Calm Calm 1.6 mph2.6 kmh 30.12 in1020.0 mb 0.00 in0.0 mm 0.00 in/hr0.0 mm/hr 0.00 in0.0 mm
06:42 PM 26.8°F-2.9°C -14.6°F-25.9°C 15% Calm Calm 2.2 mph3.5 kmh 30.12 in1020.0 mb 0.00 in0.0 mm 0.00 in/hr0.0 mm/hr 0.00 in0.0 mm
06:41 PM 26.8°F-2.9°C -14.6°F-25.9°C 15% Calm Calm 2.2 mph3.5 kmh 30.11 in1019.6 mb 0.00 in0.0 mm 0.00 in/hr0.0 mm/hr 0.00 in0.0 mm
06:40 PM 27.0°F-2.8°C -14.4°F-25.8°C 15% Calm Calm 2.2 mph3.5 kmh 30.11 in1019.6 mb 0.00 in0.0 mm 0.00 in/hr0.0 mm/hr 0.00 in0.0 mm
06:39 PM 27.0°F-2.8°C -14.4°F-25.8°C 15% Calm Calm 2.2 mph3.5 kmh 30.11 in1019.6 mb 0.00 in0.0 mm 0.00 in/hr0.0 mm/hr 0.00 in0.0 mm
06:38 PM 27.1°F-2.7°C -14.3°F-25.7°C 15% Calm Calm 2.2 mph3.5 kmh 30.11 in1019.6 mb 0.00 in0.0 mm 0.00 in/hr0.0 mm/hr 0.00 in0.0 mm
06:37 PM 27.3°F-2.6°C -14.1°F-25.6°C 15% Calm Calm 2.2 mph3.5 kmh 30.11 in1019.6 mb 0.00 in0.0 mm 0.00 in/hr0.0 mm/hr 0.00 in0.0 mm
06:36 PM 27.5°F-2.5°C -14.0°F-25.6°C 15% Calm Calm 3.1 mph5.0 kmh 30.11 in1019.6 mb 0.00 in0.0 mm 0.00 in/hr0.0 mm/hr 0.00 in0.0 mm
06:35 PM 27.5°F-2.5°C -14.0°F-25.6°C 15% Calm Calm 3.1 mph5.0 kmh 30.12 in1020.0 mb 0.00 in0.0 mm 0.00 in/hr0.0 mm/hr 0.00 in0.0 mm
06:34 PM 27.5°F-2.5°C -14.0°F-25.6°C 15% Calm Calm 3.1 mph5.0 kmh 30.11 in1019.6 mb 0.00 in0.0 mm 0.00 in/hr0.0 mm/hr 0.00 in0.0 mm
06:33 PM 27.5°F-2.5°C -14.0°F-25.6°C 15% Calm Calm 3.1 mph5.0 kmh 30.11 in1019.6 mb 0.00 in0.0 mm 0.00 in/hr0.0 mm/hr 0.00 in0.0 mm
06:32 PM 27.5°F-2.5°C -14.0°F-25.6°C 15% 0.7 mph NE1.1 kmh NE 3.1 mph5.0 kmh 30.11 in1019.6 mb 0.00 in0.0 mm 0.00 in/hr0.0 mm/hr 0.00 in0.0 mm
06:31 PM 27.5°F-2.5°C -14.0°F-25.6°C 15% 0.7 mph NE1.1 kmh NE 5.4 mph8.7 kmh 30.11 in1019.6 mb 0.00 in0.0 mm 0.00 in/hr0.0 mm/hr 0.00 in0.0 mm
06:30 PM 27.5°F-2.5°C -14.0°F-25.6°C 15% 0.7 mph NE1.1 kmh NE 5.4 mph8.7 kmh 30.11 in1019.6 mb 0.00 in0.0 mm 0.00 in/hr0.0 mm/hr 0.00 in0.0 mm
06:29 PM 27.5°F-2.5°C -14.0°F-25.6°C 15% 1.6 mph NE2.6 kmh NE 5.4 mph8.7 kmh 30.11 in1019.6 mb 0.00 in0.0 mm 0.00 in/hr0.0 mm/hr 0.00 in0.0 mm
06:28 PM 27.7°F-2.4°C -13.8°F-25.4°C 15% 0.7 mph NE1.1 kmh NE 5.4 mph8.7 kmh 30.11 in1019.6 mb 0.00 in0.0 mm 0.00 in/hr0.0 mm/hr 0.00 in0.0 mm
06:27 PM 27.9°F-2.3°C -13.7°F-25.4°C 15% 0.7 mph NE1.1 kmh NE 5.4 mph8.7 kmh 30.11 in1019.6 mb 0.00 in0.0 mm 0.00 in/hr0.0 mm/hr 0.00 in0.0 mm
06:26 PM 27.9°F-2.3°C -13.7°F-25.4°C 15% 1.6 mph NE2.6 kmh NE 5.4 mph8.7 kmh 30.11 in1019.6 mb 0.00 in0.0 mm 0.00 in/hr0.0 mm/hr 0.00 in0.0 mm
06:25 PM 27.9°F-2.3°C -13.7°F-25.4°C 15% 1.6 mph NE2.6 kmh NE 5.4 mph8.7 kmh 30.11 in1019.6 mb 0.00 in0.0 mm 0.00 in/hr0.0 mm/hr 0.00 in0.0 mm
06:24 PM 27.9°F-2.3°C -16.5°F-26.9°C 13% 0.7 mph NE1.1 kmh NE 5.4 mph8.7 kmh 30.11 in1019.6 mb 0.00 in0.0 mm 0.00 in/hr0.0 mm/hr 0.00 in0.0 mm
06:23 PM 27.9°F-2.3°C -16.5°F-26.9°C 13% 1.6 mph NE2.6 kmh NE 5.4 mph8.7 kmh 30.11 in1019.6 mb 0.00 in0.0 mm 0.00 in/hr0.0 mm/hr 0.00 in0.0 mm
06:22 PM 28.4°F-2.0°C -9.6°F-23.1°C 18% 2.2 mph NE3.5 kmh NE 5.4 mph8.7 kmh 30.11 in1019.6 mb 0.00 in0.0 mm 0.00 in/hr0.0 mm/hr 0.00 in0.0 mm
06:21 PM 28.2°F-2.1°C -16.2°F-26.8°C 13% 4.5 mph NE7.2 kmh NE 5.4 mph8.7 kmh 30.11 in1019.6 mb 0.00 in0.0 mm 0.00 in/hr0.0 mm/hr 0.00 in0.0 mm
06:20 PM 28.0°F-2.2°C -16.4°F-26.9°C 13% 2.2 mph NE3.5 kmh NE 4.5 mph7.2 kmh 30.11 in1019.6 mb 0.00 in0.0 mm 0.00 in/hr0.0 mm/hr 0.00 in0.0 mm
06:19 PM 28.2°F-2.1°C -16.2°F-26.8°C 13% 0.7 mph ENE1.1 kmh ENE 4.5 mph7.2 kmh 30.11 in1019.6 mb 0.00 in0.0 mm 0.00 in/hr0.0 mm/hr 0.00 in0.0 mm
06:18 PM 28.4°F-2.0°C -9.6°F-23.1°C 18% 2.2 mph NE3.5 kmh NE 3.8 mph6.1 kmh 30.11 in1019.6 mb 0.00 in0.0 mm 0.00 in/hr0.0 mm/hr 0.00 in0.0 mm
06:17 PM 28.6°F-1.9°C -9.5°F-23.1°C 18% 1.6 mph NE2.6 kmh NE 3.8 mph6.1 kmh 30.11 in1019.6 mb 0.00 in0.0 mm 0.00 in/hr0.0 mm/hr 0.00 in0.0 mm
06:16 PM 28.4°F-2.0°C -9.6°F-23.1°C 18% 1.6 mph NE2.6 kmh NE 3.8 mph6.1 kmh 30.11 in1019.6 mb 0.00 in0.0 mm 0.00 in/hr0.0 mm/hr 0.00 in0.0 mm
06:15 PM 28.4°F-2.0°C -9.6°F-23.1°C 18% 1.6 mph NE2.6 kmh NE 3.8 mph6.1 kmh 30.11 in1019.6 mb 0.00 in0.0 mm 0.00 in/hr0.0 mm/hr 0.00 in0.0 mm
06:14 PM 28.4°F-2.0°C -9.6°F-23.1°C 18% 0.7 mph NE1.1 kmh NE 3.8 mph6.1 kmh 30.11 in1019.6 mb 0.00 in0.0 mm 0.00 in/hr0.0 mm/hr 0.00 in0.0 mm
06:13 PM 28.6°F-1.9°C -9.5°F-23.1°C 18% 1.6 mph NE2.6 kmh NE 3.8 mph6.1 kmh 30.11 in1019.6 mb 0.00 in0.0 mm 0.00 in/hr0.0 mm/hr 0.00 in0.0 mm
06:12 PM 28.6°F-1.9°C -7.3°F-21.8°C 20% 1.6 mph NE2.6 kmh NE 3.8 mph6.1 kmh 30.11 in1019.6 mb 0.00 in0.0 mm 0.00 in/hr0.0 mm/hr 0.00 in0.0 mm
06:11 PM 28.8°F-1.8°C -7.2°F-21.8°C 20% Calm Calm 3.8 mph6.1 kmh 30.11 in1019.6 mb 0.00 in0.0 mm 0.00 in/hr0.0 mm/hr 0.00 in0.0 mm
06:10 PM 28.8°F-1.8°C -7.2°F-21.8°C 20% 1.6 mph NE2.6 kmh NE 3.8 mph6.1 kmh 30.11 in1019.6 mb 0.00 in0.0 mm 0.00 in/hr0.0 mm/hr 0.00 in0.0 mm
06:09 PM 28.6°F-1.9°C -7.3°F-21.8°C 20% 2.2 mph NE3.5 kmh NE 3.8 mph6.1 kmh 30.11 in1019.6 mb 0.00 in0.0 mm 0.00 in/hr0.0 mm/hr 0.00 in0.0 mm
06:08 PM 28.8°F-1.8°C -7.2°F-21.8°C 20% 1.6 mph NE2.6 kmh NE 3.8 mph6.1 kmh 30.11 in1019.6 mb 0.00 in0.0 mm 0.00 in/hr0.0 mm/hr 0.00 in0.0 mm
06:07 PM 28.9°F-1.7°C -9.2°F-22.9°C 18% 0.7 mph NNE1.1 kmh NNE 3.8 mph6.1 kmh 30.11 in1019.6 mb 0.00 in0.0 mm 0.00 in/hr0.0 mm/hr 0.00 in0.0 mm
06:06 PM 28.8°F-1.8°C -7.2°F-21.8°C 20% 1.6 mph NE2.6 kmh NE 4.5 mph7.2 kmh 30.11 in1019.6 mb 0.00 in0.0 mm 0.00 in/hr0.0 mm/hr 0.00 in0.0 mm
06:05 PM 28.8°F-1.8°C -7.2°F-21.8°C 20% 1.6 mph NE2.6 kmh NE 4.5 mph7.2 kmh 30.10 in1019.3 mb 0.00 in0.0 mm 0.00 in/hr0.0 mm/hr 0.00 in0.0 mm
06:04 PM 28.8°F-1.8°C -7.2°F-21.8°C 20% 1.6 mph NE2.6 kmh NE 4.5 mph7.2 kmh 30.11 in1019.6 mb 0.00 in0.0 mm 0.00 in/hr0.0 mm/hr 0.00 in0.0 mm
06:03 PM 28.8°F-1.8°C -7.2°F-21.8°C 20% 1.6 mph NNE2.6 kmh NNE 4.5 mph7.2 kmh 30.11 in1019.6 mb 0.00 in0.0 mm 0.00 in/hr0.0 mm/hr 0.00 in0.0 mm
06:02 PM 28.6°F-1.9°C -9.5°F-23.1°C 18% 1.6 mph NNE2.6 kmh NNE 5.4 mph8.7 kmh 30.11 in1019.6 mb 0.00 in0.0 mm 0.00 in/hr0.0 mm/hr 0.00 in0.0 mm
06:01 PM 28.8°F-1.8°C -7.2°F-21.8°C 20% 0.7 mph NNE1.1 kmh NNE 5.4 mph8.7 kmh 30.11 in1019.6 mb 0.00 in0.0 mm 0.00 in/hr0.0 mm/hr 0.00 in0.0 mm
06:00 PM 28.8°F-1.8°C -7.2°F-21.8°C 20% 0.7 mph NE1.1 kmh NE 5.4 mph8.7 kmh 30.11 in1019.6 mb 0.00 in0.0 mm 0.00 in/hr0.0 mm/hr 0.00 in0.0 mm
05:59 PM 28.8°F-1.8°C -7.2°F-21.8°C 20% 0.7 mph NE1.1 kmh NE 5.4 mph8.7 kmh 30.11 in1019.6 mb 0.00 in0.0 mm 0.00 in/hr0.0 mm/hr 0.00 in0.0 mm
05:58 PM 29.1°F-1.6°C -6.9°F-21.6°C 20% 0.7 mph NE1.1 kmh NE 5.4 mph8.7 kmh 30.11 in1019.6 mb 0.00 in0.0 mm 0.00 in/hr0.0 mm/hr 0.00 in0.0 mm
05:57 PM 29.3°F-1.5°C -6.7°F-21.5°C 20% 0.7 mph NE1.1 kmh NE 5.4 mph8.7 kmh 30.11 in1019.6 mb 0.00 in0.0 mm 0.00 in/hr0.0 mm/hr 0.00 in0.0 mm
05:56 PM 29.1°F-1.6°C -6.9°F-21.6°C 20% 2.2 mph NNE3.5 kmh NNE 5.4 mph8.7 kmh 30.11 in1019.6 mb 0.00 in0.0 mm 0.00 in/hr0.0 mm/hr 0.00 in0.0 mm
05:55 PM 29.1°F-1.6°C -6.9°F-21.6°C 20% 2.2 mph NNE3.5 kmh NNE 5.4 mph8.7 kmh 30.11 in1019.6 mb 0.00 in0.0 mm 0.00 in/hr0.0 mm/hr 0.00 in0.0 mm
05:54 PM 28.9°F-1.7°C -7.0°F-21.7°C 20% 1.6 mph NNE2.6 kmh NNE 5.4 mph8.7 kmh 30.11 in1019.6 mb 0.00 in0.0 mm 0.00 in/hr0.0 mm/hr 0.00 in0.0 mm
05:53 PM 28.9°F-1.7°C -7.0°F-21.7°C 20% 0.7 mph NNE1.1 kmh NNE 5.4 mph8.7 kmh 30.11 in1019.6 mb 0.00 in0.0 mm 0.00 in/hr0.0 mm/hr 0.00 in0.0 mm
05:52 PM 29.1°F-1.6°C -6.9°F-21.6°C 20% 2.2 mph NNE3.5 kmh NNE 5.4 mph8.7 kmh 30.10 in1019.3 mb 0.00 in0.0 mm 0.00 in/hr0.0 mm/hr 0.00 in0.0 mm
05:51 PM 29.1°F-1.6°C -6.9°F-21.6°C 20% 2.2 mph N3.5 kmh N 5.4 mph8.7 kmh 30.10 in1019.3 mb 0.00 in0.0 mm 0.00 in/hr0.0 mm/hr 0.00 in0.0 mm
05:50 PM 28.8°F-1.8°C -7.2°F-21.8°C 20% 1.6 mph N2.6 kmh N 5.4 mph8.7 kmh 30.10 in1019.3 mb 0.00 in0.0 mm 0.00 in/hr0.0 mm/hr 0.00 in0.0 mm
05:49 PM 28.8°F-1.8°C -7.2°F-21.8°C 20% 0.7 mph N1.1 kmh N 5.4 mph8.7 kmh 30.10 in1019.3 mb 0.00 in0.0 mm 0.00 in/hr0.0 mm/hr 0.00 in0.0 mm
05:48 PM 28.8°F-1.8°C -7.2°F-21.8°C 20% 2.2 mph NNE3.5 kmh NNE 6.9 mph11.1 kmh 30.10 in1019.3 mb 0.00 in0.0 mm 0.00 in/hr0.0 mm/hr 0.00 in0.0 mm
05:47 PM 28.8°F-1.8°C -7.2°F-21.8°C 20% 2.2 mph NNE3.5 kmh NNE 7.6 mph12.2 kmh 30.10 in1019.3 mb 0.00 in0.0 mm 0.00 in/hr0.0 mm/hr 0.00 in0.0 mm
05:46 PM 28.9°F-1.7°C -7.0°F-21.7°C 20% 2.2 mph NNE3.5 kmh NNE 7.6 mph12.2 kmh 30.10 in1019.3 mb 0.00 in0.0 mm 0.00 in/hr0.0 mm/hr 0.00 in0.0 mm
05:45 PM 29.1°F-1.6°C -6.9°F-21.6°C 20% 1.6 mph NE2.6 kmh NE 7.6 mph12.2 kmh 30.10 in1019.3 mb 0.00 in0.0 mm 0.00 in/hr0.0 mm/hr 0.00 in0.0 mm
05:44 PM 28.9°F-1.7°C -7.0°F-21.7°C 20% 3.1 mph NNE5.0 kmh NNE 7.6 mph12.2 kmh 30.10 in1019.3 mb 0.00 in0.0 mm 0.00 in/hr0.0 mm/hr 0.00 in0.0 mm
05:43 PM 28.9°F-1.7°C -7.0°F-21.7°C 20% 3.1 mph NNE5.0 kmh NNE 7.6 mph12.2 kmh 30.10 in1019.3 mb 0.00 in0.0 mm 0.00 in/hr0.0 mm/hr 0.00 in0.0 mm
05:42 PM 28.9°F-1.7°C -7.0°F-21.7°C 20% 2.2 mph NNE3.5 kmh NNE 7.6 mph12.2 kmh 30.10 in1019.3 mb 0.00 in0.0 mm 0.00 in/hr0.0 mm/hr 0.00 in0.0 mm
05:41 PM 28.9°F-1.7°C -7.0°F-21.7°C 20% 3.1 mph NE5.0 kmh NE 7.6 mph12.2 kmh 30.10 in1019.3 mb 0.00 in0.0 mm 0.00 in/hr0.0 mm/hr 0.00 in0.0 mm
05:40 PM 28.9°F-1.7°C -7.0°F-21.7°C 20% 3.8 mph NE6.1 kmh NE 7.6 mph12.2 kmh 30.10 in1019.3 mb 0.00 in0.0 mm 0.00 in/hr0.0 mm/hr 0.00 in0.0 mm
05:39 PM 28.9°F-1.7°C -7.0°F-21.7°C 20% 3.1 mph NE5.0 kmh NE 7.6 mph12.2 kmh 30.09 in1019.0 mb 0.00 in0.0 mm 0.00 in/hr0.0 mm/hr 0.00 in0.0 mm
05:38 PM 28.8°F-1.8°C -7.2°F-21.8°C 20% 5.4 mph NE8.7 kmh NE 7.6 mph12.2 kmh 30.09 in1019.0 mb 0.00 in0.0 mm 0.00 in/hr0.0 mm/hr 0.00 in0.0 mm
05:37 PM 28.8°F-1.8°C -7.2°F-21.8°C 20% 3.1 mph NE5.0 kmh NE 7.6 mph12.2 kmh 30.10 in1019.3 mb 0.00 in0.0 mm 0.00 in/hr0.0 mm/hr 0.00 in0.0 mm
05:36 PM 28.9°F-1.7°C -7.0°F-21.7°C 20% 2.2 mph NE3.5 kmh NE 7.6 mph12.2 kmh 30.09 in1019.0 mb 0.00 in0.0 mm 0.00 in/hr0.0 mm/hr 0.00 in0.0 mm
05:35 PM 29.5°F-1.4°C -6.6°F-21.4°C 20% 2.2 mph NE3.5 kmh NE 7.6 mph12.2 kmh 30.10 in1019.3 mb 0.00 in0.0 mm 0.00 in/hr0.0 mm/hr 0.00 in0.0 mm
05:34 PM 29.1°F-1.6°C -6.9°F-21.6°C 20% 4.5 mph NE7.2 kmh NE 7.6 mph12.2 kmh 30.09 in1019.0 mb 0.00 in0.0 mm 0.00 in/hr0.0 mm/hr 0.00 in0.0 mm
05:33 PM 29.3°F-1.5°C -8.9°F-22.7°C 18% 3.8 mph NE6.1 kmh NE 7.6 mph12.2 kmh 30.09 in1019.0 mb 0.00 in0.0 mm 0.00 in/hr0.0 mm/hr 0.00 in0.0 mm
05:32 PM 29.5°F-1.4°C -8.7°F-22.6°C 18% 3.1 mph NE5.0 kmh NE 7.6 mph12.2 kmh 30.09 in1019.0 mb 0.00 in0.0 mm 0.00 in/hr0.0 mm/hr 0.00 in0.0 mm
05:31 PM 29.3°F-1.5°C -6.7°F-21.5°C 20% 5.4 mph NE8.7 kmh NE 7.6 mph12.2 kmh 30.09 in1019.0 mb 0.00 in0.0 mm 0.00 in/hr0.0 mm/hr 0.00 in0.0 mm
05:30 PM 28.9°F-1.7°C -7.0°F-21.7°C 20% 3.8 mph NE6.1 kmh NE 7.6 mph12.2 kmh 30.09 in1019.0 mb 0.00 in0.0 mm 0.00 in/hr0.0 mm/hr 0.00 in0.0 mm
05:29 PM 28.9°F-1.7°C -7.0°F-21.7°C 20% 3.1 mph NE5.0 kmh NE 7.6 mph12.2 kmh 30.09 in1019.0 mb 0.00 in0.0 mm 0.00 in/hr0.0 mm/hr 0.00 in0.0 mm
05:28 PM 29.1°F-1.6°C -6.9°F-21.6°C 20% 3.8 mph NE6.1 kmh NE 7.6 mph12.2 kmh 30.09 in1019.0 mb 0.00 in0.0 mm 0.00 in/hr0.0 mm/hr 0.00 in0.0 mm
05:27 PM 29.1°F-1.6°C -6.9°F-21.6°C 20% 2.2 mph NE3.5 kmh NE 7.6 mph12.2 kmh 30.09 in1019.0 mb 0.00 in0.0 mm 0.00 in/hr0.0 mm/hr 0.00 in0.0 mm
05:26 PM 29.1°F-1.6°C -9.0°F-22.8°C 18% 3.8 mph NNE6.1 kmh NNE 7.6 mph12.2 kmh 30.09 in1019.0 mb 0.00 in0.0 mm 0.00 in/hr0.0 mm/hr 0.00 in0.0 mm
05:25 PM 29.1°F-1.6°C -9.0°F-22.8°C 18% 3.1 mph NNE5.0 kmh NNE 7.6 mph12.2 kmh 30.09 in1019.0 mb 0.00 in0.0 mm 0.00 in/hr0.0 mm/hr 0.00 in0.0 mm
05:24 PM 29.3°F-1.5°C -8.9°F-22.7°C 18% 3.8 mph NNE6.1 kmh NNE 7.6 mph12.2 kmh 30.09 in1019.0 mb 0.00 in0.0 mm 0.00 in/hr0.0 mm/hr 0.00 in0.0 mm
05:23 PM 29.1°F-1.6°C -9.0°F-22.8°C 18% 4.5 mph NE7.2 kmh NE 7.6 mph12.2 kmh 30.09 in1019.0 mb 0.00 in0.0 mm 0.00 in/hr0.0 mm/hr 0.00 in0.0 mm
05:22 PM 29.1°F-1.6°C -9.0°F-22.8°C 18% 3.1 mph NE5.0 kmh NE 7.6 mph12.2 kmh 30.08 in1018.6 mb 0.00 in0.0 mm 0.00 in/hr0.0 mm/hr 0.00 in0.0 mm
05:21 PM 29.5°F-1.4°C -8.7°F-22.6°C 18% 3.1 mph NE5.0 kmh NE 7.6 mph12.2 kmh 30.08 in1018.6 mb 0.00 in0.0 mm 0.00 in/hr0.0 mm/hr 0.00 in0.0 mm
05:20 PM 29.8°F-1.2°C -8.4°F-22.4°C 18% 3.8 mph NE6.1 kmh NE 7.6 mph12.2 kmh 30.09 in1019.0 mb 0.00 in0.0 mm 0.00 in/hr0.0 mm/hr 0.00 in0.0 mm
05:19 PM 29.7°F-1.3°C -8.6°F-22.6°C 18% 6.0 mph NE9.7 kmh NE 7.6 mph12.2 kmh 30.09 in1019.0 mb 0.00 in0.0 mm 0.00 in/hr0.0 mm/hr 0.00 in0.0 mm
05:18 PM 29.3°F-1.5°C -8.9°F-22.7°C 18% 3.1 mph NE5.0 kmh NE 6.0 mph9.7 kmh 30.09 in1019.0 mb 0.00 in0.0 mm 0.00 in/hr0.0 mm/hr 0.00 in0.0 mm
05:17 PM 29.7°F-1.3°C -8.6°F-22.6°C 18% 2.2 mph NE3.5 kmh NE 6.0 mph9.7 kmh 30.09 in1019.0 mb 0.00 in0.0 mm 0.00 in/hr0.0 mm/hr 0.00 in0.0 mm
05:16 PM 30.0°F-1.1°C -8.3°F-22.4°C 18% 3.1 mph NE5.0 kmh NE 6.0 mph9.7 kmh 30.09 in1019.0 mb 0.00 in0.0 mm 0.00 in/hr0.0 mm/hr 0.00 in0.0 mm
05:15 PM 30.2°F-1.0°C -9.3°F-22.9°C 17% 2.2 mph NE3.5 kmh NE 6.0 mph9.7 kmh 30.09 in1019.0 mb 0.00 in0.0 mm 0.00 in/hr0.0 mm/hr 0.00 in0.0 mm
05:14 PM 30.4°F-0.9°C -9.1°F-22.8°C 17% 3.8 mph NE6.1 kmh NE 6.0 mph9.7 kmh 30.09 in1019.0 mb 0.00 in0.0 mm 0.00 in/hr0.0 mm/hr 0.00 in0.0 mm
05:13 PM 30.4°F-0.9°C -9.1°F-22.8°C 17% 4.5 mph NNE7.2 kmh NNE 6.0 mph9.7 kmh 30.08 in1018.6 mb 0.00 in0.0 mm 0.00 in/hr0.0 mm/hr 0.00 in0.0 mm
05:12 PM 30.6°F-0.8°C -9.0°F-22.8°C 17% 3.1 mph N5.0 kmh N 6.0 mph9.7 kmh 30.08 in1018.6 mb 0.00 in0.0 mm 0.00 in/hr0.0 mm/hr 0.00 in0.0 mm
05:11 PM 30.6°F-0.8°C -9.0°F-22.8°C 17% 1.6 mph N2.6 kmh N 6.0 mph9.7 kmh 30.09 in1019.0 mb 0.00 in0.0 mm 0.00 in/hr0.0 mm/hr 0.00 in0.0 mm
05:10 PM 30.4°F-0.9°C -9.1°F-22.8°C 17% 3.8 mph N6.1 kmh N 6.0 mph9.7 kmh 30.08 in1018.6 mb 0.00 in0.0 mm 0.00 in/hr0.0 mm/hr 0.00 in0.0 mm
05:09 PM 30.6°F-0.8°C -9.0°F-22.8°C 17% 2.2 mph N3.5 kmh N 4.5 mph7.2 kmh 30.08 in1018.6 mb 0.00 in0.0 mm 0.00 in/hr0.0 mm/hr 0.00 in0.0 mm
05:08 PM 30.6°F-0.8°C -9.0°F-22.8°C 17% 1.6 mph N2.6 kmh N 4.5 mph7.2 kmh 30.08 in1018.6 mb 0.00 in0.0 mm 0.00 in/hr0.0 mm/hr 0.00 in0.0 mm
05:07 PM 30.6°F-0.8°C -9.0°F-22.8°C 17% 2.2 mph N3.5 kmh N 4.5 mph7.2 kmh 30.09 in1019.0 mb 0.00 in0.0 mm 0.00 in/hr0.0 mm/hr 0.00 in0.0 mm
05:06 PM 30.6°F-0.8°C -9.0°F-22.8°C 17% 3.1 mph N5.0 kmh N 4.5 mph7.2 kmh 30.08 in1018.6 mb 0.00 in0.0 mm 0.00 in/hr0.0 mm/hr 0.00 in0.0 mm
05:05 PM 30.7°F-0.7°C -8.8°F-22.7°C 17% 3.1 mph N5.0 kmh N 4.5 mph7.2 kmh 30.08 in1018.6 mb 0.00 in0.0 mm 0.00 in/hr0.0 mm/hr 0.00 in0.0 mm
05:04 PM 30.6°F-0.8°C -9.0°F-22.8°C 17% 3.1 mph N5.0 kmh N 5.4 mph8.7 kmh 30.08 in1018.6 mb 0.00 in0.0 mm 0.00 in/hr0.0 mm/hr 0.00 in0.0 mm
05:03 PM 30.7°F-0.7°C -8.8°F-22.7°C 17% 2.2 mph N3.5 kmh N 5.4 mph8.7 kmh 30.09 in1019.0 mb 0.00 in0.0 mm 0.00 in/hr0.0 mm/hr 0.00 in0.0 mm
05:02 PM 30.9°F-0.6°C -8.7°F-22.6°C 17% 1.6 mph N2.6 kmh N 5.4 mph8.7 kmh 30.09 in1019.0 mb 0.00 in0.0 mm 0.00 in/hr0.0 mm/hr 0.00 in0.0 mm
05:01 PM 30.9°F-0.6°C -8.7°F-22.6°C 17% 1.6 mph N2.6 kmh N 5.4 mph8.7 kmh 30.09 in1019.0 mb 0.00 in0.0 mm 0.00 in/hr0.0 mm/hr 0.00 in0.0 mm
05:00 PM 31.1°F-0.5°C -8.5°F-22.5°C 17% 2.2 mph N3.5 kmh N 7.6 mph12.2 kmh 30.08 in1018.6 mb 0.00 in0.0 mm 0.00 in/hr0.0 mm/hr 0.00 in0.0 mm
04:59 PM 30.9°F-0.6°C -8.7°F-22.6°C 17% 2.2 mph N3.5 kmh N 7.6 mph12.2 kmh 30.08 in1018.6 mb 0.00 in0.0 mm 0.00 in/hr0.0 mm/hr 0.00 in0.0 mm
04:58 PM 30.9°F-0.6°C -8.7°F-22.6°C 17% 1.6 mph N2.6 kmh N 7.6 mph12.2 kmh 30.09 in1019.0 mb 0.00 in0.0 mm 0.00 in/hr0.0 mm/hr 0.00 in0.0 mm
04:57 PM 30.9°F-0.6°C -8.7°F-22.6°C 17% 2.2 mph N3.5 kmh N 7.6 mph12.2 kmh 30.09 in1019.0 mb 0.00 in0.0 mm 0.00 in/hr0.0 mm/hr 0.00 in0.0 mm
04:56 PM 31.1°F-0.5°C -8.5°F-22.5°C 17% 1.6 mph NNE2.6 kmh NNE 7.6 mph12.2 kmh 30.08 in1018.6 mb 0.00 in0.0 mm 0.00 in/hr0.0 mm/hr 0.00 in0.0 mm
04:55 PM 31.1°F-0.5°C -8.5°F-22.5°C 17% 3.1 mph NNE5.0 kmh NNE 7.6 mph12.2 kmh 30.08 in1018.6 mb 0.00 in0.0 mm 0.00 in/hr0.0 mm/hr 0.00 in0.0 mm
04:54 PM 31.1°F-0.5°C -8.5°F-22.5°C 17% 3.1 mph NNE5.0 kmh NNE 7.6 mph12.2 kmh 30.08 in1018.6 mb 0.00 in0.0 mm 0.00 in/hr0.0 mm/hr 0.00 in0.0 mm
04:53 PM 31.1°F-0.5°C -8.5°F-22.5°C 17% 2.2 mph NE3.5 kmh NE 7.6 mph12.2 kmh 30.08 in1018.6 mb 0.00 in0.0 mm 0.00 in/hr0.0 mm/hr 0.00 in0.0 mm
04:52 PM 31.1°F-0.5°C -8.5°F-22.5°C 17% 3.8 mph NE6.1 kmh NE 7.6 mph12.2 kmh 30.08 in1018.6 mb 0.00 in0.0 mm 0.00 in/hr0.0 mm/hr 0.00 in0.0 mm
04:51 PM 31.3°F-0.4°C -8.4°F-22.4°C 17% 2.2 mph NE3.5 kmh NE 7.6 mph12.2 kmh 30.08 in1018.6 mb 0.00 in0.0 mm 0.00 in/hr0.0 mm/hr 0.00 in0.0 mm
04:50 PM 31.3°F-0.4°C -8.4°F-22.4°C 17% 4.5 mph NE7.2 kmh NE 7.6 mph12.2 kmh 30.08 in1018.6 mb 0.00 in0.0 mm 0.00 in/hr0.0 mm/hr 0.00 in0.0 mm
04:49 PM 31.3°F-0.4°C -8.4°F-22.4°C 17% 3.1 mph NE5.0 kmh NE 6.9 mph11.1 kmh 30.08 in1018.6 mb 0.00 in0.0 mm 0.00 in/hr0.0 mm/hr 0.00 in0.0 mm
04:48 PM 31.1°F-0.5°C -8.5°F-22.5°C 17% 4.5 mph NE7.2 kmh NE 6.9 mph11.1 kmh 30.08 in1018.6 mb 0.00 in0.0 mm 0.00 in/hr0.0 mm/hr 0.00 in0.0 mm
04:47 PM 31.1°F-0.5°C -8.5°F-22.5°C 17% 3.1 mph NNE5.0 kmh NNE 6.0 mph9.7 kmh 30.08 in1018.6 mb 0.00 in0.0 mm 0.00 in/hr0.0 mm/hr 0.00 in0.0 mm
04:46 PM 31.1°F-0.5°C -8.5°F-22.5°C 17% 2.2 mph NNE3.5 kmh NNE 6.0 mph9.7 kmh 30.08 in1018.6 mb 0.00 in0.0 mm 0.00 in/hr0.0 mm/hr 0.00 in0.0 mm
04:45 PM 31.3°F-0.4°C -8.4°F-22.4°C 17% 3.1 mph NNE5.0 kmh NNE 6.0 mph9.7 kmh 30.08 in1018.6 mb 0.00 in0.0 mm 0.00 in/hr0.0 mm/hr 0.00 in0.0 mm
04:44 PM 31.1°F-0.5°C -8.5°F-22.5°C 17% 3.8 mph NNE6.1 kmh NNE 6.0 mph9.7 kmh 30.08 in1018.6 mb 0.00 in0.0 mm 0.00 in/hr0.0 mm/hr 0.00 in0.0 mm
04:43 PM 31.1°F-0.5°C -8.5°F-22.5°C 17% 1.6 mph NNE2.6 kmh NNE 6.0 mph9.7 kmh 30.08 in1018.6 mb 0.00 in0.0 mm 0.00 in/hr0.0 mm/hr 0.00 in0.0 mm
04:42 PM 31.3°F-0.4°C -8.4°F-22.4°C 17% 0.7 mph N1.1 kmh N 6.0 mph9.7 kmh 30.08 in1018.6 mb 0.00 in0.0 mm 0.00 in/hr0.0 mm/hr 0.00 in0.0 mm
04:41 PM 31.3°F-0.4°C -8.4°F-22.4°C 17% 1.6 mph N2.6 kmh N 7.6 mph12.2 kmh 30.08 in1018.6 mb 0.00 in0.0 mm 0.00 in/hr0.0 mm/hr 0.00 in0.0 mm
04:40 PM 31.3°F-0.4°C -8.4°F-22.4°C 17% 2.2 mph NNE3.5 kmh NNE 7.6 mph12.2 kmh 30.08 in1018.6 mb 0.00 in0.0 mm 0.00 in/hr0.0 mm/hr 0.00 in0.0 mm
04:39 PM 31.5°F-0.3°C -8.3°F-22.4°C 17% 3.1 mph N5.0 kmh N 7.6 mph12.2 kmh 30.08 in1018.6 mb 0.00 in0.0 mm 0.00 in/hr0.0 mm/hr 0.00 in0.0 mm
04:38 PM 31.5°F-0.3°C -8.3°F-22.4°C 17% 3.1 mph N5.0 kmh N 7.6 mph12.2 kmh 30.08 in1018.6 mb 0.00 in0.0 mm 0.00 in/hr0.0 mm/hr 0.00 in0.0 mm
04:37 PM 31.6°F-0.2°C -8.1°F-22.3°C 17% 3.1 mph N5.0 kmh N 7.6 mph12.2 kmh 30.07 in1018.3 mb 0.00 in0.0 mm 0.00 in/hr0.0 mm/hr 0.00 in0.0 mm
04:36 PM 31.6°F-0.2°C -8.1°F-22.3°C 17% 2.2 mph N3.5 kmh N 7.6 mph12.2 kmh 30.08 in1018.6 mb 0.00 in0.0 mm 0.00 in/hr0.0 mm/hr 0.00 in0.0 mm
04:35 PM 31.6°F-0.2°C -8.1°F-22.3°C 17% 0.7 mph N1.1 kmh N 7.6 mph12.2 kmh 30.08 in1018.6 mb 0.00 in0.0 mm 0.00 in/hr0.0 mm/hr 0.00 in0.0 mm
04:34 PM 32.0°F0.0°C -9.0°F-22.8°C 16% 1.6 mph N2.6 kmh N 8.3 mph13.4 kmh 30.07 in1018.3 mb 0.00 in0.0 mm 0.00 in/hr0.0 mm/hr 0.00 in0.0 mm
04:33 PM 32.2°F0.1°C -8.9°F-22.7°C 16% 3.1 mph NNW5.0 kmh NNW 8.3 mph13.4 kmh 30.07 in1018.3 mb 0.00 in0.0 mm 0.00 in/hr0.0 mm/hr 0.00 in0.0 mm
04:32 PM 32.9°F0.5°C -8.3°F-22.4°C 16% 4.5 mph N7.2 kmh N 9.2 mph14.8 kmh 30.07 in1018.3 mb 0.00 in0.0 mm 0.00 in/hr0.0 mm/hr 0.00 in0.0 mm
04:31 PM 32.9°F0.5°C -8.3°F-22.4°C 16% 5.4 mph NNW8.7 kmh NNW 9.2 mph14.8 kmh 30.08 in1018.6 mb 0.00 in0.0 mm 0.00 in/hr0.0 mm/hr 0.00 in0.0 mm
04:30 PM 32.7°F0.4°C -8.5°F-22.5°C 16% 3.1 mph NW5.0 kmh NW 9.2 mph14.8 kmh 30.08 in1018.6 mb 0.00 in0.0 mm 0.00 in/hr0.0 mm/hr 0.00 in0.0 mm
04:29 PM 33.1°F0.6°C -8.2°F-22.3°C 16% 3.8 mph NNW6.1 kmh NNW 9.2 mph14.8 kmh 30.07 in1018.3 mb 0.00 in0.0 mm 0.00 in/hr0.0 mm/hr 0.00 in0.0 mm
04:28 PM 33.1°F0.6°C -8.2°F-22.3°C 16% 3.1 mph NNW5.0 kmh NNW 9.2 mph14.8 kmh 30.07 in1018.3 mb 0.00 in0.0 mm 0.00 in/hr0.0 mm/hr 0.00 in0.0 mm
04:27 PM 33.1°F0.6°C -8.2°F-22.3°C 16% 3.8 mph N6.1 kmh N 10.7 mph17.2 kmh 30.07 in1018.3 mb 0.00 in0.0 mm 0.00 in/hr0.0 mm/hr 0.00 in0.0 mm
04:26 PM 32.7°F0.4°C -8.5°F-22.5°C 16% 3.1 mph NNE5.0 kmh NNE 10.7 mph17.2 kmh 30.07 in1018.3 mb 0.00 in0.0 mm 0.00 in/hr0.0 mm/hr 0.00 in0.0 mm
04:25 PM 32.4°F0.2°C -8.7°F-22.6°C 16% 2.2 mph NE3.5 kmh NE 10.7 mph17.2 kmh 30.07 in1018.3 mb 0.00 in0.0 mm 0.00 in/hr0.0 mm/hr 0.00 in0.0 mm
04:24 PM 32.4°F0.2°C -8.7°F-22.6°C 16% 5.4 mph NNE8.7 kmh NNE 12.1 mph19.5 kmh 30.07 in1018.3 mb 0.00 in0.0 mm 0.00 in/hr0.0 mm/hr 0.00 in0.0 mm
04:23 PM 32.2°F0.1°C -8.9°F-22.7°C 16% 6.0 mph NE9.7 kmh NE 12.1 mph19.5 kmh 30.07 in1018.3 mb 0.00 in0.0 mm 0.00 in/hr0.0 mm/hr 0.00 in0.0 mm
04:22 PM 32.2°F0.1°C -8.9°F-22.7°C 16% 3.1 mph NNE5.0 kmh NNE 12.1 mph19.5 kmh 30.07 in1018.3 mb 0.00 in0.0 mm 0.00 in/hr0.0 mm/hr 0.00 in0.0 mm
04:21 PM 32.9°F0.5°C -8.3°F-22.4°C 16% 6.0 mph NNE9.7 kmh NNE 12.1 mph19.5 kmh 30.07 in1018.3 mb 0.00 in0.0 mm 0.00 in/hr0.0 mm/hr 0.00 in0.0 mm
04:20 PM 32.5°F0.3°C -8.6°F-22.6°C 16% 3.8 mph NNE6.1 kmh NNE 12.1 mph19.5 kmh 30.07 in1018.3 mb 0.00 in0.0 mm 0.00 in/hr0.0 mm/hr 0.00 in0.0 mm
04:19 PM 32.7°F0.4°C -8.5°F-22.5°C 16% 4.5 mph NNE7.2 kmh NNE 12.1 mph19.5 kmh 30.07 in1018.3 mb 0.00 in0.0 mm 0.00 in/hr0.0 mm/hr 0.00 in0.0 mm
04:18 PM 32.2°F0.1°C -8.9°F-22.7°C 16% 5.4 mph NNE8.7 kmh NNE 12.1 mph19.5 kmh 30.07 in1018.3 mb 0.00 in0.0 mm 0.00 in/hr0.0 mm/hr 0.00 in0.0 mm
04:17 PM 32.2°F0.1°C -8.9°F-22.7°C 16% 7.6 mph NNE12.2 kmh NNE 12.1 mph19.5 kmh 30.07 in1018.3 mb 0.00 in0.0 mm 0.00 in/hr0.0 mm/hr 0.00 in0.0 mm
04:16 PM 32.5°F0.3°C -8.6°F-22.6°C 16% 6.0 mph N9.7 kmh N 12.1 mph19.5 kmh 30.07 in1018.3 mb 0.00 in0.0 mm 0.00 in/hr0.0 mm/hr 0.00 in0.0 mm
04:15 PM 32.5°F0.3°C -8.6°F-22.6°C 16% 6.0 mph N9.7 kmh N 12.1 mph19.5 kmh 30.07 in1018.3 mb 0.00 in0.0 mm 0.00 in/hr0.0 mm/hr 0.00 in0.0 mm
04:14 PM 32.7°F0.4°C -8.5°F-22.5°C 16% 6.9 mph NNE11.1 kmh NNE 10.7 mph17.2 kmh 30.07 in1018.3 mb 0.00 in0.0 mm 0.00 in/hr0.0 mm/hr 0.00 in0.0 mm
04:13 PM 32.2°F0.1°C -8.9°F-22.7°C 16% 3.8 mph NNE6.1 kmh NNE 11.4 mph18.3 kmh 30.07 in1018.3 mb 0.00 in0.0 mm 0.00 in/hr0.0 mm/hr 0.00 in0.0 mm
04:12 PM 32.5°F0.3°C -8.6°F-22.6°C 16% 6.9 mph NNE11.1 kmh NNE 11.4 mph18.3 kmh 30.07 in1018.3 mb 0.00 in0.0 mm 0.00 in/hr0.0 mm/hr 0.00 in0.0 mm
04:11 PM 32.5°F0.3°C -8.6°F-22.6°C 16% 5.4 mph NNE8.7 kmh NNE 14.5 mph23.3 kmh 30.07 in1018.3 mb 0.00 in0.0 mm 0.00 in/hr0.0 mm/hr 0.00 in0.0 mm
04:10 PM 32.5°F0.3°C -8.6°F-22.6°C 16% 3.8 mph NE6.1 kmh NE 14.5 mph23.3 kmh 30.07 in1018.3 mb 0.00 in0.0 mm 0.00 in/hr0.0 mm/hr 0.00 in0.0 mm
04:09 PM 32.5°F0.3°C -8.6°F-22.6°C 16% 3.8 mph NNE6.1 kmh NNE 14.5 mph23.3 kmh 30.06 in1017.9 mb 0.00 in0.0 mm 0.00 in/hr0.0 mm/hr 0.00 in0.0 mm
04:08 PM 32.5°F0.3°C -8.6°F-22.6°C 16% 5.4 mph NNE8.7 kmh NNE 14.5 mph23.3 kmh 30.07 in1018.3 mb 0.00 in0.0 mm 0.00 in/hr0.0 mm/hr 0.00 in0.0 mm
04:07 PM 32.5°F0.3°C -8.6°F-22.6°C 16% 5.4 mph NNE8.7 kmh NNE 14.5 mph23.3 kmh 30.06 in1017.9 mb 0.00 in0.0 mm 0.00 in/hr0.0 mm/hr 0.00 in0.0 mm
04:06 PM 32.4°F0.2°C -8.7°F-22.6°C 16% 5.4 mph NNE8.7 kmh NNE 14.5 mph23.3 kmh 30.06 in1017.9 mb 0.00 in0.0 mm 0.00 in/hr0.0 mm/hr 0.00 in0.0 mm
04:05 PM 32.5°F0.3°C -8.6°F-22.6°C 16% 5.4 mph NNE8.7 kmh NNE 14.5 mph23.3 kmh 30.06 in1017.9 mb 0.00 in0.0 mm 0.00 in/hr0.0 mm/hr 0.00 in0.0 mm
04:04 PM 32.5°F0.3°C -8.6°F-22.6°C 16% 5.4 mph NNE8.7 kmh NNE 14.5 mph23.3 kmh 30.06 in1017.9 mb 0.00 in0.0 mm 0.00 in/hr0.0 mm/hr 0.00 in0.0 mm
04:03 PM 32.4°F0.2°C -8.7°F-22.6°C 16% 6.0 mph NNE9.7 kmh NNE 14.5 mph23.3 kmh 30.06 in1017.9 mb 0.00 in0.0 mm 0.00 in/hr0.0 mm/hr 0.00 in0.0 mm
04:02 PM 32.4°F0.2°C -8.7°F-22.6°C 16% 7.6 mph NNE12.2 kmh NNE 14.5 mph23.3 kmh 30.06 in1017.9 mb 0.00 in0.0 mm 0.00 in/hr0.0 mm/hr 0.00 in0.0 mm
04:01 PM 32.4°F0.2°C -8.7°F-22.6°C 16% 5.4 mph NNE8.7 kmh NNE 13.0 mph20.9 kmh 30.06 in1017.9 mb 0.00 in0.0 mm 0.00 in/hr0.0 mm/hr 0.00 in0.0 mm
04:00 PM 32.2°F0.1°C -8.9°F-22.7°C 16% 6.0 mph NNE9.7 kmh NNE 13.0 mph20.9 kmh 30.06 in1017.9 mb 0.00 in0.0 mm 0.00 in/hr0.0 mm/hr 0.00 in0.0 mm
03:59 PM 32.0°F0.0°C -9.0°F-22.8°C 16% 6.9 mph NNE11.1 kmh NNE 13.0 mph20.9 kmh 30.06 in1017.9 mb 0.00 in0.0 mm 0.00 in/hr0.0 mm/hr 0.00 in0.0 mm
03:58 PM 32.4°F0.2°C -8.7°F-22.6°C 16% 6.0 mph NNE9.7 kmh NNE 12.1 mph19.5 kmh 30.06 in1017.9 mb 0.00 in0.0 mm 0.00 in/hr0.0 mm/hr 0.00 in0.0 mm
03:57 PM 32.4°F0.2°C -8.7°F-22.6°C 16% 4.5 mph NNE7.2 kmh NNE 12.1 mph19.5 kmh 30.06 in1017.9 mb 0.00 in0.0 mm 0.00 in/hr0.0 mm/hr 0.00 in0.0 mm
03:56 PM 32.2°F0.1°C -8.9°F-22.7°C 16% 5.4 mph N8.7 kmh N 12.1 mph19.5 kmh 30.06 in1017.9 mb 0.00 in0.0 mm 0.00 in/hr0.0 mm/hr 0.00 in0.0 mm
03:55 PM 32.2°F0.1°C -8.9°F-22.7°C 16% 6.9 mph N11.1 kmh N 12.1 mph19.5 kmh 30.07 in1018.3 mb 0.00 in0.0 mm 0.00 in/hr0.0 mm/hr 0.00 in0.0 mm
03:54 PM 32.9°F0.5°C -8.3°F-22.4°C 16% 3.8 mph N6.1 kmh N 12.1 mph19.5 kmh 30.06 in1017.9 mb 0.00 in0.0 mm 0.00 in/hr0.0 mm/hr 0.00 in0.0 mm
03:53 PM 32.9°F0.5°C -8.3°F-22.4°C 16% 3.8 mph N6.1 kmh N 12.1 mph19.5 kmh 30.06 in1017.9 mb 0.00 in0.0 mm 0.00 in/hr0.0 mm/hr 0.00 in0.0 mm
03:52 PM 32.5°F0.3°C -8.6°F-22.6°C 16% 2.2 mph N3.5 kmh N 12.1 mph19.5 kmh 30.06 in1017.9 mb 0.00 in0.0 mm 0.00 in/hr0.0 mm/hr 0.00 in0.0 mm
03:51 PM 32.7°F0.4°C -8.5°F-22.5°C 16% 3.1 mph N5.0 kmh N 12.1 mph19.5 kmh 30.06 in1017.9 mb 0.00 in0.0 mm 0.00 in/hr0.0 mm/hr 0.00 in0.0 mm
03:50 PM 32.9°F0.5°C -8.3°F-22.4°C 16% 4.5 mph N7.2 kmh N 12.1 mph19.5 kmh 30.06 in1017.9 mb 0.00 in0.0 mm 0.00 in/hr0.0 mm/hr 0.00 in0.0 mm
03:49 PM 32.7°F0.4°C -8.5°F-22.5°C 16% 4.5 mph N7.2 kmh N 12.1 mph19.5 kmh 30.06 in1017.9 mb 0.00 in0.0 mm 0.00 in/hr0.0 mm/hr 0.00 in0.0 mm
03:48 PM 32.5°F0.3°C -8.6°F-22.6°C 16% 4.5 mph N7.2 kmh N 12.1 mph19.5 kmh 30.06 in1017.9 mb 0.00 in0.0 mm 0.00 in/hr0.0 mm/hr 0.00 in0.0 mm
03:47 PM 32.5°F0.3°C -8.6°F-22.6°C 16% 7.6 mph N12.2 kmh N 12.1 mph19.5 kmh 30.06 in1017.9 mb 0.00 in0.0 mm 0.00 in/hr0.0 mm/hr 0.00 in0.0 mm
03:46 PM 32.0°F0.0°C -9.0°F-22.8°C 16% 4.5 mph N7.2 kmh N 10.7 mph17.2 kmh 30.06 in1017.9 mb 0.00 in0.0 mm 0.00 in/hr0.0 mm/hr 0.00 in0.0 mm
03:45 PM 32.0°F0.0°C -9.0°F-22.8°C 16% 4.5 mph N7.2 kmh N 11.4 mph18.3 kmh 30.06 in1017.9 mb 0.00 in0.0 mm 0.00 in/hr0.0 mm/hr 0.00 in0.0 mm
03:44 PM 32.9°F0.5°C -8.3°F-22.4°C 16% 6.0 mph N9.7 kmh N 11.4 mph18.3 kmh 30.07 in1018.3 mb 0.00 in0.0 mm 0.00 in/hr0.0 mm/hr 0.00 in0.0 mm
03:43 PM 32.7°F0.4°C -8.5°F-22.5°C 16% 3.8 mph N6.1 kmh N 11.4 mph18.3 kmh 30.06 in1017.9 mb 0.00 in0.0 mm 0.00 in/hr0.0 mm/hr 0.00 in0.0 mm
03:42 PM 32.5°F0.3°C -8.6°F-22.6°C 16% 4.5 mph N7.2 kmh N 11.4 mph18.3 kmh 30.06 in1017.9 mb 0.00 in0.0 mm 0.00 in/hr0.0 mm/hr 0.00 in0.0 mm
03:41 PM 32.9°F0.5°C -8.3°F-22.4°C 16% 3.8 mph N6.1 kmh N 11.4 mph18.3 kmh 30.06 in1017.9 mb 0.00 in0.0 mm 0.00 in/hr0.0 mm/hr 0.00 in0.0 mm
03:40 PM 32.7°F0.4°C -8.5°F-22.5°C 16% 3.8 mph N6.1 kmh N 11.4 mph18.3 kmh 30.06 in1017.9 mb 0.00 in0.0 mm 0.00 in/hr0.0 mm/hr 0.00 in0.0 mm
03:39 PM 32.5°F0.3°C -8.6°F-22.6°C 16% 3.1 mph N5.0 kmh N 11.4 mph18.3 kmh 30.06 in1017.9 mb 0.00 in0.0 mm 0.00 in/hr0.0 mm/hr 0.00 in0.0 mm
03:38 PM 32.7°F0.4°C -8.5°F-22.5°C 16% 8.3 mph N13.4 kmh N 11.4 mph18.3 kmh 30.06 in1017.9 mb 0.00 in0.0 mm 0.00 in/hr0.0 mm/hr 0.00 in0.0 mm
03:37 PM 32.4°F0.2°C -8.7°F-22.6°C 16% 6.0 mph N9.7 kmh N 13.0 mph20.9 kmh 30.06 in1017.9 mb 0.00 in0.0 mm 0.00 in/hr0.0 mm/hr 0.00 in0.0 mm
03:36 PM 32.4°F0.2°C -8.7°F-22.6°C 16% 6.0 mph N9.7 kmh N 13.0 mph20.9 kmh 30.06 in1017.9 mb 0.00 in0.0 mm 0.00 in/hr0.0 mm/hr 0.00 in0.0 mm
03:35 PM 32.7°F0.4°C -8.5°F-22.5°C 16% 6.9 mph N11.1 kmh N 13.0 mph20.9 kmh 30.06 in1017.9 mb 0.00 in0.0 mm 0.00 in/hr0.0 mm/hr 0.00 in0.0 mm
03:34 PM 32.9°F0.5°C -8.3°F-22.4°C 16% 6.0 mph N9.7 kmh N 13.0 mph20.9 kmh 30.05 in1017.6 mb 0.00 in0.0 mm 0.00 in/hr0.0 mm/hr 0.00 in0.0 mm
03:33 PM 32.5°F0.3°C -8.6°F-22.6°C 16% 5.4 mph N8.7 kmh N 13.0 mph20.9 kmh 30.06 in1017.9 mb 0.00 in0.0 mm 0.00 in/hr0.0 mm/hr 0.00 in0.0 mm
03:32 PM 32.7°F0.4°C -8.5°F-22.5°C 16% 4.5 mph N7.2 kmh N 13.0 mph20.9 kmh 30.05 in1017.6 mb 0.00 in0.0 mm 0.00 in/hr0.0 mm/hr 0.00 in0.0 mm
03:31 PM 32.0°F0.0°C -9.0°F-22.8°C 16% 3.1 mph N5.0 kmh N 13.0 mph20.9 kmh 30.05 in1017.6 mb 0.00 in0.0 mm 0.00 in/hr0.0 mm/hr 0.00 in0.0 mm
03:30 PM 32.4°F0.2°C -8.7°F-22.6°C 16% 5.4 mph N8.7 kmh N 13.0 mph20.9 kmh 30.06 in1017.9 mb 0.00 in0.0 mm 0.00 in/hr0.0 mm/hr 0.00 in0.0 mm
03:29 PM 32.0°F0.0°C -9.0°F-22.8°C 16% 6.0 mph N9.7 kmh N 13.0 mph20.9 kmh 30.05 in1017.6 mb 0.00 in0.0 mm 0.00 in/hr0.0 mm/hr 0.00 in0.0 mm
03:28 PM 32.0°F0.0°C -9.0°F-22.8°C 16% 8.3 mph N13.4 kmh N 13.0 mph20.9 kmh 30.05 in1017.6 mb 0.00 in0.0 mm 0.00 in/hr0.0 mm/hr 0.00 in0.0 mm
03:27 PM 32.2°F0.1°C -8.9°F-22.7°C 16% 6.0 mph N9.7 kmh N 13.0 mph20.9 kmh 30.05 in1017.6 mb 0.00 in0.0 mm 0.00 in/hr0.0 mm/hr 0.00 in0.0 mm
03:26 PM 32.4°F0.2°C -8.7°F-22.6°C 16% 6.0 mph N9.7 kmh N 10.7 mph17.2 kmh 30.05 in1017.6 mb 0.00 in0.0 mm 0.00 in/hr0.0 mm/hr 0.00 in0.0 mm
03:25 PM 32.4°F0.2°C -8.7°F-22.6°C 16% 6.0 mph N9.7 kmh N 10.7 mph17.2 kmh 30.05 in1017.6 mb 0.00 in0.0 mm 0.00 in/hr0.0 mm/hr 0.00 in0.0 mm
03:24 PM 32.2°F0.1°C -8.9°F-22.7°C 16% 3.8 mph N6.1 kmh N 11.4 mph18.3 kmh 30.05 in1017.6 mb 0.00 in0.0 mm 0.00 in/hr0.0 mm/hr 0.00 in0.0 mm
03:23 PM 32.4°F0.2°C -8.7°F-22.6°C 16% 6.9 mph NNE11.1 kmh NNE 11.4 mph18.3 kmh 30.05 in1017.6 mb 0.00 in0.0 mm 0.00 in/hr0.0 mm/hr 0.00 in0.0 mm
03:22 PM 32.2°F0.1°C -8.9°F-22.7°C 16% 5.4 mph NNE8.7 kmh NNE 11.4 mph18.3 kmh 30.05 in1017.6 mb 0.00 in0.0 mm 0.00 in/hr0.0 mm/hr 0.00 in0.0 mm
03:21 PM 32.0°F0.0°C -9.0°F-22.8°C 16% 5.4 mph NNE8.7 kmh NNE 11.4 mph18.3 kmh 30.05 in1017.6 mb 0.00 in0.0 mm 0.00 in/hr0.0 mm/hr 0.00 in0.0 mm
03:20 PM 32.4°F0.2°C -8.7°F-22.6°C 16% 6.0 mph NNE9.7 kmh NNE 11.4 mph18.3 kmh 30.05 in1017.6 mb 0.00 in0.0 mm 0.00 in/hr0.0 mm/hr 0.00 in0.0 mm
03:19 PM 32.2°F0.1°C -8.9°F-22.7°C 16% 6.0 mph NNE9.7 kmh NNE 11.4 mph18.3 kmh 30.05 in1017.6 mb 0.00 in0.0 mm 0.00 in/hr0.0 mm/hr 0.00 in0.0 mm
03:18 PM 31.8°F-0.1°C -8.0°F-22.2°C 17% 6.9 mph NNE11.1 kmh NNE 11.4 mph18.3 kmh 30.05 in1017.6 mb 0.00 in0.0 mm 0.00 in/hr0.0 mm/hr 0.00 in0.0 mm
03:17 PM 32.4°F0.2°C -8.7°F-22.6°C 16% 7.6 mph NNE12.2 kmh NNE 11.4 mph18.3 kmh 30.05 in1017.6 mb 0.00 in0.0 mm 0.00 in/hr0.0 mm/hr 0.00 in0.0 mm
03:16 PM 32.2°F0.1°C -8.9°F-22.7°C 16% 4.5 mph NNE7.2 kmh NNE 11.4 mph18.3 kmh 30.05 in1017.6 mb 0.00 in0.0 mm 0.00 in/hr0.0 mm/hr 0.00 in0.0 mm
03:15 PM 32.0°F0.0°C -9.0°F-22.8°C 16% 6.0 mph NNE9.7 kmh NNE 11.4 mph18.3 kmh 30.05 in1017.6 mb 0.00 in0.0 mm 0.00 in/hr0.0 mm/hr 0.00 in0.0 mm
03:14 PM 32.5°F0.3°C -8.6°F-22.6°C 16% 6.9 mph N11.1 kmh N 11.4 mph18.3 kmh 30.05 in1017.6 mb 0.00 in0.0 mm 0.00 in/hr0.0 mm/hr 0.00 in0.0 mm
03:13 PM 32.2°F0.1°C -8.9°F-22.7°C 16% 3.1 mph N5.0 kmh N 10.7 mph17.2 kmh 30.05 in1017.6 mb 0.00 in0.0 mm 0.00 in/hr0.0 mm/hr 0.00 in0.0 mm
03:12 PM 32.0°F0.0°C -9.0°F-22.8°C 16% 6.0 mph N9.7 kmh N 10.7 mph17.2 kmh 30.05 in1017.6 mb 0.00 in0.0 mm 0.00 in/hr0.0 mm/hr 0.00 in0.0 mm
03:11 PM 32.2°F0.1°C -8.9°F-22.7°C 16% 6.0 mph N9.7 kmh N 10.7 mph17.2 kmh 30.05 in1017.6 mb 0.00 in0.0 mm 0.00 in/hr0.0 mm/hr 0.00 in0.0 mm
03:10 PM 32.2°F0.1°C -8.9°F-22.7°C 16% 5.4 mph N8.7 kmh N 12.1 mph19.5 kmh 30.05 in1017.6 mb 0.00 in0.0 mm 0.00 in/hr0.0 mm/hr 0.00 in0.0 mm
03:09 PM 32.0°F0.0°C -9.0°F-22.8°C 16% 6.0 mph NNE9.7 kmh NNE 12.1 mph19.5 kmh 30.05 in1017.6 mb 0.00 in0.0 mm 0.00 in/hr0.0 mm/hr 0.00 in0.0 mm
03:08 PM 32.4°F0.2°C -8.7°F-22.6°C 16% 5.4 mph NE8.7 kmh NE 12.1 mph19.5 kmh 30.05 in1017.6 mb 0.00 in0.0 mm 0.00 in/hr0.0 mm/hr 0.00 in0.0 mm
03:07 PM 32.0°F0.0°C -9.0°F-22.8°C 16% 4.5 mph NE7.2 kmh NE 12.1 mph19.5 kmh 30.05 in1017.6 mb 0.00 in0.0 mm 0.00 in/hr0.0 mm/hr 0.00 in0.0 mm
03:06 PM 32.2°F0.1°C -8.9°F-22.7°C 16% 6.0 mph NE9.7 kmh NE 12.1 mph19.5 kmh 30.05 in1017.6 mb 0.00 in0.0 mm 0.00 in/hr0.0 mm/hr 0.00 in0.0 mm
03:05 PM 32.2°F0.1°C -8.9°F-22.7°C 16% 5.4 mph NE8.7 kmh NE 12.1 mph19.5 kmh 30.05 in1017.6 mb 0.00 in0.0 mm 0.00 in/hr0.0 mm/hr 0.00 in0.0 mm
03:04 PM 32.2°F0.1°C -8.9°F-22.7°C 16% 4.5 mph NE7.2 kmh NE 12.1 mph19.5 kmh 30.05 in1017.6 mb 0.00 in0.0 mm 0.00 in/hr0.0 mm/hr 0.00 in0.0 mm
03:03 PM 31.8°F-0.1°C -8.0°F-22.2°C 17% 5.4 mph NE8.7 kmh NE 12.1 mph19.5 kmh 30.04 in1017.3 mb 0.00 in0.0 mm 0.00 in/hr0.0 mm/hr 0.00 in0.0 mm
03:02 PM 32.4°F0.2°C -8.7°F-22.6°C 16% 8.3 mph NE13.4 kmh NE 13.0 mph20.9 kmh 30.05 in1017.6 mb 0.00 in0.0 mm 0.00 in/hr0.0 mm/hr 0.00 in0.0 mm
03:01 PM 31.8°F-0.1°C -8.0°F-22.2°C 17% 3.8 mph NNE6.1 kmh NNE 13.0 mph20.9 kmh 30.04 in1017.3 mb 0.00 in0.0 mm 0.00 in/hr0.0 mm/hr 0.00 in0.0 mm
03:00 PM 31.5°F-0.3°C -8.3°F-22.4°C 17% 7.6 mph NNE12.2 kmh NNE 13.0 mph20.9 kmh 30.04 in1017.3 mb 0.00 in0.0 mm 0.00 in/hr0.0 mm/hr 0.00 in0.0 mm
02:59 PM 32.0°F0.0°C -9.0°F-22.8°C 16% 7.6 mph N12.2 kmh N 13.0 mph20.9 kmh 30.04 in1017.3 mb 0.00 in0.0 mm 0.00 in/hr0.0 mm/hr 0.00 in0.0 mm
02:58 PM 31.8°F-0.1°C -8.0°F-22.2°C 17% 6.9 mph N11.1 kmh N 13.0 mph20.9 kmh 30.04 in1017.3 mb 0.00 in0.0 mm 0.00 in/hr0.0 mm/hr 0.00 in0.0 mm
02:57 PM 31.6°F-0.2°C -8.1°F-22.3°C 17% 8.3 mph N13.4 kmh N 13.0 mph20.9 kmh 30.04 in1017.3 mb 0.00 in0.0 mm 0.00 in/hr0.0 mm/hr 0.00 in0.0 mm
02:56 PM 31.3°F-0.4°C -8.4°F-22.4°C 17% 4.5 mph N7.2 kmh N 13.0 mph20.9 kmh 30.04 in1017.3 mb 0.00 in0.0 mm 0.00 in/hr0.0 mm/hr 0.00 in0.0 mm
02:55 PM 31.6°F-0.2°C -8.1°F-22.3°C 17% 6.9 mph N11.1 kmh N 13.0 mph20.9 kmh 30.04 in1017.3 mb 0.00 in0.0 mm 0.00 in/hr0.0 mm/hr 0.00 in0.0 mm
02:54 PM 31.8°F-0.1°C -8.0°F-22.2°C 17% 5.4 mph N8.7 kmh N 13.0 mph20.9 kmh 30.04 in1017.3 mb 0.00 in0.0 mm 0.00 in/hr0.0 mm/hr 0.00 in0.0 mm
02:53 PM 32.0°F0.0°C -9.0°F-22.8°C 16% 6.9 mph N11.1 kmh N 13.0 mph20.9 kmh 30.03 in1016.9 mb 0.00 in0.0 mm 0.00 in/hr0.0 mm/hr 0.00 in0.0 mm
02:52 PM 31.8°F-0.1°C -8.0°F-22.2°C 17% 8.3 mph N13.4 kmh N 13.0 mph20.9 kmh 30.04 in1017.3 mb 0.00 in0.0 mm 0.00 in/hr0.0 mm/hr 0.00 in0.0 mm
02:51 PM 31.8°F-0.1°C -8.0°F-22.2°C 17% 8.3 mph N13.4 kmh N 17.4 mph28.0 kmh 30.04 in1017.3 mb 0.00 in0.0 mm 0.00 in/hr0.0 mm/hr 0.00 in0.0 mm
02:50 PM 31.8°F-0.1°C -8.0°F-22.2°C 17% 8.3 mph N13.4 kmh N 17.4 mph28.0 kmh 30.04 in1017.3 mb 0.00 in0.0 mm 0.00 in/hr0.0 mm/hr 0.00 in0.0 mm
02:49 PM 31.1°F-0.5°C -8.5°F-22.5°C 17% 5.4 mph N8.7 kmh N 17.4 mph28.0 kmh 30.04 in1017.3 mb 0.00 in0.0 mm 0.00 in/hr0.0 mm/hr 0.00 in0.0 mm
02:48 PM 31.6°F-0.2°C -8.1°F-22.3°C 17% 8.3 mph N13.4 kmh N 17.4 mph28.0 kmh 30.03 in1016.9 mb 0.00 in0.0 mm 0.00 in/hr0.0 mm/hr 0.00 in0.0 mm
02:47 PM 31.6°F-0.2°C -8.1°F-22.3°C 17% 6.0 mph N9.7 kmh N 17.4 mph28.0 kmh 30.04 in1017.3 mb 0.00 in0.0 mm 0.00 in/hr0.0 mm/hr 0.00 in0.0 mm
02:46 PM 31.3°F-0.4°C -8.4°F-22.4°C 17% 5.4 mph N8.7 kmh N 17.4 mph28.0 kmh 30.04 in1017.3 mb 0.00 in0.0 mm 0.00 in/hr0.0 mm/hr 0.00 in0.0 mm
02:45 PM 31.5°F-0.3°C -8.3°F-22.4°C 17% 8.3 mph N13.4 kmh N 17.4 mph28.0 kmh 30.03 in1016.9 mb 0.00 in0.0 mm 0.00 in/hr0.0 mm/hr 0.00 in0.0 mm
02:44 PM 32.0°F0.0°C -9.0°F-22.8°C 16% 8.3 mph N13.4 kmh N 17.4 mph28.0 kmh 30.03 in1016.9 mb 0.00 in0.0 mm 0.00 in/hr0.0 mm/hr 0.00 in0.0 mm
02:43 PM 32.0°F0.0°C -9.0°F-22.8°C 16% 6.0 mph N9.7 kmh N 17.4 mph28.0 kmh 30.03 in1016.9 mb 0.00 in0.0 mm 0.00 in/hr0.0 mm/hr 0.00 in0.0 mm
02:42 PM 31.1°F-0.5°C -8.5°F-22.5°C 17% 6.9 mph N11.1 kmh N 17.4 mph28.0 kmh 30.03 in1016.9 mb 0.00 in0.0 mm 0.00 in/hr0.0 mm/hr 0.00 in0.0 mm
02:41 PM 31.5°F-0.3°C -8.3°F-22.4°C 17% 12.1 mph N19.5 kmh N 17.4 mph28.0 kmh 30.03 in1016.9 mb 0.00 in0.0 mm 0.00 in/hr0.0 mm/hr 0.00 in0.0 mm
02:40 PM 31.5°F-0.3°C -8.3°F-22.4°C 17% 12.1 mph NNE19.5 kmh NNE 17.4 mph28.0 kmh 30.03 in1016.9 mb 0.00 in0.0 mm 0.00 in/hr0.0 mm/hr 0.00 in0.0 mm
02:39 PM 31.1°F-0.5°C -8.5°F-22.5°C 17% 8.3 mph N13.4 kmh N 14.5 mph23.3 kmh 30.03 in1016.9 mb 0.00 in0.0 mm 0.00 in/hr0.0 mm/hr 0.00 in0.0 mm
02:38 PM 31.3°F-0.4°C -8.4°F-22.4°C 17% 8.3 mph N13.4 kmh N 15.2 mph24.5 kmh 30.03 in1016.9 mb 0.00 in0.0 mm 0.00 in/hr0.0 mm/hr 0.00 in0.0 mm
02:37 PM 31.1°F-0.5°C -8.5°F-22.5°C 17% 6.9 mph N11.1 kmh N 15.2 mph24.5 kmh 30.03 in1016.9 mb 0.00 in0.0 mm 0.00 in/hr0.0 mm/hr 0.00 in0.0 mm
02:36 PM 31.1°F-0.5°C -8.5°F-22.5°C 17% 7.6 mph N12.2 kmh N 15.2 mph24.5 kmh 30.03 in1016.9 mb 0.00 in0.0 mm 0.00 in/hr0.0 mm/hr 0.00 in0.0 mm
02:35 PM 31.1°F-0.5°C -8.5°F-22.5°C 17% 8.3 mph N13.4 kmh N 15.2 mph24.5 kmh 30.03 in1016.9 mb 0.00 in0.0 mm 0.00 in/hr0.0 mm/hr 0.00 in0.0 mm
02:34 PM 31.3°F-0.4°C -8.4°F-22.4°C 17% 4.5 mph N7.2 kmh N 15.2 mph24.5 kmh 30.03 in1016.9 mb 0.00 in0.0 mm 0.00 in/hr0.0 mm/hr 0.00 in0.0 mm
02:33 PM 31.1°F-0.5°C -8.5°F-22.5°C 17% 5.4 mph N8.7 kmh N 15.2 mph24.5 kmh 30.03 in1016.9 mb 0.00 in0.0 mm 0.00 in/hr0.0 mm/hr 0.00 in0.0 mm
02:32 PM 30.9°F-0.6°C -8.7°F-22.6°C 17% 7.6 mph N12.2 kmh N 15.2 mph24.5 kmh 30.03 in1016.9 mb 0.00 in0.0 mm 0.00 in/hr0.0 mm/hr 0.00 in0.0 mm
02:31 PM 31.3°F-0.4°C -8.4°F-22.4°C 17% 8.3 mph N13.4 kmh N 15.2 mph24.5 kmh 30.03 in1016.9 mb 0.00 in0.0 mm 0.00 in/hr0.0 mm/hr 0.00 in0.0 mm
02:30 PM 31.3°F-0.4°C -8.4°F-22.4°C 17% 6.0 mph N9.7 kmh N 15.2 mph24.5 kmh 30.03 in1016.9 mb 0.00 in0.0 mm 0.00 in/hr0.0 mm/hr 0.00 in0.0 mm
02:29 PM 31.3°F-0.4°C -8.4°F-22.4°C 17% 6.0 mph N9.7 kmh N 15.2 mph24.5 kmh 30.03 in1016.9 mb 0.00 in0.0 mm 0.00 in/hr0.0 mm/hr 0.00 in0.0 mm
02:28 PM 31.3°F-0.4°C -8.4°F-22.4°C 17% 9.2 mph N14.8 kmh N 15.2 mph24.5 kmh 30.03 in1016.9 mb 0.00 in0.0 mm 0.00 in/hr0.0 mm/hr 0.00 in0.0 mm
02:27 PM 31.1°F-0.5°C -8.5°F-22.5°C 17% 6.9 mph N11.1 kmh N 15.2 mph24.5 kmh 30.03 in1016.9 mb 0.00 in0.0 mm 0.00 in/hr0.0 mm/hr 0.00 in0.0 mm
02:26 PM 31.6°F-0.2°C -8.1°F-22.3°C 17% 5.4 mph N8.7 kmh N 13.6 mph21.9 kmh 30.03 in1016.9 mb 0.00 in0.0 mm 0.00 in/hr0.0 mm/hr 0.00 in0.0 mm
02:25 PM 30.9°F-0.6°C -8.7°F-22.6°C 17% 6.0 mph N9.7 kmh N 13.6 mph21.9 kmh 30.03 in1016.9 mb 0.00 in0.0 mm 0.00 in/hr0.0 mm/hr 0.00 in0.0 mm
02:24 PM 31.8°F-0.1°C -8.0°F-22.2°C 17% 9.2 mph NNW14.8 kmh NNW 13.6 mph21.9 kmh 30.03 in1016.9 mb 0.00 in0.0 mm 0.00 in/hr0.0 mm/hr 0.00 in0.0 mm
02:23 PM 31.5°F-0.3°C -8.3°F-22.4°C 17% 4.5 mph NW7.2 kmh NW 13.6 mph21.9 kmh 30.03 in1016.9 mb 0.00 in0.0 mm 0.00 in/hr0.0 mm/hr 0.00 in0.0 mm
02:22 PM 31.5°F-0.3°C -8.3°F-22.4°C 17% 6.0 mph NW9.7 kmh NW 13.6 mph21.9 kmh 30.02 in1016.6 mb 0.00 in0.0 mm 0.00 in/hr0.0 mm/hr 0.00 in0.0 mm
02:21 PM 31.5°F-0.3°C -8.3°F-22.4°C 17% 6.9 mph NW11.1 kmh NW 13.6 mph21.9 kmh 30.03 in1016.9 mb 0.00 in0.0 mm 0.00 in/hr0.0 mm/hr 0.00 in0.0 mm
02:20 PM 30.7°F-0.7°C -8.8°F-22.7°C 17% 6.0 mph NNW9.7 kmh NNW 15.9 mph25.6 kmh 30.02 in1016.6 mb 0.00 in0.0 mm 0.00 in/hr0.0 mm/hr 0.00 in0.0 mm
02:19 PM 30.6°F-0.8°C -9.0°F-22.8°C 17% 7.6 mph NNW12.2 kmh NNW 15.9 mph25.6 kmh 30.03 in1016.9 mb 0.00 in0.0 mm 0.00 in/hr0.0 mm/hr 0.00 in0.0 mm
02:18 PM 30.7°F-0.7°C -8.8°F-22.7°C 17% 6.9 mph N11.1 kmh N 15.9 mph25.6 kmh 30.03 in1016.9 mb 0.00 in0.0 mm 0.00 in/hr0.0 mm/hr 0.00 in0.0 mm
02:17 PM 30.7°F-0.7°C -8.8°F-22.7°C 17% 6.0 mph N9.7 kmh N 15.9 mph25.6 kmh 30.03 in1016.9 mb 0.00 in0.0 mm 0.00 in/hr0.0 mm/hr 0.00 in0.0 mm
02:16 PM 30.9°F-0.6°C -8.7°F-22.6°C 17% 6.0 mph N9.7 kmh N 15.9 mph25.6 kmh 30.02 in1016.6 mb 0.00 in0.0 mm 0.00 in/hr0.0 mm/hr 0.00 in0.0 mm
02:15 PM 30.6°F-0.8°C -9.0°F-22.8°C 17% 5.4 mph N8.7 kmh N 15.9 mph25.6 kmh 30.02 in1016.6 mb 0.00 in0.0 mm 0.00 in/hr0.0 mm/hr 0.00 in0.0 mm
02:14 PM 30.4°F-0.9°C -9.1°F-22.8°C 17% 5.4 mph N8.7 kmh N 15.9 mph25.6 kmh 30.02 in1016.6 mb 0.00 in0.0 mm 0.00 in/hr0.0 mm/hr 0.00 in0.0 mm
02:13 PM 30.6°F-0.8°C -9.0°F-22.8°C 17% 7.6 mph NNE12.2 kmh NNE 15.9 mph25.6 kmh 30.03 in1016.9 mb 0.00 in0.0 mm 0.00 in/hr0.0 mm/hr 0.00 in0.0 mm
02:12 PM 30.6°F-0.8°C -9.0°F-22.8°C 17% 6.0 mph NNE9.7 kmh NNE 15.9 mph25.6 kmh 30.03 in1016.9 mb 0.00 in0.0 mm 0.00 in/hr0.0 mm/hr 0.00 in0.0 mm
02:11 PM 30.4°F-0.9°C -9.1°F-22.8°C 17% 8.3 mph NE13.4 kmh NE 19.0 mph30.6 kmh 30.03 in1016.9 mb 0.00 in0.0 mm 0.00 in/hr0.0 mm/hr 0.00 in0.0 mm
02:10 PM 30.6°F-0.8°C -9.0°F-22.8°C 17% 5.4 mph NE8.7 kmh NE 19.0 mph30.6 kmh 30.03 in1016.9 mb 0.00 in0.0 mm 0.00 in/hr0.0 mm/hr 0.00 in0.0 mm
02:09 PM 30.6°F-0.8°C -9.0°F-22.8°C 17% 5.4 mph NE8.7 kmh NE 19.0 mph30.6 kmh 30.02 in1016.6 mb 0.00 in0.0 mm 0.00 in/hr0.0 mm/hr 0.00 in0.0 mm
02:08 PM 30.6°F-0.8°C -9.0°F-22.8°C 17% 5.4 mph NE8.7 kmh NE 19.0 mph30.6 kmh 30.02 in1016.6 mb 0.00 in0.0 mm 0.00 in/hr0.0 mm/hr 0.00 in0.0 mm
02:07 PM 30.7°F-0.7°C -8.8°F-22.7°C 17% 6.0 mph NE9.7 kmh NE 19.0 mph30.6 kmh 30.02 in1016.6 mb 0.00 in0.0 mm 0.00 in/hr0.0 mm/hr 0.00 in0.0 mm
02:06 PM 30.0°F-1.1°C -8.3°F-22.4°C 18% 4.5 mph NE7.2 kmh NE 19.0 mph30.6 kmh 30.02 in1016.6 mb 0.00 in0.0 mm 0.00 in/hr0.0 mm/hr 0.00 in0.0 mm
02:05 PM 30.7°F-0.7°C -8.8°F-22.7°C 17% 6.9 mph NE11.1 kmh NE 19.0 mph30.6 kmh 30.02 in1016.6 mb 0.00 in0.0 mm 0.00 in/hr0.0 mm/hr 0.00 in0.0 mm
02:04 PM 30.6°F-0.8°C -9.0°F-22.8°C 17% 4.5 mph NE7.2 kmh NE 19.0 mph30.6 kmh 30.03 in1016.9 mb 0.00 in0.0 mm 0.00 in/hr0.0 mm/hr 0.00 in0.0 mm
02:03 PM 30.2°F-1.0°C -9.3°F-22.9°C 17% 4.5 mph NE7.2 kmh NE 19.0 mph30.6 kmh 30.02 in1016.6 mb 0.00 in0.0 mm 0.00 in/hr0.0 mm/hr 0.00 in0.0 mm
02:02 PM 30.2°F-1.0°C -9.3°F-22.9°C 17% 13.0 mph NE20.9 kmh NE 19.0 mph30.6 kmh 30.02 in1016.6 mb 0.00 in0.0 mm 0.00 in/hr0.0 mm/hr 0.00 in0.0 mm
02:01 PM 30.0°F-1.1°C -8.3°F-22.4°C 18% 8.3 mph NE13.4 kmh NE 17.4 mph28.0 kmh 30.03 in1016.9 mb 0.00 in0.0 mm 0.00 in/hr0.0 mm/hr 0.00 in0.0 mm
02:00 PM 30.2°F-1.0°C -9.3°F-22.9°C 17% 8.3 mph NE13.4 kmh NE 17.4 mph28.0 kmh 30.02 in1016.6 mb 0.00 in0.0 mm 0.00 in/hr0.0 mm/hr 0.00 in0.0 mm
01:59 PM 30.2°F-1.0°C -9.3°F-22.9°C 17% 10.7 mph NE17.2 kmh NE 17.4 mph28.0 kmh 30.02 in1016.6 mb 0.00 in0.0 mm 0.00 in/hr0.0 mm/hr 0.00 in0.0 mm
01:58 PM 30.0°F-1.1°C -8.3°F-22.4°C 18% 9.2 mph NE14.8 kmh NE 17.4 mph28.0 kmh 30.02 in1016.6 mb 0.00 in0.0 mm 0.00 in/hr0.0 mm/hr 0.00 in0.0 mm
01:57 PM 30.6°F-0.8°C -9.0°F-22.8°C 17% 8.3 mph NE13.4 kmh NE 15.2 mph24.5 kmh 30.03 in1016.9 mb 0.00 in0.0 mm 0.00 in/hr0.0 mm/hr 0.00 in0.0 mm
01:56 PM 30.7°F-0.7°C -7.7°F-22.1°C 18% 8.3 mph NNE13.4 kmh NNE 15.2 mph24.5 kmh 30.03 in1016.9 mb 0.00 in0.0 mm 0.00 in/hr0.0 mm/hr 0.00 in0.0 mm
01:55 PM 30.7°F-0.7°C -7.7°F-22.1°C 18% 8.3 mph N13.4 kmh N 15.2 mph24.5 kmh 30.03 in1016.9 mb 0.00 in0.0 mm 0.00 in/hr0.0 mm/hr 0.00 in0.0 mm
01:54 PM 30.4°F-0.9°C -9.1°F-22.8°C 17% 6.9 mph N11.1 kmh N 15.2 mph24.5 kmh 30.03 in1016.9 mb 0.00 in0.0 mm 0.00 in/hr0.0 mm/hr 0.00 in0.0 mm
01:53 PM 29.8°F-1.2°C -8.4°F-22.4°C 18% 4.5 mph N7.2 kmh N 15.2 mph24.5 kmh 30.03 in1016.9 mb 0.00 in0.0 mm 0.00 in/hr0.0 mm/hr 0.00 in0.0 mm
01:52 PM 29.3°F-1.5°C -8.9°F-22.7°C 18% 8.3 mph N13.4 kmh N 15.2 mph24.5 kmh 30.03 in1016.9 mb 0.00 in0.0 mm 0.00 in/hr0.0 mm/hr 0.00 in0.0 mm
01:51 PM 30.0°F-1.1°C -8.3°F-22.4°C 18% 9.2 mph N14.8 kmh N 15.2 mph24.5 kmh 30.03 in1016.9 mb 0.00 in0.0 mm 0.00 in/hr0.0 mm/hr 0.00 in0.0 mm
01:50 PM 30.2°F-1.0°C -9.3°F-22.9°C 17% 7.6 mph N12.2 kmh N 15.2 mph24.5 kmh 30.03 in1016.9 mb 0.00 in0.0 mm 0.00 in/hr0.0 mm/hr 0.00 in0.0 mm
01:49 PM 30.2°F-1.0°C -9.3°F-22.9°C 17% 7.6 mph N12.2 kmh N 15.2 mph24.5 kmh 30.03 in1016.9 mb 0.00 in0.0 mm 0.00 in/hr0.0 mm/hr 0.00 in0.0 mm
01:48 PM 29.7°F-1.3°C -8.6°F-22.6°C 18% 4.5 mph N7.2 kmh N 15.2 mph24.5 kmh 30.03 in1016.9 mb 0.00 in0.0 mm 0.00 in/hr0.0 mm/hr 0.00 in0.0 mm
01:47 PM 29.5°F-1.4°C -8.7°F-22.6°C 18% 8.3 mph N13.4 kmh N 15.2 mph24.5 kmh 30.02 in1016.6 mb 0.00 in0.0 mm 0.00 in/hr0.0 mm/hr 0.00 in0.0 mm
01:46 PM 29.5°F-1.4°C -8.7°F-22.6°C 18% 8.3 mph NNE13.4 kmh NNE 15.2 mph24.5 kmh 30.02 in1016.6 mb 0.00 in0.0 mm 0.00 in/hr0.0 mm/hr 0.00 in0.0 mm
01:45 PM 29.5°F-1.4°C -8.7°F-22.6°C 18% 8.3 mph NE13.4 kmh NE 15.2 mph24.5 kmh 30.02 in1016.6 mb 0.00 in0.0 mm 0.00 in/hr0.0 mm/hr 0.00 in0.0 mm
01:44 PM 29.5°F-1.4°C -8.7°F-22.6°C 18% 8.3 mph NE13.4 kmh NE 15.2 mph24.5 kmh 30.02 in1016.6 mb 0.00 in0.0 mm 0.00 in/hr0.0 mm/hr 0.00 in0.0 mm
01:43 PM 29.1°F-1.6°C -9.0°F-22.8°C 18% 6.9 mph NE11.1 kmh NE 13.6 mph21.9 kmh 30.02 in1016.6 mb 0.00 in0.0 mm 0.00 in/hr0.0 mm/hr 0.00 in0.0 mm
01:42 PM 29.7°F-1.3°C -6.4°F-21.3°C 20% 11.4 mph NE18.3 kmh NE 13.6 mph21.9 kmh 30.03 in1016.9 mb 0.00 in0.0 mm 0.00 in/hr0.0 mm/hr 0.00 in0.0 mm
01:41 PM 29.7°F-1.3°C -6.4°F-21.3°C 20% 11.4 mph NE18.3 kmh NE 15.2 mph24.5 kmh 30.02 in1016.6 mb 0.00 in0.0 mm 0.00 in/hr0.0 mm/hr 0.00 in0.0 mm
01:40 PM 29.7°F-1.3°C -6.4°F-21.3°C 20% 11.4 mph NE18.3 kmh NE 15.2 mph24.5 kmh 30.02 in1016.6 mb 0.00 in0.0 mm 0.00 in/hr0.0 mm/hr 0.00 in0.0 mm
01:39 PM 29.3°F-1.5°C -8.9°F-22.7°C 18% 8.3 mph NE13.4 kmh NE 15.2 mph24.5 kmh 30.03 in1016.9 mb 0.00 in0.0 mm 0.00 in/hr0.0 mm/hr 0.00 in0.0 mm
01:38 PM 29.5°F-1.4°C -8.7°F-22.6°C 18% 7.6 mph NE12.2 kmh NE 17.4 mph28.0 kmh 30.02 in1016.6 mb 0.00 in0.0 mm 0.00 in/hr0.0 mm/hr 0.00 in0.0 mm
01:37 PM 30.2°F-1.0°C -8.1°F-22.3°C 18% 6.0 mph NE9.7 kmh NE 17.4 mph28.0 kmh 30.02 in1016.6 mb 0.00 in0.0 mm 0.00 in/hr0.0 mm/hr 0.00 in0.0 mm
01:36 PM 30.2°F-1.0°C -8.1°F-22.3°C 18% 6.0 mph NE9.7 kmh NE 19.7 mph31.7 kmh 30.02 in1016.6 mb 0.00 in0.0 mm 0.00 in/hr0.0 mm/hr 0.00 in0.0 mm
01:35 PM 29.7°F-1.3°C -8.6°F-22.6°C 18% 9.2 mph NE14.8 kmh NE 19.7 mph31.7 kmh 30.02 in1016.6 mb 0.00 in0.0 mm 0.00 in/hr0.0 mm/hr 0.00 in0.0 mm
01:34 PM 29.7°F-1.3°C -8.6°F-22.6°C 18% 9.2 mph NE14.8 kmh NE 19.7 mph31.7 kmh 30.02 in1016.6 mb 0.00 in0.0 mm 0.00 in/hr0.0 mm/hr 0.00 in0.0 mm
01:33 PM 29.7°F-1.3°C -8.6°F-22.6°C 18% 9.2 mph NE14.8 kmh NE 19.7 mph31.7 kmh 30.02 in1016.6 mb 0.00 in0.0 mm 0.00 in/hr0.0 mm/hr 0.00 in0.0 mm
01:32 PM 29.7°F-1.3°C -8.6°F-22.6°C 18% 9.2 mph NE14.8 kmh NE 19.7 mph31.7 kmh 30.03 in1016.9 mb 0.00 in0.0 mm 0.00 in/hr0.0 mm/hr 0.00 in0.0 mm
01:31 PM 28.9°F-1.7°C -9.2°F-22.9°C 18% 9.2 mph NE14.8 kmh NE 19.7 mph31.7 kmh 30.02 in1016.6 mb 0.00 in0.0 mm 0.00 in/hr0.0 mm/hr 0.00 in0.0 mm
01:30 PM 28.9°F-1.7°C -9.2°F-22.9°C 18% 9.2 mph NE14.8 kmh NE 19.7 mph31.7 kmh 30.02 in1016.6 mb 0.00 in0.0 mm 0.00 in/hr0.0 mm/hr 0.00 in0.0 mm
01:29 PM 28.4°F-2.0°C -9.6°F-23.1°C 18% 9.2 mph NE14.8 kmh NE 19.7 mph31.7 kmh 30.02 in1016.6 mb 0.00 in0.0 mm 0.00 in/hr0.0 mm/hr 0.00 in0.0 mm
01:28 PM 28.6°F-1.9°C -9.5°F-23.1°C 18% 11.4 mph NE18.3 kmh NE 19.7 mph31.7 kmh 30.02 in1016.6 mb 0.00 in0.0 mm 0.00 in/hr0.0 mm/hr 0.00 in0.0 mm
01:27 PM 28.6°F-1.9°C -9.5°F-23.1°C 18% 11.4 mph NE18.3 kmh NE 19.7 mph31.7 kmh 30.03 in1016.9 mb 0.00 in0.0 mm 0.00 in/hr0.0 mm/hr 0.00 in0.0 mm
01:26 PM 28.8°F-1.8°C -9.3°F-22.9°C 18% 10.7 mph NE17.2 kmh NE 19.0 mph30.6 kmh 30.03 in1016.9 mb 0.00 in0.0 mm 0.00 in/hr0.0 mm/hr 0.00 in0.0 mm
01:25 PM 28.8°F-1.8°C -9.3°F-22.9°C 18% 9.8 mph NE15.8 kmh NE 17.4 mph28.0 kmh 30.02 in1016.6 mb 0.00 in0.0 mm 0.00 in/hr0.0 mm/hr 0.00 in0.0 mm
01:24 PM 28.6°F-1.9°C -9.5°F-23.1°C 18% 10.7 mph NE17.2 kmh NE 17.4 mph28.0 kmh 30.02 in1016.6 mb 0.00 in0.0 mm 0.00 in/hr0.0 mm/hr 0.00 in0.0 mm
01:23 PM 29.1°F-1.6°C -9.0°F-22.8°C 18% 10.7 mph NE17.2 kmh NE 17.4 mph28.0 kmh 30.02 in1016.6 mb 0.00 in0.0 mm 0.00 in/hr0.0 mm/hr 0.00 in0.0 mm
01:22 PM 29.1°F-1.6°C -9.0°F-22.8°C 18% 8.3 mph NE13.4 kmh NE 17.4 mph28.0 kmh 30.02 in1016.6 mb 0.00 in0.0 mm 0.00 in/hr0.0 mm/hr 0.00 in0.0 mm
01:21 PM 29.1°F-1.6°C -9.0°F-22.8°C 18% 8.3 mph NE13.4 kmh NE 17.4 mph28.0 kmh 30.02 in1016.6 mb 0.00 in0.0 mm 0.00 in/hr0.0 mm/hr 0.00 in0.0 mm
01:20 PM 29.1°F-1.6°C -9.0°F-22.8°C 18% 10.7 mph NE17.2 kmh NE 17.4 mph28.0 kmh 30.02 in1016.6 mb 0.00 in0.0 mm 0.00 in/hr0.0 mm/hr 0.00 in0.0 mm
01:19 PM 28.6°F-1.9°C -9.5°F-23.1°C 18% 9.2 mph NE14.8 kmh NE 18.3 mph29.5 kmh 30.03 in1016.9 mb 0.00 in0.0 mm 0.00 in/hr0.0 mm/hr 0.00 in0.0 mm
01:18 PM 29.1°F-1.6°C -9.0°F-22.8°C 18% 8.3 mph NE13.4 kmh NE 18.3 mph29.5 kmh 30.02 in1016.6 mb 0.00 in0.0 mm 0.00 in/hr0.0 mm/hr 0.00 in0.0 mm
01:17 PM 28.0°F-2.2°C -13.6°F-25.3°C 15% 7.6 mph NE12.2 kmh NE 18.3 mph29.5 kmh 30.03 in1016.9 mb 0.00 in0.0 mm 0.00 in/hr0.0 mm/hr 0.00 in0.0 mm
01:16 PM 28.0°F-2.2°C -13.6°F-25.3°C 15% 7.6 mph NE12.2 kmh NE 18.3 mph29.5 kmh 30.03 in1016.9 mb 0.00 in0.0 mm 0.00 in/hr0.0 mm/hr 0.00 in0.0 mm
01:15 PM 28.2°F-2.1°C -16.2°F-26.8°C 13% 13.0 mph ENE20.9 kmh ENE 18.3 mph29.5 kmh 30.03 in1016.9 mb 0.00 in0.0 mm 0.00 in/hr0.0 mm/hr 0.00 in0.0 mm
01:14 PM 28.8°F-1.8°C -7.2°F-21.8°C 20% 8.3 mph ENE13.4 kmh ENE 18.3 mph29.5 kmh 30.03 in1016.9 mb 0.00 in0.0 mm 0.00 in/hr0.0 mm/hr 0.00 in0.0 mm
01:13 PM 28.4°F-2.0°C -9.6°F-23.1°C 18% 9.8 mph ENE15.8 kmh ENE 18.3 mph29.5 kmh 30.03 in1016.9 mb 0.00 in0.0 mm 0.00 in/hr0.0 mm/hr 0.00 in0.0 mm
01:12 PM 28.6°F-1.9°C -9.5°F-23.1°C 18% 9.2 mph NE14.8 kmh NE 18.3 mph29.5 kmh 30.03 in1016.9 mb 0.00 in0.0 mm 0.00 in/hr0.0 mm/hr 0.00 in0.0 mm
01:11 PM 28.9°F-1.7°C -7.0°F-21.7°C 20% 9.2 mph NE14.8 kmh NE 18.3 mph29.5 kmh 30.03 in1016.9 mb 0.00 in0.0 mm 0.00 in/hr0.0 mm/hr 0.00 in0.0 mm
01:10 PM 29.3°F-1.5°C -6.7°F-21.5°C 20% 12.1 mph NE19.5 kmh NE 19.7 mph31.7 kmh 30.03 in1016.9 mb 0.00 in0.0 mm 0.00 in/hr0.0 mm/hr 0.00 in0.0 mm
01:09 PM 29.1°F-1.6°C -6.9°F-21.6°C 20% 7.6 mph NE12.2 kmh NE 19.7 mph31.7 kmh 30.03 in1016.9 mb 0.00 in0.0 mm 0.00 in/hr0.0 mm/hr 0.00 in0.0 mm
01:08 PM 29.5°F-1.4°C -6.6°F-21.4°C 20% 9.2 mph NE14.8 kmh NE 19.7 mph31.7 kmh 30.03 in1016.9 mb 0.00 in0.0 mm 0.00 in/hr0.0 mm/hr 0.00 in0.0 mm
01:07 PM 28.9°F-1.7°C -9.2°F-22.9°C 18% 6.9 mph NE11.1 kmh NE 19.7 mph31.7 kmh 30.03 in1016.9 mb 0.00 in0.0 mm 0.00 in/hr0.0 mm/hr 0.00 in0.0 mm
01:06 PM 28.2°F-2.1°C -13.4°F-25.2°C 15% 8.3 mph NE13.4 kmh NE 19.7 mph31.7 kmh 30.03 in1016.9 mb 0.00 in0.0 mm 0.00 in/hr0.0 mm/hr 0.00 in0.0 mm
01:05 PM 28.2°F-2.1°C -13.4°F-25.2°C 15% 8.3 mph NE13.4 kmh NE 19.7 mph31.7 kmh 30.03 in1016.9 mb 0.00 in0.0 mm 0.00 in/hr0.0 mm/hr 0.00 in0.0 mm
01:04 PM 28.0°F-2.2°C -13.6°F-25.3°C 15% 12.1 mph NE19.5 kmh NE 19.7 mph31.7 kmh 30.03 in1016.9 mb 0.00 in0.0 mm 0.00 in/hr0.0 mm/hr 0.00 in0.0 mm
01:03 PM 28.6°F-1.9°C -7.3°F-21.8°C 20% 10.7 mph NE17.2 kmh NE 19.7 mph31.7 kmh 30.03 in1016.9 mb 0.00 in0.0 mm 0.00 in/hr0.0 mm/hr 0.00 in0.0 mm
01:02 PM 28.4°F-2.0°C -7.5°F-21.9°C 20% 7.6 mph NE12.2 kmh NE 19.7 mph31.7 kmh 30.03 in1016.9 mb 0.00 in0.0 mm 0.00 in/hr0.0 mm/hr 0.00 in0.0 mm
01:01 PM 28.0°F-2.2°C -13.6°F-25.3°C 15% 7.6 mph NE12.2 kmh NE 19.7 mph31.7 kmh 30.02 in1016.6 mb 0.00 in0.0 mm 0.00 in/hr0.0 mm/hr 0.00 in0.0 mm
01:00 PM 29.1°F-1.6°C -6.9°F-21.6°C 20% 13.6 mph NE21.9 kmh NE 19.7 mph31.7 kmh 30.02 in1016.6 mb 0.00 in0.0 mm 0.00 in/hr0.0 mm/hr 0.00 in0.0 mm
12:59 PM 29.1°F-1.6°C -6.9°F-21.6°C 20% 7.6 mph NE12.2 kmh NE 13.0 mph20.9 kmh 30.03 in1016.9 mb 0.00 in0.0 mm 0.00 in/hr0.0 mm/hr 0.00 in0.0 mm
12:58 PM 29.3°F-1.5°C -6.7°F-21.5°C 20% 4.5 mph NE7.2 kmh NE 13.6 mph21.9 kmh 30.03 in1016.9 mb 0.00 in0.0 mm 0.00 in/hr0.0 mm/hr 0.00 in0.0 mm
12:57 PM 28.8°F-1.8°C -7.2°F-21.8°C 20% 6.9 mph NNE11.1 kmh NNE 13.6 mph21.9 kmh 30.03 in1016.9 mb 0.00 in0.0 mm 0.00 in/hr0.0 mm/hr 0.00 in0.0 mm
12:56 PM 28.6°F-1.9°C -7.3°F-21.8°C 20% 7.6 mph NNE12.2 kmh NNE 13.6 mph21.9 kmh 30.03 in1016.9 mb 0.00 in0.0 mm 0.00 in/hr0.0 mm/hr 0.00 in0.0 mm
12:55 PM 28.8°F-1.8°C -7.2°F-21.8°C 20% 7.6 mph NNE12.2 kmh NNE 13.6 mph21.9 kmh 30.03 in1016.9 mb 0.00 in0.0 mm 0.00 in/hr0.0 mm/hr 0.00 in0.0 mm
12:54 PM 28.6°F-1.9°C -7.3°F-21.8°C 20% 6.0 mph NE9.7 kmh NE 18.3 mph29.5 kmh 30.03 in1016.9 mb 0.00 in0.0 mm 0.00 in/hr0.0 mm/hr 0.00 in0.0 mm
12:53 PM 28.8°F-1.8°C -7.2°F-21.8°C 20% 6.9 mph NE11.1 kmh NE 18.3 mph29.5 kmh 30.03 in1016.9 mb 0.00 in0.0 mm 0.00 in/hr0.0 mm/hr 0.00 in0.0 mm
12:52 PM 28.8°F-1.8°C -7.2°F-21.8°C 20% 7.6 mph NE12.2 kmh NE 18.3 mph29.5 kmh 30.03 in1016.9 mb 0.00 in0.0 mm 0.00 in/hr0.0 mm/hr 0.00 in0.0 mm
12:51 PM 28.8°F-1.8°C -7.2°F-21.8°C 20% 5.4 mph NE8.7 kmh NE 18.3 mph29.5 kmh 30.03 in1016.9 mb 0.00 in0.0 mm 0.00 in/hr0.0 mm/hr 0.00 in0.0 mm
12:50 PM 28.2°F-2.1°C -13.4°F-25.2°C 15% 6.0 mph NE9.7 kmh NE 18.3 mph29.5 kmh 30.04 in1017.3 mb 0.00 in0.0 mm 0.00 in/hr0.0 mm/hr 0.00 in0.0 mm
12:49 PM 28.4°F-2.0°C -7.5°F-21.9°C 20% 6.9 mph NE11.1 kmh NE 18.3 mph29.5 kmh 30.03 in1016.9 mb 0.00 in0.0 mm 0.00 in/hr0.0 mm/hr 0.00 in0.0 mm
12:48 PM 27.9°F-2.3°C -13.7°F-25.4°C 15% 8.3 mph NE13.4 kmh NE 18.3 mph29.5 kmh 30.03 in1016.9 mb 0.00 in0.0 mm 0.00 in/hr0.0 mm/hr 0.00 in0.0 mm
12:47 PM 27.9°F-2.3°C -13.7°F-25.4°C 15% 8.3 mph NE13.4 kmh NE 18.3 mph29.5 kmh 30.03 in1016.9 mb 0.00 in0.0 mm 0.00 in/hr0.0 mm/hr 0.00 in0.0 mm
12:46 PM 27.3°F-2.6°C -14.1°F-25.6°C 15% 8.3 mph NE13.4 kmh NE 18.3 mph29.5 kmh 30.03 in1016.9 mb 0.00 in0.0 mm 0.00 in/hr0.0 mm/hr 0.00 in0.0 mm
12:45 PM 27.5°F-2.5°C -14.0°F-25.6°C 15% 8.3 mph NE13.4 kmh NE 18.3 mph29.5 kmh 30.03 in1016.9 mb 0.00 in0.0 mm 0.00 in/hr0.0 mm/hr 0.00 in0.0 mm
12:44 PM 27.0°F-2.8°C -14.4°F-25.8°C 15% 7.6 mph NE12.2 kmh NE 18.3 mph29.5 kmh 30.04 in1017.3 mb 0.00 in0.0 mm 0.00 in/hr0.0 mm/hr 0.00 in0.0 mm
12:43 PM 28.0°F-2.2°C -13.6°F-25.3°C 15% 9.8 mph NE15.8 kmh NE 17.4 mph28.0 kmh 30.04 in1017.3 mb 0.00 in0.0 mm 0.00 in/hr0.0 mm/hr 0.00 in0.0 mm
12:42 PM 27.9°F-2.3°C -13.7°F-25.4°C 15% 9.2 mph NE14.8 kmh NE 17.4 mph28.0 kmh 30.04 in1017.3 mb 0.00 in0.0 mm 0.00 in/hr0.0 mm/hr 0.00 in0.0 mm
12:41 PM 27.7°F-2.4°C -13.8°F-25.4°C 15% 9.8 mph NE15.8 kmh NE 17.4 mph28.0 kmh 30.03 in1016.9 mb 0.00 in0.0 mm 0.00 in/hr0.0 mm/hr 0.00 in0.0 mm
12:40 PM 27.7°F-2.4°C -13.8°F-25.4°C 15% 9.8 mph NNE15.8 kmh NNE 17.4 mph28.0 kmh 30.04 in1017.3 mb 0.00 in0.0 mm 0.00 in/hr0.0 mm/hr 0.00 in0.0 mm
12:39 PM 27.7°F-2.4°C -13.8°F-25.4°C 15% 6.9 mph NNE11.1 kmh NNE 14.5 mph23.3 kmh 30.04 in1017.3 mb 0.00 in0.0 mm 0.00 in/hr0.0 mm/hr 0.00 in0.0 mm
12:38 PM 27.5°F-2.5°C -14.0°F-25.6°C 15% 8.3 mph NNE13.4 kmh NNE 14.5 mph23.3 kmh 30.03 in1016.9 mb 0.00 in0.0 mm 0.00 in/hr0.0 mm/hr 0.00 in0.0 mm
12:37 PM 27.5°F-2.5°C -14.0°F-25.6°C 15% 8.3 mph NNE13.4 kmh NNE 14.5 mph23.3 kmh 30.04 in1017.3 mb 0.00 in0.0 mm 0.00 in/hr0.0 mm/hr 0.00 in0.0 mm
12:36 PM 27.9°F-2.3°C -13.7°F-25.4°C 15% 7.6 mph N12.2 kmh N 14.5 mph23.3 kmh 30.04 in1017.3 mb 0.00 in0.0 mm 0.00 in/hr0.0 mm/hr 0.00 in0.0 mm
12:35 PM 28.0°F-2.2°C -13.6°F-25.3°C 15% 6.0 mph N9.7 kmh N 15.9 mph25.6 kmh 30.04 in1017.3 mb 0.00 in0.0 mm 0.00 in/hr0.0 mm/hr 0.00 in0.0 mm
12:34 PM 27.5°F-2.5°C -14.0°F-25.6°C 15% 5.4 mph N8.7 kmh N 15.9 mph25.6 kmh 30.04 in1017.3 mb 0.00 in0.0 mm 0.00 in/hr0.0 mm/hr 0.00 in0.0 mm
12:33 PM 26.8°F-2.9°C -14.6°F-25.9°C 15% 5.4 mph NNE8.7 kmh NNE 17.4 mph28.0 kmh 30.04 in1017.3 mb 0.00 in0.0 mm 0.00 in/hr0.0 mm/hr 0.00 in0.0 mm
12:32 PM 27.7°F-2.4°C -13.8°F-25.4°C 15% 6.0 mph NNE9.7 kmh NNE 19.0 mph30.6 kmh 30.04 in1017.3 mb 0.00 in0.0 mm 0.00 in/hr0.0 mm/hr 0.00 in0.0 mm
12:31 PM 27.7°F-2.4°C -13.8°F-25.4°C 15% 6.0 mph NNE9.7 kmh NNE 19.0 mph30.6 kmh 30.04 in1017.3 mb 0.00 in0.0 mm 0.00 in/hr0.0 mm/hr 0.00 in0.0 mm
12:30 PM 27.0°F-2.8°C -14.4°F-25.8°C 15% 9.2 mph NNE14.8 kmh NNE 19.0 mph30.6 kmh 30.04 in1017.3 mb 0.00 in0.0 mm 0.00 in/hr0.0 mm/hr 0.00 in0.0 mm
12:29 PM 27.3°F-2.6°C -14.1°F-25.6°C 15% 8.3 mph NE13.4 kmh NE 19.0 mph30.6 kmh 30.03 in1016.9 mb 0.00 in0.0 mm 0.00 in/hr0.0 mm/hr 0.00 in0.0 mm
12:28 PM 27.7°F-2.4°C -13.8°F-25.4°C 15% 8.3 mph NE13.4 kmh NE 19.0 mph30.6 kmh 30.03 in1016.9 mb 0.00 in0.0 mm 0.00 in/hr0.0 mm/hr 0.00 in0.0 mm
12:27 PM 27.3°F-2.6°C -14.1°F-25.6°C 15% 5.4 mph NE8.7 kmh NE 19.0 mph30.6 kmh 30.04 in1017.3 mb 0.00 in0.0 mm 0.00 in/hr0.0 mm/hr 0.00 in0.0 mm
12:26 PM 26.6°F-3.0°C -14.7°F-25.9°C 15% 9.8 mph NE15.8 kmh NE 19.0 mph30.6 kmh 30.03 in1016.9 mb 0.00 in0.0 mm 0.00 in/hr0.0 mm/hr 0.00 in0.0 mm
12:25 PM 26.8°F-2.9°C -14.6°F-25.9°C 15% 9.2 mph NE14.8 kmh NE 19.0 mph30.6 kmh 30.03 in1016.9 mb 0.00 in0.0 mm 0.00 in/hr0.0 mm/hr 0.00 in0.0 mm
12:24 PM 26.6°F-3.0°C -14.7°F-25.9°C 15% 9.2 mph NE14.8 kmh NE 19.0 mph30.6 kmh 30.03 in1016.9 mb 0.00 in0.0 mm 0.00 in/hr0.0 mm/hr 0.00 in0.0 mm
12:23 PM 27.0°F-2.8°C -14.4°F-25.8°C 15% 11.4 mph NE18.3 kmh NE 19.0 mph30.6 kmh 30.03 in1016.9 mb 0.00 in0.0 mm 0.00 in/hr0.0 mm/hr 0.00 in0.0 mm
12:22 PM 26.6°F-3.0°C -14.7°F-25.9°C 15% 7.6 mph NE12.2 kmh NE 19.0 mph30.6 kmh 30.04 in1017.3 mb 0.00 in0.0 mm 0.00 in/hr0.0 mm/hr 0.00 in0.0 mm
12:21 PM 26.4°F-3.1°C -13.6°F-25.3°C 16% 11.4 mph NE18.3 kmh NE 19.0 mph30.6 kmh 30.04 in1017.3 mb 0.00 in0.0 mm 0.00 in/hr0.0 mm/hr 0.00 in0.0 mm
12:20 PM 26.4°F-3.1°C -13.6°F-25.3°C 16% 11.4 mph NE18.3 kmh NE 19.0 mph30.6 kmh 30.03 in1016.9 mb 0.00 in0.0 mm 0.00 in/hr0.0 mm/hr 0.00 in0.0 mm
12:19 PM 26.8°F-2.9°C -14.6°F-25.9°C 15% 10.7 mph NE17.2 kmh NE 19.0 mph30.6 kmh 30.04 in1017.3 mb 0.00 in0.0 mm 0.00 in/hr0.0 mm/hr 0.00 in0.0 mm
12:18 PM 27.7°F-2.4°C -12.6°F-24.8°C 16% 13.0 mph NE20.9 kmh NE 16.8 mph27.0 kmh 30.04 in1017.3 mb 0.00 in0.0 mm 0.00 in/hr0.0 mm/hr 0.00 in0.0 mm
12:17 PM 27.3°F-2.6°C -14.1°F-25.6°C 15% 5.4 mph NE8.7 kmh NE 16.8 mph27.0 kmh 30.04 in1017.3 mb 0.00 in0.0 mm 0.00 in/hr0.0 mm/hr 0.00 in0.0 mm
12:16 PM 26.8°F-2.9°C -14.6°F-25.9°C 15% 5.4 mph NE8.7 kmh NE 16.8 mph27.0 kmh 30.04 in1017.3 mb 0.00 in0.0 mm 0.00 in/hr0.0 mm/hr 0.00 in0.0 mm
12:15 PM 26.8°F-2.9°C -14.6°F-25.9°C 15% 6.0 mph NE9.7 kmh NE 16.8 mph27.0 kmh 30.04 in1017.3 mb 0.00 in0.0 mm 0.00 in/hr0.0 mm/hr 0.00 in0.0 mm
12:14 PM 26.8°F-2.9°C -13.3°F-25.2°C 16% 8.3 mph NE13.4 kmh NE 23.5 mph37.8 kmh 30.04 in1017.3 mb 0.00 in0.0 mm 0.00 in/hr0.0 mm/hr 0.00 in0.0 mm
12:13 PM 26.6°F-3.0°C -13.5°F-25.3°C 16% 8.3 mph NE13.4 kmh NE 23.5 mph37.8 kmh 30.04 in1017.3 mb 0.00 in0.0 mm 0.00 in/hr0.0 mm/hr 0.00 in0.0 mm
12:12 PM 26.4°F-3.1°C -13.6°F-25.3°C 16% 8.3 mph NE13.4 kmh NE 23.5 mph37.8 kmh 30.04 in1017.3 mb 0.00 in0.0 mm 0.00 in/hr0.0 mm/hr 0.00 in0.0 mm
12:11 PM 26.4°F-3.1°C -12.4°F-24.7°C 17% 9.8 mph NE15.8 kmh NE 23.5 mph37.8 kmh 30.05 in1017.6 mb 0.00 in0.0 mm 0.00 in/hr0.0 mm/hr 0.00 in0.0 mm
12:10 PM 26.2°F-3.2°C -13.7°F-25.4°C 16% 7.6 mph NE12.2 kmh NE 23.5 mph37.8 kmh 30.04 in1017.3 mb 0.00 in0.0 mm 0.00 in/hr0.0 mm/hr 0.00 in0.0 mm
12:09 PM 26.2°F-3.2°C -13.7°F-25.4°C 16% 7.6 mph NE12.2 kmh NE 23.5 mph37.8 kmh 30.04 in1017.3 mb 0.00 in0.0 mm 0.00 in/hr0.0 mm/hr 0.00 in0.0 mm
12:08 PM 26.1°F-3.3°C -13.9°F-25.5°C 16% 11.4 mph NE18.3 kmh NE 23.5 mph37.8 kmh 30.05 in1017.6 mb 0.00 in0.0 mm 0.00 in/hr0.0 mm/hr 0.00 in0.0 mm
12:07 PM 26.6°F-3.0°C -14.7°F-25.9°C 15% 10.7 mph NE17.2 kmh NE 23.5 mph37.8 kmh 30.04 in1017.3 mb 0.00 in0.0 mm 0.00 in/hr0.0 mm/hr 0.00 in0.0 mm
12:06 PM 26.1°F-3.3°C -13.9°F-25.5°C 16% 11.4 mph NE18.3 kmh NE 23.5 mph37.8 kmh 30.04 in1017.3 mb 0.00 in0.0 mm 0.00 in/hr0.0 mm/hr 0.00 in0.0 mm
12:05 PM 26.4°F-3.1°C -13.6°F-25.3°C 16% 9.8 mph NE15.8 kmh NE 23.5 mph37.8 kmh 30.05 in1017.6 mb 0.00 in0.0 mm 0.00 in/hr0.0 mm/hr 0.00 in0.0 mm
12:04 PM 26.2°F-3.2°C -13.7°F-25.4°C 16% 11.4 mph NE18.3 kmh NE 23.5 mph37.8 kmh 30.04 in1017.3 mb 0.00 in0.0 mm 0.00 in/hr0.0 mm/hr 0.00 in0.0 mm
12:03 PM 26.2°F-3.2°C -13.7°F-25.4°C 16% 11.4 mph NE18.3 kmh NE 23.5 mph37.8 kmh 30.04 in1017.3 mb 0.00 in0.0 mm 0.00 in/hr0.0 mm/hr 0.00 in0.0 mm
12:02 PM 26.1°F-3.3°C -13.9°F-25.5°C 16% 9.2 mph NE14.8 kmh NE 16.8 mph27.0 kmh 30.04 in1017.3 mb 0.00 in0.0 mm 0.00 in/hr0.0 mm/hr 0.00 in0.0 mm
12:01 PM 25.9°F-3.4°C -14.0°F-25.6°C 16% 7.6 mph NE12.2 kmh NE 16.8 mph27.0 kmh 30.05 in1017.6 mb 0.00 in0.0 mm 0.00 in/hr0.0 mm/hr 0.00 in0.0 mm
12:00 PM 25.5°F-3.6°C -14.3°F-25.7°C 16% 6.0 mph NE9.7 kmh NE 16.8 mph27.0 kmh 30.05 in1017.6 mb 0.00 in0.0 mm 0.00 in/hr0.0 mm/hr 0.00 in0.0 mm
11:59 AM 26.4°F-3.1°C -13.6°F-25.3°C 16% 9.8 mph NE15.8 kmh NE 16.8 mph27.0 kmh 30.05 in1017.6 mb 0.00 in0.0 mm 0.00 in/hr0.0 mm/hr 0.00 in0.0 mm
11:58 AM 26.1°F-3.3°C -13.9°F-25.5°C 16% 8.3 mph NE13.4 kmh NE 16.8 mph27.0 kmh 30.05 in1017.6 mb 0.00 in0.0 mm 0.00 in/hr0.0 mm/hr 0.00 in0.0 mm
11:57 AM 26.2°F-3.2°C -13.7°F-25.4°C 16% 9.2 mph NE14.8 kmh NE 16.8 mph27.0 kmh 30.05 in1017.6 mb 0.00 in0.0 mm 0.00 in/hr0.0 mm/hr 0.00 in0.0 mm
11:56 AM 26.2°F-3.2°C -13.7°F-25.4°C 16% 7.6 mph NE12.2 kmh NE 16.8 mph27.0 kmh 30.05 in1017.6 mb 0.00 in0.0 mm 0.00 in/hr0.0 mm/hr 0.00 in0.0 mm
11:55 AM 26.2°F-3.2°C -13.7°F-25.4°C 16% 6.9 mph NE11.1 kmh NE 16.8 mph27.0 kmh 30.05 in1017.6 mb 0.00 in0.0 mm 0.00 in/hr0.0 mm/hr 0.00 in0.0 mm
11:54 AM 25.5°F-3.6°C -13.1°F-25.1°C 17% 11.4 mph NE18.3 kmh NE 16.8 mph27.0 kmh 30.05 in1017.6 mb 0.00 in0.0 mm 0.00 in/hr0.0 mm/hr 0.00 in0.0 mm
11:53 AM 26.2°F-3.2°C -12.5°F-24.7°C 17% 8.3 mph NE13.4 kmh NE 16.8 mph27.0 kmh 30.05 in1017.6 mb 0.00 in0.0 mm 0.00 in/hr0.0 mm/hr 0.00 in0.0 mm
11:52 AM 26.2°F-3.2°C -12.5°F-24.7°C 17% 8.3 mph NE13.4 kmh NE 16.8 mph27.0 kmh 30.05 in1017.6 mb 0.00 in0.0 mm 0.00 in/hr0.0 mm/hr 0.00 in0.0 mm
11:51 AM 26.1°F-3.3°C -12.7°F-24.8°C 17% 6.9 mph NE11.1 kmh NE 15.9 mph25.6 kmh 30.05 in1017.6 mb 0.00 in0.0 mm 0.00 in/hr0.0 mm/hr 0.00 in0.0 mm
11:50 AM 25.7°F-3.5°C -13.0°F-25.0°C 17% 10.7 mph NE17.2 kmh NE 15.9 mph25.6 kmh 30.05 in1017.6 mb 0.00 in0.0 mm 0.00 in/hr0.0 mm/hr 0.00 in0.0 mm
11:49 AM 26.1°F-3.3°C -12.7°F-24.8°C 17% 9.2 mph NE14.8 kmh NE 19.7 mph31.7 kmh 30.05 in1017.6 mb 0.00 in0.0 mm 0.00 in/hr0.0 mm/hr 0.00 in0.0 mm
11:48 AM 26.2°F-3.2°C -12.5°F-24.7°C 17% 6.9 mph NE11.1 kmh NE 22.1 mph35.6 kmh 30.05 in1017.6 mb 0.00 in0.0 mm 0.00 in/hr0.0 mm/hr 0.00 in0.0 mm
11:47 AM 25.3°F-3.7°C -14.5°F-25.8°C 16% 9.8 mph NE15.8 kmh NE 22.1 mph35.6 kmh 30.05 in1017.6 mb 0.00 in0.0 mm 0.00 in/hr0.0 mm/hr 0.00 in0.0 mm
11:46 AM 25.7°F-3.5°C -13.0°F-25.0°C 17% 10.7 mph ENE17.2 kmh ENE 22.1 mph35.6 kmh 30.05 in1017.6 mb 0.00 in0.0 mm 0.00 in/hr0.0 mm/hr 0.00 in0.0 mm
11:45 AM 26.1°F-3.3°C -13.9°F-25.5°C 16% 9.2 mph ENE14.8 kmh ENE 22.1 mph35.6 kmh 30.05 in1017.6 mb 0.00 in0.0 mm 0.00 in/hr0.0 mm/hr 0.00 in0.0 mm
11:44 AM 25.7°F-3.5°C -13.0°F-25.0°C 17% 6.9 mph ENE11.1 kmh ENE 22.1 mph35.6 kmh 30.05 in1017.6 mb 0.00 in0.0 mm 0.00 in/hr0.0 mm/hr 0.00 in0.0 mm
11:43 AM 25.7°F-3.5°C -13.0°F-25.0°C 17% 9.8 mph NE15.8 kmh NE 22.1 mph35.6 kmh 30.05 in1017.6 mb 0.00 in0.0 mm 0.00 in/hr0.0 mm/hr 0.00 in0.0 mm
11:42 AM 25.2°F-3.8°C -14.6°F-25.9°C 16% 6.9 mph NE11.1 kmh NE 22.1 mph35.6 kmh 30.05 in1017.6 mb 0.00 in0.0 mm 0.00 in/hr0.0 mm/hr 0.00 in0.0 mm
11:41 AM 25.2°F-3.8°C -14.6°F-25.9°C 16% 6.9 mph NE11.1 kmh NE 22.1 mph35.6 kmh 30.05 in1017.6 mb 0.00 in0.0 mm 0.00 in/hr0.0 mm/hr 0.00 in0.0 mm
11:40 AM 25.3°F-3.7°C -14.5°F-25.8°C 16% 9.2 mph NE14.8 kmh NE 22.1 mph35.6 kmh 30.05 in1017.6 mb 0.00 in0.0 mm 0.00 in/hr0.0 mm/hr 0.00 in0.0 mm
11:39 AM 25.0°F-3.9°C -14.8°F-26.0°C 16% 12.1 mph NE19.5 kmh NE 22.1 mph35.6 kmh 30.05 in1017.6 mb 0.00 in0.0 mm 0.00 in/hr0.0 mm/hr 0.00 in0.0 mm
11:38 AM 25.2°F-3.8°C -13.4°F-25.2°C 17% 9.8 mph NE15.8 kmh NE 21.3 mph34.3 kmh 30.05 in1017.6 mb 0.00 in0.0 mm 0.00 in/hr0.0 mm/hr 0.00 in0.0 mm
11:37 AM 24.8°F-4.0°C -13.7°F-25.4°C 17% 10.7 mph NE17.2 kmh NE 21.3 mph34.3 kmh 30.05 in1017.6 mb 0.00 in0.0 mm 0.00 in/hr0.0 mm/hr 0.00 in0.0 mm
11:36 AM 25.2°F-3.8°C -14.6°F-25.9°C 16% 13.6 mph NE21.9 kmh NE 21.3 mph34.3 kmh 30.05 in1017.6 mb 0.00 in0.0 mm 0.00 in/hr0.0 mm/hr 0.00 in0.0 mm
11:35 AM 25.3°F-3.7°C -13.3°F-25.2°C 17% 11.4 mph NE18.3 kmh NE 21.3 mph34.3 kmh 30.05 in1017.6 mb 0.00 in0.0 mm 0.00 in/hr0.0 mm/hr 0.00 in0.0 mm
11:34 AM 25.0°F-3.9°C -13.6°F-25.3°C 17% 9.8 mph NE15.8 kmh NE 21.3 mph34.3 kmh 30.05 in1017.6 mb 0.00 in0.0 mm 0.00 in/hr0.0 mm/hr 0.00 in0.0 mm
11:33 AM 25.3°F-3.7°C -13.3°F-25.2°C 17% 13.6 mph NE21.9 kmh NE 21.3 mph34.3 kmh 30.05 in1017.6 mb 0.00 in0.0 mm 0.00 in/hr0.0 mm/hr 0.00 in0.0 mm
11:32 AM 25.2°F-3.8°C -13.4°F-25.2°C 17% 11.4 mph NE18.3 kmh NE 21.3 mph34.3 kmh 30.05 in1017.6 mb 0.00 in0.0 mm 0.00 in/hr0.0 mm/hr 0.00 in0.0 mm
11:31 AM 25.2°F-3.8°C -13.4°F-25.2°C 17% 9.8 mph NE15.8 kmh NE 18.3 mph29.5 kmh 30.05 in1017.6 mb 0.00 in0.0 mm 0.00 in/hr0.0 mm/hr 0.00 in0.0 mm
11:30 AM 25.2°F-3.8°C -13.4°F-25.2°C 17% 9.8 mph NE15.8 kmh NE 16.8 mph27.0 kmh 30.05 in1017.6 mb 0.00 in0.0 mm 0.00 in/hr0.0 mm/hr 0.00 in0.0 mm
11:29 AM 25.5°F-3.6°C -13.1°F-25.1°C 17% 11.4 mph NE18.3 kmh NE 16.8 mph27.0 kmh 30.05 in1017.6 mb 0.00 in0.0 mm 0.00 in/hr0.0 mm/hr 0.00 in0.0 mm
11:28 AM 25.3°F-3.7°C -13.3°F-25.2°C 17% 7.6 mph NE12.2 kmh NE 15.9 mph25.6 kmh 30.05 in1017.6 mb 0.00 in0.0 mm 0.00 in/hr0.0 mm/hr 0.00 in0.0 mm
11:27 AM 25.0°F-3.9°C -13.6°F-25.3°C 17% 6.9 mph NE11.1 kmh NE 15.9 mph25.6 kmh 30.05 in1017.6 mb 0.00 in0.0 mm 0.00 in/hr0.0 mm/hr 0.00 in0.0 mm
11:26 AM 25.0°F-3.9°C -13.6°F-25.3°C 17% 9.8 mph NE15.8 kmh NE 18.3 mph29.5 kmh 30.05 in1017.6 mb 0.00 in0.0 mm 0.00 in/hr0.0 mm/hr 0.00 in0.0 mm
11:25 AM 25.5°F-3.6°C -13.1°F-25.1°C 17% 11.4 mph NE18.3 kmh NE 18.3 mph29.5 kmh 30.05 in1017.6 mb 0.00 in0.0 mm 0.00 in/hr0.0 mm/hr 0.00 in0.0 mm
11:24 AM 25.5°F-3.6°C -13.1°F-25.1°C 17% 7.6 mph NE12.2 kmh NE 18.3 mph29.5 kmh 30.05 in1017.6 mb 0.00 in0.0 mm 0.00 in/hr0.0 mm/hr 0.00 in0.0 mm
11:23 AM 25.0°F-3.9°C -13.6°F-25.3°C 17% 5.4 mph NE8.7 kmh NE 18.3 mph29.5 kmh 30.05 in1017.6 mb 0.00 in0.0 mm 0.00 in/hr0.0 mm/hr 0.00 in0.0 mm
11:22 AM 25.2°F-3.8°C -13.4°F-25.2°C 17% 7.6 mph NE12.2 kmh NE 18.3 mph29.5 kmh 30.05 in1017.6 mb 0.00 in0.0 mm 0.00 in/hr0.0 mm/hr 0.00 in0.0 mm
11:21 AM 25.0°F-3.9°C -13.6°F-25.3°C 17% 10.7 mph NE17.2 kmh NE 18.3 mph29.5 kmh 30.05 in1017.6 mb 0.00 in0.0 mm 0.00 in/hr0.0 mm/hr 0.00 in0.0 mm
11:20 AM 25.5°F-3.6°C -13.1°F-25.1°C 17% 10.7 mph NE17.2 kmh NE 18.3 mph29.5 kmh 30.05 in1017.6 mb 0.00 in0.0 mm 0.00 in/hr0.0 mm/hr 0.00 in0.0 mm
11:19 AM 25.0°F-3.9°C -13.6°F-25.3°C 17% 8.3 mph NE13.4 kmh NE 18.3 mph29.5 kmh 30.05 in1017.6 mb 0.00 in0.0 mm 0.00 in/hr0.0 mm/hr 0.00 in0.0 mm
11:18 AM 24.8°F-4.0°C -13.7°F-25.4°C 17% 9.2 mph NE14.8 kmh NE 18.3 mph29.5 kmh 30.05 in1017.6 mb 0.00 in0.0 mm 0.00 in/hr0.0 mm/hr 0.00 in0.0 mm
11:17 AM 24.6°F-4.1°C -12.7°F-24.8°C 18% 9.8 mph NE15.8 kmh NE 18.3 mph29.5 kmh 30.05 in1017.6 mb 0.00 in0.0 mm 0.00 in/hr0.0 mm/hr 0.00 in0.0 mm
11:16 AM 25.2°F-3.8°C -13.4°F-25.2°C 17% 12.1 mph NE19.5 kmh NE 17.4 mph28.0 kmh 30.05 in1017.6 mb 0.00 in0.0 mm 0.00 in/hr0.0 mm/hr 0.00 in0.0 mm
11:15 AM 25.0°F-3.9°C -13.6°F-25.3°C 17% 6.9 mph NE11.1 kmh NE 17.4 mph28.0 kmh 30.05 in1017.6 mb 0.00 in0.0 mm 0.00 in/hr0.0 mm/hr 0.00 in0.0 mm
11:14 AM 25.0°F-3.9°C -13.6°F-25.3°C 17% 6.9 mph NE11.1 kmh NE 17.4 mph28.0 kmh 30.05 in1017.6 mb 0.00 in0.0 mm 0.00 in/hr0.0 mm/hr 0.00 in0.0 mm
11:13 AM 24.8°F-4.0°C -13.7°F-25.4°C 17% 9.2 mph NE14.8 kmh NE 17.4 mph28.0 kmh 30.05 in1017.6 mb 0.00 in0.0 mm 0.00 in/hr0.0 mm/hr 0.00 in0.0 mm
11:12 AM 24.6°F-4.1°C -12.7°F-24.8°C 18% 9.2 mph NE14.8 kmh NE 17.4 mph28.0 kmh 30.05 in1017.6 mb 0.00 in0.0 mm 0.00 in/hr0.0 mm/hr 0.00 in0.0 mm
11:11 AM 24.8°F-4.0°C -13.7°F-25.4°C 17% 9.8 mph NNE15.8 kmh NNE 17.4 mph28.0 kmh 30.05 in1017.6 mb 0.00 in0.0 mm 0.00 in/hr0.0 mm/hr 0.00 in0.0 mm
11:10 AM 24.8°F-4.0°C -13.7°F-25.4°C 17% 10.7 mph NNE17.2 kmh NNE 19.0 mph30.6 kmh 30.05 in1017.6 mb 0.00 in0.0 mm 0.00 in/hr0.0 mm/hr 0.00 in0.0 mm
11:09 AM 24.8°F-4.0°C -13.7°F-25.4°C 17% 10.7 mph NNE17.2 kmh NNE 19.0 mph30.6 kmh 30.05 in1017.6 mb 0.00 in0.0 mm 0.00 in/hr0.0 mm/hr 0.00 in0.0 mm
11:08 AM 24.8°F-4.0°C -13.7°F-25.4°C 17% 8.3 mph N13.4 kmh N 19.0 mph30.6 kmh 30.05 in1017.6 mb 0.00 in0.0 mm 0.00 in/hr0.0 mm/hr 0.00 in0.0 mm
11:07 AM 24.8°F-4.0°C -13.7°F-25.4°C 17% 9.8 mph N15.8 kmh N 19.0 mph30.6 kmh 30.05 in1017.6 mb 0.00 in0.0 mm 0.00 in/hr0.0 mm/hr 0.00 in0.0 mm
11:06 AM 25.2°F-3.8°C -13.4°F-25.2°C 17% 6.0 mph N9.7 kmh N 19.0 mph30.6 kmh 30.05 in1017.6 mb 0.00 in0.0 mm 0.00 in/hr0.0 mm/hr 0.00 in0.0 mm
11:05 AM 25.0°F-3.9°C -13.6°F-25.3°C 17% 6.0 mph NNE9.7 kmh NNE 19.0 mph30.6 kmh 30.05 in1017.6 mb 0.00 in0.0 mm 0.00 in/hr0.0 mm/hr 0.00 in0.0 mm
11:04 AM 24.8°F-4.0°C -13.7°F-25.4°C 17% 7.6 mph NNE12.2 kmh NNE 19.0 mph30.6 kmh 30.05 in1017.6 mb 0.00 in0.0 mm 0.00 in/hr0.0 mm/hr 0.00 in0.0 mm
11:03 AM 24.8°F-4.0°C -13.7°F-25.4°C 17% 9.2 mph NNE14.8 kmh NNE 19.0 mph30.6 kmh 30.05 in1017.6 mb 0.00 in0.0 mm 0.00 in/hr0.0 mm/hr 0.00 in0.0 mm
11:02 AM 24.3°F-4.3°C -13.0°F-25.0°C 18% 8.3 mph NNE13.4 kmh NNE 19.0 mph30.6 kmh 30.05 in1017.6 mb 0.00 in0.0 mm 0.00 in/hr0.0 mm/hr 0.00 in0.0 mm
11:01 AM 24.6°F-4.1°C -12.7°F-24.8°C 18% 10.7 mph NNE17.2 kmh NNE 19.0 mph30.6 kmh 30.05 in1017.6 mb 0.00 in0.0 mm 0.00 in/hr0.0 mm/hr 0.00 in0.0 mm
11:00 AM 24.4°F-4.2°C -12.9°F-24.9°C 18% 10.7 mph NNE17.2 kmh NNE 19.0 mph30.6 kmh 30.05 in1017.6 mb 0.00 in0.0 mm 0.00 in/hr0.0 mm/hr 0.00 in0.0 mm
10:59 AM 24.8°F-4.0°C -13.7°F-25.4°C 17% 9.8 mph NNE15.8 kmh NNE 15.9 mph25.6 kmh 30.05 in1017.6 mb 0.00 in0.0 mm 0.00 in/hr0.0 mm/hr 0.00 in0.0 mm
10:58 AM 25.2°F-3.8°C -13.4°F-25.2°C 17% 4.5 mph NNE7.2 kmh NNE 15.9 mph25.6 kmh 30.05 in1017.6 mb 0.00 in0.0 mm 0.00 in/hr0.0 mm/hr 0.00 in0.0 mm
10:57 AM 24.3°F-4.3°C -13.0°F-25.0°C 18% 9.2 mph NE14.8 kmh NE 15.9 mph25.6 kmh 30.05 in1017.6 mb 0.00 in0.0 mm 0.00 in/hr0.0 mm/hr 0.00 in0.0 mm
10:56 AM 24.3°F-4.3°C -13.0°F-25.0°C 18% 9.2 mph NE14.8 kmh NE 15.9 mph25.6 kmh 30.05 in1017.6 mb 0.00 in0.0 mm 0.00 in/hr0.0 mm/hr 0.00 in0.0 mm
10:55 AM 25.0°F-3.9°C -13.6°F-25.3°C 17% 9.8 mph NNE15.8 kmh NNE 18.3 mph29.5 kmh 30.05 in1017.6 mb 0.00 in0.0 mm 0.00 in/hr0.0 mm/hr 0.00 in0.0 mm
10:54 AM 25.2°F-3.8°C -13.4°F-25.2°C 17% 3.1 mph NNE5.0 kmh NNE 18.3 mph29.5 kmh 30.05 in1017.6 mb 0.00 in0.0 mm 0.00 in/hr0.0 mm/hr 0.00 in0.0 mm
10:53 AM 25.3°F-3.7°C -13.3°F-25.2°C 17% 6.0 mph NNE9.7 kmh NNE 18.3 mph29.5 kmh 30.05 in1017.6 mb 0.00 in0.0 mm 0.00 in/hr0.0 mm/hr 0.00 in0.0 mm
10:52 AM 25.3°F-3.7°C -13.3°F-25.2°C 17% 3.8 mph NE6.1 kmh NE 18.3 mph29.5 kmh 30.05 in1017.6 mb 0.00 in0.0 mm 0.00 in/hr0.0 mm/hr 0.00 in0.0 mm
10:51 AM 25.2°F-3.8°C -13.4°F-25.2°C 17% 5.4 mph NNE8.7 kmh NNE 18.3 mph29.5 kmh 30.05 in1017.6 mb 0.00 in0.0 mm 0.00 in/hr0.0 mm/hr 0.00 in0.0 mm
10:50 AM 24.3°F-4.3°C -13.0°F-25.0°C 18% 3.8 mph NE6.1 kmh NE 18.3 mph29.5 kmh 30.05 in1017.6 mb 0.00 in0.0 mm 0.00 in/hr0.0 mm/hr 0.00 in0.0 mm
10:49 AM 24.3°F-4.3°C -13.0°F-25.0°C 18% 8.3 mph NE13.4 kmh NE 18.3 mph29.5 kmh 30.05 in1017.6 mb 0.00 in0.0 mm 0.00 in/hr0.0 mm/hr 0.00 in0.0 mm
10:48 AM 24.3°F-4.3°C -13.0°F-25.0°C 18% 9.2 mph NE14.8 kmh NE 18.3 mph29.5 kmh 30.05 in1017.6 mb 0.00 in0.0 mm 0.00 in/hr0.0 mm/hr 0.00 in0.0 mm
10:47 AM 24.1°F-4.4°C -13.2°F-25.1°C 18% 7.6 mph NE12.2 kmh NE 18.3 mph29.5 kmh 30.05 in1017.6 mb 0.00 in0.0 mm 0.00 in/hr0.0 mm/hr 0.00 in0.0 mm
10:46 AM 23.9°F-4.5°C -13.3°F-25.2°C 18% 10.7 mph NE17.2 kmh NE 18.3 mph29.5 kmh 30.05 in1017.6 mb 0.00 in0.0 mm 0.00 in/hr0.0 mm/hr 0.00 in0.0 mm
10:45 AM 24.1°F-4.4°C -13.2°F-25.1°C 18% 11.4 mph NNE18.3 kmh NNE 18.3 mph29.5 kmh 30.05 in1017.6 mb 0.00 in0.0 mm 0.00 in/hr0.0 mm/hr 0.00 in0.0 mm
10:44 AM 24.1°F-4.4°C -13.2°F-25.1°C 18% 9.2 mph N14.8 kmh N 15.2 mph24.5 kmh 30.05 in1017.6 mb 0.00 in0.0 mm 0.00 in/hr0.0 mm/hr 0.00 in0.0 mm
10:43 AM 24.1°F-4.4°C -13.2°F-25.1°C 18% 7.6 mph N12.2 kmh N 15.2 mph24.5 kmh 30.05 in1017.6 mb 0.00 in0.0 mm 0.00 in/hr0.0 mm/hr 0.00 in0.0 mm
10:42 AM 23.9°F-4.5°C -13.3°F-25.2°C 18% 7.6 mph N12.2 kmh N 15.2 mph24.5 kmh 30.05 in1017.6 mb 0.00 in0.0 mm 0.00 in/hr0.0 mm/hr 0.00 in0.0 mm
10:41 AM 24.1°F-4.4°C -13.2°F-25.1°C 18% 9.2 mph N14.8 kmh N 15.2 mph24.5 kmh 30.05 in1017.6 mb 0.00 in0.0 mm 0.00 in/hr0.0 mm/hr 0.00 in0.0 mm
10:40 AM 24.3°F-4.3°C -13.0°F-25.0°C 18% 7.6 mph N12.2 kmh N 15.2 mph24.5 kmh 30.05 in1017.6 mb 0.00 in0.0 mm 0.00 in/hr0.0 mm/hr 0.00 in0.0 mm
10:39 AM 24.1°F-4.4°C -13.2°F-25.1°C 18% 6.0 mph NNE9.7 kmh NNE 15.2 mph24.5 kmh 30.05 in1017.6 mb 0.00 in0.0 mm 0.00 in/hr0.0 mm/hr 0.00 in0.0 mm
10:38 AM 23.7°F-4.6°C -13.5°F-25.3°C 18% 5.4 mph NNE8.7 kmh NNE 14.5 mph23.3 kmh 30.05 in1017.6 mb 0.00 in0.0 mm 0.00 in/hr0.0 mm/hr 0.00 in0.0 mm
10:37 AM 23.7°F-4.6°C -13.5°F-25.3°C 18% 9.8 mph NE15.8 kmh NE 14.5 mph23.3 kmh 30.05 in1017.6 mb 0.00 in0.0 mm 0.00 in/hr0.0 mm/hr 0.00 in0.0 mm
10:36 AM 23.7°F-4.6°C -13.5°F-25.3°C 18% 9.8 mph NE15.8 kmh NE 14.5 mph23.3 kmh 30.05 in1017.6 mb 0.00 in0.0 mm 0.00 in/hr0.0 mm/hr 0.00 in0.0 mm
10:35 AM 23.7°F-4.6°C -13.5°F-25.3°C 18% 9.8 mph NE15.8 kmh NE 14.5 mph23.3 kmh 30.05 in1017.6 mb 0.00 in0.0 mm 0.00 in/hr0.0 mm/hr 0.00 in0.0 mm
10:34 AM 23.9°F-4.5°C -13.3°F-25.2°C 18% 9.2 mph NE14.8 kmh NE 14.5 mph23.3 kmh 30.05 in1017.6 mb 0.00 in0.0 mm 0.00 in/hr0.0 mm/hr 0.00 in0.0 mm
10:33 AM 23.9°F-4.5°C -13.3°F-25.2°C 18% 9.2 mph NE14.8 kmh NE 14.5 mph23.3 kmh 30.05 in1017.6 mb 0.00 in0.0 mm 0.00 in/hr0.0 mm/hr 0.00 in0.0 mm
10:32 AM 23.9°F-4.5°C -13.3°F-25.2°C 18% 9.2 mph NE14.8 kmh NE 14.5 mph23.3 kmh 30.05 in1017.6 mb 0.00 in0.0 mm 0.00 in/hr0.0 mm/hr 0.00 in0.0 mm
10:31 AM 23.5°F-4.7°C -13.6°F-25.3°C 18% 6.0 mph NE9.7 kmh NE 14.5 mph23.3 kmh 30.05 in1017.6 mb 0.00 in0.0 mm 0.00 in/hr0.0 mm/hr 0.00 in0.0 mm
10:30 AM 23.0°F-5.0°C -14.1°F-25.6°C 18% 9.2 mph NE14.8 kmh NE 14.5 mph23.3 kmh 30.05 in1017.6 mb 0.00 in0.0 mm 0.00 in/hr0.0 mm/hr 0.00 in0.0 mm
10:29 AM 23.0°F-5.0°C -14.1°F-25.6°C 18% 9.2 mph NE14.8 kmh NE 14.5 mph23.3 kmh 30.05 in1017.6 mb 0.00 in0.0 mm 0.00 in/hr0.0 mm/hr 0.00 in0.0 mm
10:28 AM 23.0°F-5.0°C -14.1°F-25.6°C 18% 9.2 mph NE14.8 kmh NE 14.5 mph23.3 kmh 30.05 in1017.6 mb 0.00 in0.0 mm 0.00 in/hr0.0 mm/hr 0.00 in0.0 mm
10:27 AM 23.0°F-5.0°C -14.1°F-25.6°C 18% 9.2 mph NE14.8 kmh NE 14.5 mph23.3 kmh 30.05 in1017.6 mb 0.00 in0.0 mm 0.00 in/hr0.0 mm/hr 0.00 in0.0 mm
10:26 AM 23.0°F-5.0°C -14.1°F-25.6°C 18% 9.2 mph NE14.8 kmh NE 14.5 mph23.3 kmh 30.05 in1017.6 mb 0.00 in0.0 mm 0.00 in/hr0.0 mm/hr 0.00 in0.0 mm
10:25 AM 24.1°F-4.4°C -13.2°F-25.1°C 18% 9.8 mph NE15.8 kmh NE 14.5 mph23.3 kmh 30.05 in1017.6 mb 0.00 in0.0 mm 0.00 in/hr0.0 mm/hr 0.00 in0.0 mm
10:24 AM 23.9°F-4.5°C -13.3°F-25.2°C 18% 5.4 mph NE8.7 kmh NE 13.0 mph20.9 kmh 30.05 in1017.6 mb 0.00 in0.0 mm 0.00 in/hr0.0 mm/hr 0.00 in0.0 mm
10:23 AM 23.5°F-4.7°C -13.6°F-25.3°C 18% 6.9 mph ENE11.1 kmh ENE 13.0 mph20.9 kmh 30.05 in1017.6 mb 0.00 in0.0 mm 0.00 in/hr0.0 mm/hr 0.00 in0.0 mm
10:22 AM 23.4°F-4.8°C -13.8°F-25.4°C 18% 7.6 mph ENE12.2 kmh ENE 13.0 mph20.9 kmh 30.05 in1017.6 mb 0.00 in0.0 mm 0.00 in/hr0.0 mm/hr 0.00 in0.0 mm
10:21 AM 22.3°F-5.4°C -11.6°F-24.2°C 21% 6.9 mph ENE11.1 kmh ENE 9.2 mph14.8 kmh 30.05 in1017.6 mb 0.00 in0.0 mm 0.00 in/hr0.0 mm/hr 0.00 in0.0 mm
10:20 AM 22.3°F-5.4°C -11.6°F-24.2°C 21% 6.9 mph ENE11.1 kmh ENE 9.2 mph14.8 kmh 30.05 in1017.6 mb 0.00 in0.0 mm 0.00 in/hr0.0 mm/hr 0.00 in0.0 mm
10:19 AM 22.3°F-5.4°C -11.6°F-24.2°C 21% 6.9 mph ENE11.1 kmh ENE 9.2 mph14.8 kmh 30.05 in1017.6 mb 0.00 in0.0 mm 0.00 in/hr0.0 mm/hr 0.00 in0.0 mm
10:18 AM 22.3°F-5.4°C -11.6°F-24.2°C 21% 6.9 mph ENE11.1 kmh ENE 9.2 mph14.8 kmh 30.05 in1017.6 mb 0.00 in0.0 mm 0.00 in/hr0.0 mm/hr 0.00 in0.0 mm
10:17 AM 22.3°F-5.4°C -11.6°F-24.2°C 21% 6.9 mph ENE11.1 kmh ENE 9.2 mph14.8 kmh 30.05 in1017.6 mb 0.00 in0.0 mm 0.00 in/hr0.0 mm/hr 0.00 in0.0 mm
10:16 AM 22.3°F-5.4°C -11.6°F-24.2°C 21% 6.9 mph ENE11.1 kmh ENE 9.2 mph14.8 kmh 30.05 in1017.6 mb 0.00 in0.0 mm 0.00 in/hr0.0 mm/hr 0.00 in0.0 mm
10:15 AM 22.3°F-5.4°C -11.6°F-24.2°C 21% 6.9 mph ENE11.1 kmh ENE 9.2 mph14.8 kmh 30.05 in1017.6 mb 0.00 in0.0 mm 0.00 in/hr0.0 mm/hr 0.00 in0.0 mm
10:14 AM 22.3°F-5.4°C -11.6°F-24.2°C 21% 6.9 mph ENE11.1 kmh ENE 9.2 mph14.8 kmh 30.04 in1017.3 mb 0.00 in0.0 mm 0.00 in/hr0.0 mm/hr 0.00 in0.0 mm
10:13 AM 22.3°F-5.4°C -11.6°F-24.2°C 21% 6.9 mph ENE11.1 kmh ENE 9.2 mph14.8 kmh 30.05 in1017.6 mb 0.00 in0.0 mm 0.00 in/hr0.0 mm/hr 0.00 in0.0 mm
10:12 AM 22.3°F-5.4°C -11.6°F-24.2°C 21% 6.9 mph ENE11.1 kmh ENE 9.2 mph14.8 kmh 30.04 in1017.3 mb 0.00 in0.0 mm 0.00 in/hr0.0 mm/hr 0.00 in0.0 mm
10:11 AM 22.3°F-5.4°C -11.6°F-24.2°C 21% 6.9 mph ENE11.1 kmh ENE 9.2 mph14.8 kmh 30.05 in1017.6 mb 0.00 in0.0 mm 0.00 in/hr0.0 mm/hr 0.00 in0.0 mm
10:10 AM 22.3°F-5.4°C -11.6°F-24.2°C 21% 6.9 mph ENE11.1 kmh ENE 9.2 mph14.8 kmh 30.05 in1017.6 mb 0.00 in0.0 mm 0.00 in/hr0.0 mm/hr 0.00 in0.0 mm
10:09 AM 22.3°F-5.4°C -11.6°F-24.2°C 21% 6.9 mph ENE11.1 kmh ENE 9.2 mph14.8 kmh 30.05 in1017.6 mb 0.00 in0.0 mm 0.00 in/hr0.0 mm/hr 0.00 in0.0 mm
10:08 AM 22.3°F-5.4°C -11.6°F-24.2°C 21% 6.9 mph ENE11.1 kmh ENE 9.2 mph14.8 kmh 30.05 in1017.6 mb 0.00 in0.0 mm 0.00 in/hr0.0 mm/hr 0.00 in0.0 mm
10:07 AM 22.3°F-5.4°C -11.6°F-24.2°C 21% 6.9 mph ENE11.1 kmh ENE 9.2 mph14.8 kmh 30.05 in1017.6 mb 0.00 in0.0 mm 0.00 in/hr0.0 mm/hr 0.00 in0.0 mm
10:06 AM 22.3°F-5.4°C -11.6°F-24.2°C 21% 6.9 mph ENE11.1 kmh ENE 9.2 mph14.8 kmh 30.05 in1017.6 mb 0.00 in0.0 mm 0.00 in/hr0.0 mm/hr 0.00 in0.0 mm
10:05 AM 22.3°F-5.4°C -11.6°F-24.2°C 21% 6.9 mph ENE11.1 kmh ENE 9.2 mph14.8 kmh 30.04 in1017.3 mb 0.00 in0.0 mm 0.00 in/hr0.0 mm/hr 0.00 in0.0 mm
10:04 AM 22.3°F-5.4°C -11.6°F-24.2°C 21% 6.9 mph ENE11.1 kmh ENE 15.9 mph25.6 kmh 30.04 in1017.3 mb 0.00 in0.0 mm 0.00 in/hr0.0 mm/hr 0.00 in0.0 mm
10:03 AM 22.3°F-5.4°C -11.6°F-24.2°C 21% 6.9 mph ENE11.1 kmh ENE 15.9 mph25.6 kmh 30.04 in1017.3 mb 0.00 in0.0 mm 0.00 in/hr0.0 mm/hr 0.00 in0.0 mm
10:02 AM 22.3°F-5.4°C -11.6°F-24.2°C 21% 6.9 mph ENE11.1 kmh ENE 15.9 mph25.6 kmh 30.04 in1017.3 mb 0.00 in0.0 mm 0.00 in/hr0.0 mm/hr 0.00 in0.0 mm
10:01 AM 22.3°F-5.4°C -11.6°F-24.2°C 21% 6.9 mph ENE11.1 kmh ENE 15.9 mph25.6 kmh 30.05 in1017.6 mb 0.00 in0.0 mm 0.00 in/hr0.0 mm/hr 0.00 in0.0 mm
10:00 AM 22.3°F-5.4°C -11.6°F-24.2°C 21% 6.9 mph ENE11.1 kmh ENE 15.9 mph25.6 kmh 30.05 in1017.6 mb 0.00 in0.0 mm 0.00 in/hr0.0 mm/hr 0.00 in0.0 mm
09:59 AM 22.3°F-5.4°C -11.6°F-24.2°C 21% 6.9 mph ENE11.1 kmh ENE 15.9 mph25.6 kmh 30.05 in1017.6 mb 0.00 in0.0 mm 0.00 in/hr0.0 mm/hr 0.00 in0.0 mm
09:58 AM 22.3°F-5.4°C -11.6°F-24.2°C 21% 6.9 mph ENE11.1 kmh ENE 15.9 mph25.6 kmh 30.04 in1017.3 mb 0.00 in0.0 mm 0.00 in/hr0.0 mm/hr 0.00 in0.0 mm
09:57 AM 22.3°F-5.4°C -11.6°F-24.2°C 21% 6.9 mph ENE11.1 kmh ENE 15.9 mph25.6 kmh 30.05 in1017.6 mb 0.00 in0.0 mm 0.00 in/hr0.0 mm/hr 0.00 in0.0 mm
09:56 AM 22.3°F-5.4°C -11.6°F-24.2°C 21% 6.9 mph ENE11.1 kmh ENE 15.9 mph25.6 kmh 30.05 in1017.6 mb 0.00 in0.0 mm 0.00 in/hr0.0 mm/hr 0.00 in0.0 mm
09:55 AM 22.3°F-5.4°C -11.6°F-24.2°C 21% 6.9 mph ENE11.1 kmh ENE 15.9 mph25.6 kmh 30.04 in1017.3 mb 0.00 in0.0 mm 0.00 in/hr0.0 mm/hr 0.00 in0.0 mm
09:54 AM 22.1°F-5.5°C -11.8°F-24.3°C 21% 12.1 mph ENE19.5 kmh ENE 15.9 mph25.6 kmh 30.04 in1017.3 mb 0.00 in0.0 mm 0.00 in/hr0.0 mm/hr 0.00 in0.0 mm
09:53 AM 22.1°F-5.5°C -11.8°F-24.3°C 21% 12.1 mph ENE19.5 kmh ENE 15.9 mph25.6 kmh 30.04 in1017.3 mb 0.00 in0.0 mm 0.00 in/hr0.0 mm/hr 0.00 in0.0 mm
09:52 AM 22.1°F-5.5°C -11.8°F-24.3°C 21% 12.1 mph NE19.5 kmh NE 15.9 mph25.6 kmh 30.04 in1017.3 mb 0.00 in0.0 mm 0.00 in/hr0.0 mm/hr 0.00 in0.0 mm
09:51 AM 22.1°F-5.5°C -11.8°F-24.3°C 21% 12.1 mph NE19.5 kmh NE 16.8 mph27.0 kmh 30.04 in1017.3 mb 0.00 in0.0 mm 0.00 in/hr0.0 mm/hr 0.00 in0.0 mm
09:50 AM 21.9°F-5.6°C -11.9°F-24.4°C 21% 6.0 mph NE9.7 kmh NE 17.4 mph28.0 kmh 30.04 in1017.3 mb 0.00 in0.0 mm 0.00 in/hr0.0 mm/hr 0.00 in0.0 mm
09:49 AM 22.1°F-5.5°C -11.8°F-24.3°C 21% 9.2 mph NE14.8 kmh NE 25.9 mph41.7 kmh 30.04 in1017.3 mb 0.00 in0.0 mm 0.00 in/hr0.0 mm/hr 0.00 in0.0 mm
09:48 AM 22.1°F-5.5°C -11.8°F-24.3°C 21% 9.2 mph ENE14.8 kmh ENE 25.9 mph41.7 kmh 30.04 in1017.3 mb 0.00 in0.0 mm 0.00 in/hr0.0 mm/hr 0.00 in0.0 mm
09:47 AM 22.5°F-5.3°C -11.5°F-24.2°C 21% 9.2 mph ENE14.8 kmh ENE 25.9 mph41.7 kmh 30.04 in1017.3 mb 0.00 in0.0 mm 0.00 in/hr0.0 mm/hr 0.00 in0.0 mm
09:46 AM 22.1°F-5.5°C -11.8°F-24.3°C 21% 7.6 mph ENE12.2 kmh ENE 25.9 mph41.7 kmh 30.04 in1017.3 mb 0.00 in0.0 mm 0.00 in/hr0.0 mm/hr 0.00 in0.0 mm
09:45 AM 22.1°F-5.5°C -11.8°F-24.3°C 21% 10.7 mph ENE17.2 kmh ENE 25.9 mph41.7 kmh 30.03 in1016.9 mb 0.00 in0.0 mm 0.00 in/hr0.0 mm/hr 0.00 in0.0 mm
09:44 AM 22.1°F-5.5°C -11.8°F-24.3°C 21% 7.6 mph ENE12.2 kmh ENE 25.9 mph41.7 kmh 30.03 in1016.9 mb 0.00 in0.0 mm 0.00 in/hr0.0 mm/hr 0.00 in0.0 mm
09:43 AM 21.9°F-5.6°C -11.9°F-24.4°C 21% 9.2 mph ENE14.8 kmh ENE 25.9 mph41.7 kmh 30.04 in1017.3 mb 0.00 in0.0 mm 0.00 in/hr0.0 mm/hr 0.00 in0.0 mm
09:42 AM 21.7°F-5.7°C -12.1°F-24.5°C 21% 9.8 mph NE15.8 kmh NE 25.9 mph41.7 kmh 30.03 in1016.9 mb 0.00 in0.0 mm 0.00 in/hr0.0 mm/hr 0.00 in0.0 mm
09:41 AM 21.7°F-5.7°C -12.1°F-24.5°C 21% 9.8 mph NE15.8 kmh NE 25.9 mph41.7 kmh 30.03 in1016.9 mb 0.00 in0.0 mm 0.00 in/hr0.0 mm/hr 0.00 in0.0 mm
09:40 AM 21.6°F-5.8°C -12.2°F-24.6°C 21% 10.7 mph NE17.2 kmh NE 28.2 mph45.4 kmh 30.03 in1016.9 mb 0.00 in0.0 mm 0.00 in/hr0.0 mm/hr 0.00 in0.0 mm
09:39 AM 21.7°F-5.7°C -12.1°F-24.5°C 21% 14.5 mph NE23.3 kmh NE 28.2 mph45.4 kmh 30.03 in1016.9 mb 0.00 in0.0 mm 0.00 in/hr0.0 mm/hr 0.00 in0.0 mm
09:38 AM 22.3°F-5.4°C -11.6°F-24.2°C 21% 13.0 mph N20.9 kmh N 28.2 mph45.4 kmh 30.03 in1016.9 mb 0.00 in0.0 mm 0.00 in/hr0.0 mm/hr 0.00 in0.0 mm
09:37 AM 21.9°F-5.6°C -11.9°F-24.4°C 21% 6.0 mph N9.7 kmh N 28.2 mph45.4 kmh 30.03 in1016.9 mb 0.00 in0.0 mm 0.00 in/hr0.0 mm/hr 0.00 in0.0 mm
09:36 AM 21.7°F-5.7°C -12.1°F-24.5°C 21% 5.4 mph N8.7 kmh N 28.2 mph45.4 kmh 30.03 in1016.9 mb 0.00 in0.0 mm 0.00 in/hr0.0 mm/hr 0.00 in0.0 mm
09:35 AM 21.7°F-5.7°C -12.1°F-24.5°C 21% 6.0 mph N9.7 kmh N 28.2 mph45.4 kmh 30.03 in1016.9 mb 0.00 in0.0 mm 0.00 in/hr0.0 mm/hr 0.00 in0.0 mm
09:34 AM 21.4°F-5.9°C -12.4°F-24.7°C 21% 5.4 mph N8.7 kmh N 28.2 mph45.4 kmh 30.02 in1016.6 mb 0.00 in0.0 mm 0.00 in/hr0.0 mm/hr 0.00 in0.0 mm
09:33 AM 21.4°F-5.9°C -12.4°F-24.7°C 21% 9.8 mph N15.8 kmh N 28.2 mph45.4 kmh 30.03 in1016.9 mb 0.00 in0.0 mm 0.00 in/hr0.0 mm/hr 0.00 in0.0 mm
09:32 AM 21.2°F-6.0°C -12.5°F-24.7°C 21% 8.3 mph N13.4 kmh N 28.2 mph45.4 kmh 30.02 in1016.6 mb 0.00 in0.0 mm 0.00 in/hr0.0 mm/hr 0.00 in0.0 mm
09:31 AM 21.0°F-6.1°C -11.8°F-24.3°C 22% 11.4 mph NNE18.3 kmh NNE 28.2 mph45.4 kmh 30.02 in1016.6 mb 0.00 in0.0 mm 0.00 in/hr0.0 mm/hr 0.00 in0.0 mm
09:30 AM 21.4°F-5.9°C -12.4°F-24.7°C 21% 7.6 mph NE12.2 kmh NE 19.0 mph30.6 kmh 30.03 in1016.9 mb 0.00 in0.0 mm 0.00 in/hr0.0 mm/hr 0.00 in0.0 mm
09:29 AM 21.2°F-6.0°C -12.5°F-24.7°C 21% 11.4 mph NE18.3 kmh NE 19.0 mph30.6 kmh 30.02 in1016.6 mb 0.00 in0.0 mm 0.00 in/hr0.0 mm/hr 0.00 in0.0 mm
09:28 AM 21.2°F-6.0°C -12.5°F-24.7°C 21% 6.9 mph NE11.1 kmh NE 19.0 mph30.6 kmh 30.02 in1016.6 mb 0.00 in0.0 mm 0.00 in/hr0.0 mm/hr 0.00 in0.0 mm
09:27 AM 21.0°F-6.1°C -11.8°F-24.3°C 22% 9.8 mph NE15.8 kmh NE 19.0 mph30.6 kmh 30.02 in1016.6 mb 0.00 in0.0 mm 0.00 in/hr0.0 mm/hr 0.00 in0.0 mm
09:26 AM 21.4°F-5.9°C -11.5°F-24.2°C 22% 13.6 mph NE21.9 kmh NE 19.0 mph30.6 kmh 30.02 in1016.6 mb 0.00 in0.0 mm 0.00 in/hr0.0 mm/hr 0.00 in0.0 mm
09:25 AM 21.2°F-6.0°C -12.5°F-24.7°C 21% 7.6 mph NE12.2 kmh NE 19.0 mph30.6 kmh 30.02 in1016.6 mb 0.00 in0.0 mm 0.00 in/hr0.0 mm/hr 0.00 in0.0 mm
09:24 AM 21.0°F-6.1°C -11.8°F-24.3°C 22% 8.3 mph NE13.4 kmh NE 19.0 mph30.6 kmh 30.02 in1016.6 mb 0.00 in0.0 mm 0.00 in/hr0.0 mm/hr 0.00 in0.0 mm
09:23 AM 20.8°F-6.2°C -11.0°F-23.9°C 23% 12.1 mph NE19.5 kmh NE 20.6 mph33.2 kmh 30.02 in1016.6 mb 0.00 in0.0 mm 0.00 in/hr0.0 mm/hr 0.00 in0.0 mm
09:22 AM 20.8°F-6.2°C -11.0°F-23.9°C 23% 8.3 mph NE13.4 kmh NE 20.6 mph33.2 kmh 30.02 in1016.6 mb 0.00 in0.0 mm 0.00 in/hr0.0 mm/hr 0.00 in0.0 mm
09:21 AM 21.2°F-6.0°C -11.6°F-24.2°C 22% 9.8 mph NE15.8 kmh NE 20.6 mph33.2 kmh 30.02 in1016.6 mb 0.00 in0.0 mm 0.00 in/hr0.0 mm/hr 0.00 in0.0 mm
09:20 AM 21.0°F-6.1°C -10.9°F-23.8°C 23% 7.6 mph NE12.2 kmh NE 20.6 mph33.2 kmh 30.02 in1016.6 mb 0.00 in0.0 mm 0.00 in/hr0.0 mm/hr 0.00 in0.0 mm
09:19 AM 21.0°F-6.1°C -10.9°F-23.8°C 23% 9.8 mph NE15.8 kmh NE 20.6 mph33.2 kmh 30.02 in1016.6 mb 0.00 in0.0 mm 0.00 in/hr0.0 mm/hr 0.00 in0.0 mm
09:18 AM 20.7°F-6.3°C -11.2°F-24.0°C 23% 8.3 mph NE13.4 kmh NE 20.6 mph33.2 kmh 30.02 in1016.6 mb 0.00 in0.0 mm 0.00 in/hr0.0 mm/hr 0.00 in0.0 mm
09:17 AM 20.7°F-6.3°C -11.2°F-24.0°C 23% 8.3 mph NE13.4 kmh NE 20.6 mph33.2 kmh 30.02 in1016.6 mb 0.00 in0.0 mm 0.00 in/hr0.0 mm/hr 0.00 in0.0 mm
09:16 AM 20.7°F-6.3°C -11.2°F-24.0°C 23% 13.0 mph NE20.9 kmh NE 20.6 mph33.2 kmh 30.02 in1016.6 mb 0.00 in0.0 mm 0.00 in/hr0.0 mm/hr 0.00 in0.0 mm
09:15 AM 20.7°F-6.3°C -12.1°F-24.5°C 22% 9.8 mph NE15.8 kmh NE 20.6 mph33.2 kmh 30.02 in1016.6 mb 0.00 in0.0 mm 0.00 in/hr0.0 mm/hr 0.00 in0.0 mm
09:14 AM 20.8°F-6.2°C -11.0°F-23.9°C 23% 13.0 mph NE20.9 kmh NE 20.6 mph33.2 kmh 30.02 in1016.6 mb 0.00 in0.0 mm 0.00 in/hr0.0 mm/hr 0.00 in0.0 mm
09:13 AM 20.8°F-6.2°C -11.0°F-23.9°C 23% 12.1 mph NE19.5 kmh NE 21.3 mph34.3 kmh 30.02 in1016.6 mb 0.00 in0.0 mm 0.00 in/hr0.0 mm/hr 0.00 in0.0 mm
09:12 AM 20.5°F-6.4°C -11.3°F-24.1°C 23% 6.9 mph NE11.1 kmh NE 21.3 mph34.3 kmh 30.01 in1016.3 mb 0.00 in0.0 mm 0.00 in/hr0.0 mm/hr 0.00 in0.0 mm
09:11 AM 20.5°F-6.4°C -11.3°F-24.1°C 23% 10.7 mph NE17.2 kmh NE 21.3 mph34.3 kmh 30.01 in1016.3 mb 0.00 in0.0 mm 0.00 in/hr0.0 mm/hr 0.00 in0.0 mm
09:10 AM 20.7°F-6.3°C -11.2°F-24.0°C 23% 8.3 mph NE13.4 kmh NE 21.3 mph34.3 kmh 30.01 in1016.3 mb 0.00 in0.0 mm 0.00 in/hr0.0 mm/hr 0.00 in0.0 mm
09:09 AM 20.5°F-6.4°C -11.3°F-24.1°C 23% 9.2 mph NE14.8 kmh NE 21.3 mph34.3 kmh 30.01 in1016.3 mb 0.00 in0.0 mm 0.00 in/hr0.0 mm/hr 0.00 in0.0 mm
09:08 AM 20.3°F-6.5°C -11.5°F-24.2°C 23% 9.8 mph NE15.8 kmh NE 22.1 mph35.6 kmh 30.01 in1016.3 mb 0.00 in0.0 mm 0.00 in/hr0.0 mm/hr 0.00 in0.0 mm
09:07 AM 20.7°F-6.3°C -11.2°F-24.0°C 23% 12.1 mph ENE19.5 kmh ENE 22.1 mph35.6 kmh 30.01 in1016.3 mb 0.00 in0.0 mm 0.00 in/hr0.0 mm/hr 0.00 in0.0 mm
09:06 AM 20.1°F-6.6°C -11.6°F-24.2°C 23% 12.1 mph ENE19.5 kmh ENE 22.1 mph35.6 kmh 30.01 in1016.3 mb 0.00 in0.0 mm 0.00 in/hr0.0 mm/hr 0.00 in0.0 mm
09:05 AM 20.5°F-6.4°C -11.3°F-24.1°C 23% 11.4 mph ENE18.3 kmh ENE 22.1 mph35.6 kmh 30.01 in1016.3 mb 0.00 in0.0 mm 0.00 in/hr0.0 mm/hr 0.00 in0.0 mm
09:04 AM 20.1°F-6.6°C -11.6°F-24.2°C 23% 9.2 mph ENE14.8 kmh ENE 22.1 mph35.6 kmh 30.01 in1016.3 mb 0.00 in0.0 mm 0.00 in/hr0.0 mm/hr 0.00 in0.0 mm
09:03 AM 20.1°F-6.6°C -11.6°F-24.2°C 23% 11.4 mph ENE18.3 kmh ENE 22.1 mph35.6 kmh 30.01 in1016.3 mb 0.00 in0.0 mm 0.00 in/hr0.0 mm/hr 0.00 in0.0 mm
09:02 AM 20.1°F-6.6°C -11.6°F-24.2°C 23% 10.7 mph ENE17.2 kmh ENE 22.1 mph35.6 kmh 30.01 in1016.3 mb 0.00 in0.0 mm 0.00 in/hr0.0 mm/hr 0.00 in0.0 mm
09:01 AM 20.1°F-6.6°C -11.6°F-24.2°C 23% 9.8 mph ENE15.8 kmh ENE 22.1 mph35.6 kmh 30.01 in1016.3 mb 0.00 in0.0 mm 0.00 in/hr0.0 mm/hr 0.00 in0.0 mm
09:00 AM 20.1°F-6.6°C -11.6°F-24.2°C 23% 9.8 mph E15.8 kmh E 22.1 mph35.6 kmh 30.01 in1016.3 mb 0.00 in0.0 mm 0.00 in/hr0.0 mm/hr 0.00 in0.0 mm
08:59 AM 20.1°F-6.6°C -11.6°F-24.2°C 23% 9.8 mph ENE15.8 kmh ENE 22.1 mph35.6 kmh 30.01 in1016.3 mb 0.00 in0.0 mm 0.00 in/hr0.0 mm/hr 0.00 in0.0 mm
08:58 AM 20.1°F-6.6°C -11.6°F-24.2°C 23% 6.9 mph E11.1 kmh E 18.3 mph29.5 kmh 30.01 in1016.3 mb 0.00 in0.0 mm 0.00 in/hr0.0 mm/hr 0.00 in0.0 mm
08:57 AM 19.9°F-6.7°C -11.8°F-24.3°C 23% 8.3 mph ENE13.4 kmh ENE 18.3 mph29.5 kmh 30.01 in1016.3 mb 0.00 in0.0 mm 0.00 in/hr0.0 mm/hr 0.00 in0.0 mm
08:56 AM 19.9°F-6.7°C -11.8°F-24.3°C 23% 13.6 mph ENE21.9 kmh ENE 18.3 mph29.5 kmh 30.01 in1016.3 mb 0.00 in0.0 mm 0.00 in/hr0.0 mm/hr 0.00 in0.0 mm
08:55 AM 19.9°F-6.7°C -11.8°F-24.3°C 23% 10.7 mph ENE17.2 kmh ENE 16.8 mph27.0 kmh 30.01 in1016.3 mb 0.00 in0.0 mm 0.00 in/hr0.0 mm/hr 0.00 in0.0 mm
08:54 AM 19.9°F-6.7°C -11.8°F-24.3°C 23% 12.1 mph ENE19.5 kmh ENE 16.8 mph27.0 kmh 30.00 in1015.9 mb 0.00 in0.0 mm 0.00 in/hr0.0 mm/hr 0.00 in0.0 mm
08:53 AM 19.8°F-6.8°C -11.9°F-24.4°C 23% 6.9 mph ENE11.1 kmh ENE 16.8 mph27.0 kmh 30.00 in1015.9 mb 0.00 in0.0 mm 0.00 in/hr0.0 mm/hr 0.00 in0.0 mm
08:52 AM 19.9°F-6.7°C -11.8°F-24.3°C 23% 10.7 mph E17.2 kmh E 16.8 mph27.0 kmh 30.00 in1015.9 mb 0.00 in0.0 mm 0.00 in/hr0.0 mm/hr 0.00 in0.0 mm
08:51 AM 19.9°F-6.7°C -10.1°F-23.4°C 25% 8.3 mph ENE13.4 kmh ENE 16.8 mph27.0 kmh 30.00 in1015.9 mb 0.00 in0.0 mm 0.00 in/hr0.0 mm/hr 0.00 in0.0 mm
08:50 AM 19.9°F-6.7°C -10.1°F-23.4°C 25% 5.4 mph ENE8.7 kmh ENE 19.7 mph31.7 kmh 30.00 in1015.9 mb 0.00 in0.0 mm 0.00 in/hr0.0 mm/hr 0.00 in0.0 mm
08:49 AM 19.8°F-6.8°C -10.3°F-23.5°C 25% 6.9 mph ENE11.1 kmh ENE 19.7 mph31.7 kmh 30.00 in1015.9 mb 0.00 in0.0 mm 0.00 in/hr0.0 mm/hr 0.00 in0.0 mm
08:48 AM 19.8°F-6.8°C -10.3°F-23.5°C 25% 7.6 mph ENE12.2 kmh ENE 19.7 mph31.7 kmh 30.00 in1015.9 mb 0.00 in0.0 mm 0.00 in/hr0.0 mm/hr 0.00 in0.0 mm
08:47 AM 19.8°F-6.8°C -11.9°F-24.4°C 23% 9.8 mph ENE15.8 kmh ENE 19.7 mph31.7 kmh 30.00 in1015.9 mb 0.00 in0.0 mm 0.00 in/hr0.0 mm/hr 0.00 in0.0 mm
08:46 AM 19.6°F-6.9°C -12.1°F-24.5°C 23% 5.4 mph ENE8.7 kmh ENE 19.7 mph31.7 kmh 30.00 in1015.9 mb 0.00 in0.0 mm 0.00 in/hr0.0 mm/hr 0.00 in0.0 mm
08:45 AM 19.6°F-6.9°C -12.1°F-24.5°C 23% 8.3 mph ENE13.4 kmh ENE 19.7 mph31.7 kmh 30.00 in1015.9 mb 0.00 in0.0 mm 0.00 in/hr0.0 mm/hr 0.00 in0.0 mm
08:44 AM 19.8°F-6.8°C -10.3°F-23.5°C 25% 9.8 mph ENE15.8 kmh ENE 19.7 mph31.7 kmh 30.00 in1015.9 mb 0.00 in0.0 mm 0.00 in/hr0.0 mm/hr 0.00 in0.0 mm
08:43 AM 19.8°F-6.8°C -10.3°F-23.5°C 25% 9.2 mph NE14.8 kmh NE 19.7 mph31.7 kmh 30.00 in1015.9 mb 0.00 in0.0 mm 0.00 in/hr0.0 mm/hr 0.00 in0.0 mm
08:42 AM 19.6°F-6.9°C -10.4°F-23.6°C 25% 6.9 mph NE11.1 kmh NE 19.7 mph31.7 kmh 30.00 in1015.9 mb 0.00 in0.0 mm 0.00 in/hr0.0 mm/hr 0.00 in0.0 mm
08:41 AM 19.4°F-7.0°C -10.6°F-23.7°C 25% 7.6 mph NE12.2 kmh NE 19.7 mph31.7 kmh 30.00 in1015.9 mb 0.00 in0.0 mm 0.00 in/hr0.0 mm/hr 0.00 in0.0 mm
08:40 AM 19.4°F-7.0°C -10.6°F-23.7°C 25% 11.4 mph NE18.3 kmh NE 19.7 mph31.7 kmh 30.00 in1015.9 mb 0.00 in0.0 mm 0.00 in/hr0.0 mm/hr 0.00 in0.0 mm
08:39 AM 19.6°F-6.9°C -10.4°F-23.6°C 25% 9.2 mph NE14.8 kmh NE 19.0 mph30.6 kmh 30.00 in1015.9 mb 0.00 in0.0 mm 0.00 in/hr0.0 mm/hr 0.00 in0.0 mm
08:38 AM 19.4°F-7.0°C -10.6°F-23.7°C 25% 13.0 mph NE20.9 kmh NE 19.0 mph30.6 kmh 29.99 in1015.6 mb 0.00 in0.0 mm 0.00 in/hr0.0 mm/hr 0.00 in0.0 mm
08:37 AM 19.4°F-7.0°C -10.6°F-23.7°C 25% 11.4 mph NE18.3 kmh NE 19.0 mph30.6 kmh 29.99 in1015.6 mb 0.00 in0.0 mm 0.00 in/hr0.0 mm/hr 0.00 in0.0 mm
08:36 AM 19.4°F-7.0°C -10.6°F-23.7°C 25% 7.6 mph NE12.2 kmh NE 18.3 mph29.5 kmh 30.00 in1015.9 mb 0.00 in0.0 mm 0.00 in/hr0.0 mm/hr 0.00 in0.0 mm
08:35 AM 19.2°F-7.1°C -15.2°F-26.2°C 20% 6.9 mph NNE11.1 kmh NNE 18.3 mph29.5 kmh 29.99 in1015.6 mb 0.00 in0.0 mm 0.00 in/hr0.0 mm/hr 0.00 in0.0 mm
08:34 AM 19.4°F-7.0°C -10.6°F-23.7°C 25% 6.0 mph NNE9.7 kmh NNE 14.5 mph23.3 kmh 29.99 in1015.6 mb 0.00 in0.0 mm 0.00 in/hr0.0 mm/hr 0.00 in0.0 mm
08:33 AM 19.2°F-7.1°C -15.2°F-26.2°C 20% 6.9 mph NNE11.1 kmh NNE 14.5 mph23.3 kmh 29.99 in1015.6 mb 0.00 in0.0 mm 0.00 in/hr0.0 mm/hr 0.00 in0.0 mm
08:32 AM 19.4°F-7.0°C -10.6°F-23.7°C 25% 5.4 mph NE8.7 kmh NE 14.5 mph23.3 kmh 29.99 in1015.6 mb 0.00 in0.0 mm 0.00 in/hr0.0 mm/hr 0.00 in0.0 mm
08:31 AM 19.2°F-7.1°C -15.2°F-26.2°C 20% 3.1 mph NE5.0 kmh NE 14.5 mph23.3 kmh 29.99 in1015.6 mb 0.00 in0.0 mm 0.00 in/hr0.0 mm/hr 0.00 in0.0 mm
08:30 AM 19.0°F-7.2°C -15.3°F-26.3°C 20% 9.2 mph NNE14.8 kmh NNE 14.5 mph23.3 kmh 29.99 in1015.6 mb 0.00 in0.0 mm 0.00 in/hr0.0 mm/hr 0.00 in0.0 mm
08:29 AM 19.2°F-7.1°C -15.2°F-26.2°C 20% 9.2 mph NNE14.8 kmh NNE 14.5 mph23.3 kmh 29.99 in1015.6 mb 0.00 in0.0 mm 0.00 in/hr0.0 mm/hr 0.00 in0.0 mm
08:28 AM 19.2°F-7.1°C -15.2°F-26.2°C 20% 7.6 mph N12.2 kmh N 14.5 mph23.3 kmh 29.99 in1015.6 mb 0.00 in0.0 mm 0.00 in/hr0.0 mm/hr 0.00 in0.0 mm
08:27 AM 19.2°F-7.1°C -15.2°F-26.2°C 20% 6.0 mph NNE9.7 kmh NNE 19.7 mph31.7 kmh 29.99 in1015.6 mb 0.00 in0.0 mm 0.00 in/hr0.0 mm/hr 0.00 in0.0 mm
08:26 AM 19.2°F-7.1°C -15.2°F-26.2°C 20% 10.7 mph NE17.2 kmh NE 19.7 mph31.7 kmh 29.99 in1015.6 mb 0.00 in0.0 mm 0.00 in/hr0.0 mm/hr 0.00 in0.0 mm
08:25 AM 19.0°F-7.2°C -15.3°F-26.3°C 20% 5.4 mph NE8.7 kmh NE 19.7 mph31.7 kmh 29.98 in1015.2 mb 0.00 in0.0 mm 0.00 in/hr0.0 mm/hr 0.00 in0.0 mm
08:24 AM 19.0°F-7.2°C -15.3°F-26.3°C 20% 8.3 mph NE13.4 kmh NE 25.1 mph40.4 kmh 29.99 in1015.6 mb 0.00 in0.0 mm 0.00 in/hr0.0 mm/hr 0.00 in0.0 mm
08:23 AM 18.9°F-7.3°C -15.5°F-26.4°C 20% 4.5 mph NE7.2 kmh NE 25.1 mph40.4 kmh 29.98 in1015.2 mb 0.00 in0.0 mm 0.00 in/hr0.0 mm/hr 0.00 in0.0 mm
08:22 AM 18.9°F-7.3°C -15.5°F-26.4°C 20% 6.9 mph NE11.1 kmh NE 25.1 mph40.4 kmh 29.99 in1015.6 mb 0.00 in0.0 mm 0.00 in/hr0.0 mm/hr 0.00 in0.0 mm
08:21 AM 18.9°F-7.3°C -15.5°F-26.4°C 20% 10.7 mph NE17.2 kmh NE 25.1 mph40.4 kmh 29.98 in1015.2 mb 0.00 in0.0 mm 0.00 in/hr0.0 mm/hr 0.00 in0.0 mm
08:20 AM 18.9°F-7.3°C -15.5°F-26.4°C 20% 8.3 mph NE13.4 kmh NE 25.1 mph40.4 kmh 29.98 in1015.2 mb 0.00 in0.0 mm 0.00 in/hr0.0 mm/hr 0.00 in0.0 mm
08:19 AM 18.9°F-7.3°C -15.5°F-26.4°C 20% 5.4 mph NE8.7 kmh NE 25.1 mph40.4 kmh 29.98 in1015.2 mb 0.00 in0.0 mm 0.00 in/hr0.0 mm/hr 0.00 in0.0 mm
08:18 AM 18.9°F-7.3°C -15.5°F-26.4°C 20% 5.4 mph NE8.7 kmh NE 25.1 mph40.4 kmh 29.98 in1015.2 mb 0.00 in0.0 mm 0.00 in/hr0.0 mm/hr 0.00 in0.0 mm
08:17 AM 18.7°F-7.4°C -15.6°F-26.4°C 20% 13.0 mph NE20.9 kmh NE 25.1 mph40.4 kmh 29.98 in1015.2 mb 0.00 in0.0 mm 0.00 in/hr0.0 mm/hr 0.00 in0.0 mm
08:16 AM 18.7°F-7.4°C -15.6°F-26.4°C 20% 6.9 mph NE11.1 kmh NE 25.1 mph40.4 kmh 29.98 in1015.2 mb 0.00 in0.0 mm 0.00 in/hr0.0 mm/hr 0.00 in0.0 mm
08:15 AM 18.5°F-7.5°C -15.8°F-26.6°C 20% 10.7 mph NE17.2 kmh NE 25.1 mph40.4 kmh 29.98 in1015.2 mb 0.00 in0.0 mm 0.00 in/hr0.0 mm/hr 0.00 in0.0 mm
08:14 AM 18.3°F-7.6°C -15.9°F-26.6°C 20% 9.8 mph NE15.8 kmh NE 19.0 mph30.6 kmh 29.98 in1015.2 mb 0.00 in0.0 mm 0.00 in/hr0.0 mm/hr 0.00 in0.0 mm
08:13 AM 18.5°F-7.5°C -15.8°F-26.6°C 20% 8.3 mph NE13.4 kmh NE 19.0 mph30.6 kmh 29.98 in1015.2 mb 0.00 in0.0 mm 0.00 in/hr0.0 mm/hr 0.00 in0.0 mm
08:12 AM 18.3°F-7.6°C -15.9°F-26.6°C 20% 9.8 mph NNE15.8 kmh NNE 19.0 mph30.6 kmh 29.98 in1015.2 mb 0.00 in0.0 mm 0.00 in/hr0.0 mm/hr 0.00 in0.0 mm
08:11 AM 18.3°F-7.6°C -15.9°F-26.6°C 20% 7.6 mph NNE12.2 kmh NNE 19.0 mph30.6 kmh 29.98 in1015.2 mb 0.00 in0.0 mm 0.00 in/hr0.0 mm/hr 0.00 in0.0 mm
08:10 AM 18.1°F-7.7°C -15.1°F-26.2°C 21% 14.5 mph NE23.3 kmh NE 19.0 mph30.6 kmh 29.98 in1015.2 mb 0.00 in0.0 mm 0.00 in/hr0.0 mm/hr 0.00 in0.0 mm
08:09 AM 18.1°F-7.7°C -16.1°F-26.7°C 20% 5.4 mph NE8.7 kmh NE 19.0 mph30.6 kmh 29.98 in1015.2 mb 0.00 in0.0 mm 0.00 in/hr0.0 mm/hr 0.00 in0.0 mm
08:08 AM 18.3°F-7.6°C -15.0°F-26.1°C 21% 6.9 mph NE11.1 kmh NE 19.0 mph30.6 kmh 29.98 in1015.2 mb 0.00 in0.0 mm 0.00 in/hr0.0 mm/hr 0.00 in0.0 mm
08:07 AM 18.1°F-7.7°C -15.1°F-26.2°C 21% 5.4 mph NE8.7 kmh NE 19.0 mph30.6 kmh 29.98 in1015.2 mb 0.00 in0.0 mm 0.00 in/hr0.0 mm/hr 0.00 in0.0 mm
08:06 AM 17.8°F-7.9°C -15.4°F-26.3°C 21% 7.6 mph NE12.2 kmh NE 19.0 mph30.6 kmh 29.98 in1015.2 mb 0.00 in0.0 mm 0.00 in/hr0.0 mm/hr 0.00 in0.0 mm
08:05 AM 17.6°F-8.0°C -15.6°F-26.4°C 21% 6.0 mph NE9.7 kmh NE 19.0 mph30.6 kmh 29.98 in1015.2 mb 0.00 in0.0 mm 0.00 in/hr0.0 mm/hr 0.00 in0.0 mm
08:04 AM 17.8°F-7.9°C -15.4°F-26.3°C 21% 3.8 mph NE6.1 kmh NE 19.0 mph30.6 kmh 29.98 in1015.2 mb 0.00 in0.0 mm 0.00 in/hr0.0 mm/hr 0.00 in0.0 mm
08:03 AM 17.8°F-7.9°C -15.4°F-26.3°C 21% 5.4 mph NE8.7 kmh NE 19.0 mph30.6 kmh 29.98 in1015.2 mb 0.00 in0.0 mm 0.00 in/hr0.0 mm/hr 0.00 in0.0 mm
08:02 AM 17.6°F-8.0°C -15.6°F-26.4°C 21% 5.4 mph NE8.7 kmh NE 19.0 mph30.6 kmh 29.98 in1015.2 mb 0.00 in0.0 mm 0.00 in/hr0.0 mm/hr 0.00 in0.0 mm
08:01 AM 17.8°F-7.9°C -15.4°F-26.3°C 21% 6.9 mph NE11.1 kmh NE 19.0 mph30.6 kmh 29.98 in1015.2 mb 0.00 in0.0 mm 0.00 in/hr0.0 mm/hr 0.00 in0.0 mm
08:00 AM 17.8°F-7.9°C -15.4°F-26.3°C 21% 6.9 mph NE11.1 kmh NE 19.7 mph31.7 kmh 29.98 in1015.2 mb 0.00 in0.0 mm 0.00 in/hr0.0 mm/hr 0.00 in0.0 mm
07:59 AM 17.6°F-8.0°C -15.6°F-26.4°C 21% 7.6 mph NE12.2 kmh NE 19.7 mph31.7 kmh 29.98 in1015.2 mb 0.00 in0.0 mm 0.00 in/hr0.0 mm/hr 0.00 in0.0 mm
07:58 AM 17.6°F-8.0°C -15.6°F-26.4°C 21% 10.7 mph NE17.2 kmh NE 19.7 mph31.7 kmh 29.98 in1015.2 mb 0.00 in0.0 mm 0.00 in/hr0.0 mm/hr 0.00 in0.0 mm
07:57 AM 17.6°F-8.0°C -15.6°F-26.4°C 21% 6.9 mph NE11.1 kmh NE 19.7 mph31.7 kmh 29.98 in1015.2 mb 0.00 in0.0 mm 0.00 in/hr0.0 mm/hr 0.00 in0.0 mm
07:56 AM 17.6°F-8.0°C -15.6°F-26.4°C 21% 6.9 mph NE11.1 kmh NE 19.7 mph31.7 kmh 29.98 in1015.2 mb 0.00 in0.0 mm 0.00 in/hr0.0 mm/hr 0.00 in0.0 mm
07:55 AM 17.2°F-8.2°C -15.0°F-26.1°C 22% 9.2 mph NE14.8 kmh NE 19.7 mph31.7 kmh 29.98 in1015.2 mb 0.00 in0.0 mm 0.00 in/hr0.0 mm/hr 0.00 in0.0 mm
07:54 AM 17.6°F-8.0°C -16.5°F-26.9°C 20% 7.6 mph NE12.2 kmh NE 19.7 mph31.7 kmh 29.98 in1015.2 mb 0.00 in0.0 mm 0.00 in/hr0.0 mm/hr 0.00 in0.0 mm
07:53 AM 17.6°F-8.0°C -16.5°F-26.9°C 20% 7.6 mph NE12.2 kmh NE 19.7 mph31.7 kmh 29.98 in1015.2 mb 0.00 in0.0 mm 0.00 in/hr0.0 mm/hr 0.00 in0.0 mm
07:52 AM 17.8°F-7.9°C -16.4°F-26.9°C 20% 11.4 mph NE18.3 kmh NE 19.7 mph31.7 kmh 29.98 in1015.2 mb 0.00 in0.0 mm 0.00 in/hr0.0 mm/hr 0.00 in0.0 mm
07:51 AM 17.6°F-8.0°C -15.6°F-26.4°C 21% 11.4 mph NE18.3 kmh NE 19.7 mph31.7 kmh 29.98 in1015.2 mb 0.00 in0.0 mm 0.00 in/hr0.0 mm/hr 0.00 in0.0 mm
07:50 AM 17.6°F-8.0°C -15.6°F-26.4°C 21% 8.3 mph NE13.4 kmh NE 19.0 mph30.6 kmh 29.98 in1015.2 mb 0.00 in0.0 mm 0.00 in/hr0.0 mm/hr 0.00 in0.0 mm
07:49 AM 17.4°F-8.1°C -14.8°F-26.0°C 22% 8.3 mph NE13.4 kmh NE 19.0 mph30.6 kmh 29.98 in1015.2 mb 0.00 in0.0 mm 0.00 in/hr0.0 mm/hr 0.00 in0.0 mm
07:48 AM 17.4°F-8.1°C -14.8°F-26.0°C 22% 7.6 mph NE12.2 kmh NE 19.0 mph30.6 kmh 29.98 in1015.2 mb 0.00 in0.0 mm 0.00 in/hr0.0 mm/hr 0.00 in0.0 mm
07:47 AM 17.6°F-8.0°C -15.6°F-26.4°C 21% 7.6 mph NE12.2 kmh NE 19.0 mph30.6 kmh 29.98 in1015.2 mb 0.00 in0.0 mm 0.00 in/hr0.0 mm/hr 0.00 in0.0 mm
07:46 AM 17.4°F-8.1°C -14.8°F-26.0°C 22% 13.0 mph NE20.9 kmh NE 19.0 mph30.6 kmh 29.98 in1015.2 mb 0.00 in0.0 mm 0.00 in/hr0.0 mm/hr 0.00 in0.0 mm
07:45 AM 17.4°F-8.1°C -14.8°F-26.0°C 22% 10.7 mph NE17.2 kmh NE 18.3 mph29.5 kmh 29.98 in1015.2 mb 0.00 in0.0 mm 0.00 in/hr0.0 mm/hr 0.00 in0.0 mm
07:44 AM 17.2°F-8.2°C -15.0°F-26.1°C 22% 8.3 mph NE13.4 kmh NE 18.3 mph29.5 kmh 29.98 in1015.2 mb 0.00 in0.0 mm 0.00 in/hr0.0 mm/hr 0.00 in0.0 mm
07:43 AM 17.4°F-8.1°C -14.8°F-26.0°C 22% 6.9 mph ENE11.1 kmh ENE 18.3 mph29.5 kmh 29.97 in1014.9 mb 0.00 in0.0 mm 0.00 in/hr0.0 mm/hr 0.00 in0.0 mm
07:42 AM 17.2°F-8.2°C -15.0°F-26.1°C 22% 11.4 mph NE18.3 kmh NE 18.3 mph29.5 kmh 29.97 in1014.9 mb 0.00 in0.0 mm 0.00 in/hr0.0 mm/hr 0.00 in0.0 mm
07:41 AM 17.1°F-8.3°C -14.2°F-25.7°C 23% 9.2 mph NE14.8 kmh NE 15.2 mph24.5 kmh 29.97 in1014.9 mb 0.00 in0.0 mm 0.00 in/hr0.0 mm/hr 0.00 in0.0 mm
07:40 AM 17.1°F-8.3°C -15.1°F-26.2°C 22% 5.4 mph NE8.7 kmh NE 15.2 mph24.5 kmh 29.98 in1015.2 mb 0.00 in0.0 mm 0.00 in/hr0.0 mm/hr 0.00 in0.0 mm
07:39 AM 17.1°F-8.3°C -15.1°F-26.2°C 22% 6.9 mph NE11.1 kmh NE 15.2 mph24.5 kmh 29.97 in1014.9 mb 0.00 in0.0 mm 0.00 in/hr0.0 mm/hr 0.00 in0.0 mm
07:38 AM 17.4°F-8.1°C -14.8°F-26.0°C 22% 5.4 mph ENE8.7 kmh ENE 18.3 mph29.5 kmh 29.98 in1015.2 mb 0.00 in0.0 mm 0.00 in/hr0.0 mm/hr 0.00 in0.0 mm
07:37 AM 17.4°F-8.1°C -14.8°F-26.0°C 22% 12.1 mph NE19.5 kmh NE 18.3 mph29.5 kmh 29.97 in1014.9 mb 0.00 in0.0 mm 0.00 in/hr0.0 mm/hr 0.00 in0.0 mm
07:36 AM 17.2°F-8.2°C -15.0°F-26.1°C 22% 8.3 mph NE13.4 kmh NE 18.3 mph29.5 kmh 29.98 in1015.2 mb 0.00 in0.0 mm 0.00 in/hr0.0 mm/hr 0.00 in0.0 mm
07:35 AM 17.1°F-8.3°C -15.1°F-26.2°C 22% 8.3 mph NE13.4 kmh NE 18.3 mph29.5 kmh 29.97 in1014.9 mb 0.00 in0.0 mm 0.00 in/hr0.0 mm/hr 0.00 in0.0 mm
07:34 AM 17.1°F-8.3°C -15.1°F-26.2°C 22% 6.9 mph NE11.1 kmh NE 18.3 mph29.5 kmh 29.97 in1014.9 mb 0.00 in0.0 mm 0.00 in/hr0.0 mm/hr 0.00 in0.0 mm
07:33 AM 17.2°F-8.2°C -15.0°F-26.1°C 22% 6.9 mph NE11.1 kmh NE 18.3 mph29.5 kmh 29.97 in1014.9 mb 0.00 in0.0 mm 0.00 in/hr0.0 mm/hr 0.00 in0.0 mm
07:32 AM 17.2°F-8.2°C -15.0°F-26.1°C 22% 7.6 mph NE12.2 kmh NE 18.3 mph29.5 kmh 29.97 in1014.9 mb 0.00 in0.0 mm 0.00 in/hr0.0 mm/hr 0.00 in0.0 mm
07:31 AM 17.1°F-8.3°C -15.1°F-26.2°C 22% 6.9 mph NE11.1 kmh NE 18.3 mph29.5 kmh 29.97 in1014.9 mb 0.00 in0.0 mm 0.00 in/hr0.0 mm/hr 0.00 in0.0 mm
07:30 AM 17.4°F-8.1°C -14.8°F-26.0°C 22% 6.0 mph NE9.7 kmh NE 18.3 mph29.5 kmh 29.97 in1014.9 mb 0.00 in0.0 mm 0.00 in/hr0.0 mm/hr 0.00 in0.0 mm
07:29 AM 17.4°F-8.1°C -14.8°F-26.0°C 22% 8.3 mph NE13.4 kmh NE 18.3 mph29.5 kmh 29.97 in1014.9 mb 0.00 in0.0 mm 0.00 in/hr0.0 mm/hr 0.00 in0.0 mm
07:28 AM 17.2°F-8.2°C -15.0°F-26.1°C 22% 9.2 mph NE14.8 kmh NE 18.3 mph29.5 kmh 29.97 in1014.9 mb 0.00 in0.0 mm 0.00 in/hr0.0 mm/hr 0.00 in0.0 mm
07:27 AM 17.2°F-8.2°C -15.0°F-26.1°C 22% 9.2 mph NE14.8 kmh NE 18.3 mph29.5 kmh 29.97 in1014.9 mb 0.00 in0.0 mm 0.00 in/hr0.0 mm/hr 0.00 in0.0 mm
07:26 AM 17.4°F-8.1°C -14.8°F-26.0°C 22% 6.9 mph NE11.1 kmh NE 18.3 mph29.5 kmh 29.96 in1014.6 mb 0.00 in0.0 mm 0.00 in/hr0.0 mm/hr 0.00 in0.0 mm
07:25 AM 17.8°F-7.9°C -15.4°F-26.3°C 21% 9.2 mph NE14.8 kmh NE 18.3 mph29.5 kmh 29.96 in1014.6 mb 0.00 in0.0 mm 0.00 in/hr0.0 mm/hr 0.00 in0.0 mm
07:24 AM 17.4°F-8.1°C -14.8°F-26.0°C 22% 13.0 mph NE20.9 kmh NE 18.3 mph29.5 kmh 29.96 in1014.6 mb 0.00 in0.0 mm 0.00 in/hr0.0 mm/hr 0.00 in0.0 mm
07:23 AM 17.2°F-8.2°C -15.0°F-26.1°C 22% 9.8 mph NE15.8 kmh NE 16.8 mph27.0 kmh 29.97 in1014.9 mb 0.00 in0.0 mm 0.00 in/hr0.0 mm/hr 0.00 in0.0 mm
07:22 AM 17.1°F-8.3°C -15.1°F-26.2°C 22% 8.3 mph NE13.4 kmh NE 16.8 mph27.0 kmh 29.96 in1014.6 mb 0.00 in0.0 mm 0.00 in/hr0.0 mm/hr 0.00 in0.0 mm
07:21 AM 17.1°F-8.3°C -15.1°F-26.2°C 22% 8.3 mph NE13.4 kmh NE 16.8 mph27.0 kmh 29.96 in1014.6 mb 0.00 in0.0 mm 0.00 in/hr0.0 mm/hr 0.00 in0.0 mm
07:20 AM 17.4°F-8.1°C -14.8°F-26.0°C 22% 5.4 mph NE8.7 kmh NE 16.8 mph27.0 kmh 29.96 in1014.6 mb 0.00 in0.0 mm 0.00 in/hr0.0 mm/hr 0.00 in0.0 mm
07:19 AM 17.4°F-8.1°C -14.8°F-26.0°C 22% 12.1 mph NE19.5 kmh NE 19.0 mph30.6 kmh 29.96 in1014.6 mb 0.00 in0.0 mm 0.00 in/hr0.0 mm/hr 0.00 in0.0 mm
07:18 AM 17.1°F-8.3°C -15.1°F-26.2°C 22% 12.1 mph NE19.5 kmh NE 19.0 mph30.6 kmh 29.96 in1014.6 mb 0.00 in0.0 mm 0.00 in/hr0.0 mm/hr 0.00 in0.0 mm
07:17 AM 17.1°F-8.3°C -15.1°F-26.2°C 22% 12.1 mph NE19.5 kmh NE 19.0 mph30.6 kmh 29.96 in1014.6 mb 0.00 in0.0 mm 0.00 in/hr0.0 mm/hr 0.00 in0.0 mm
07:16 AM 17.1°F-8.3°C -15.1°F-26.2°C 22% 12.1 mph NE19.5 kmh NE 19.0 mph30.6 kmh 29.95 in1014.2 mb 0.00 in0.0 mm 0.00 in/hr0.0 mm/hr 0.00 in0.0 mm
07:15 AM 17.1°F-8.3°C -15.1°F-26.2°C 22% 12.1 mph NE19.5 kmh NE 19.0 mph30.6 kmh 29.96 in1014.6 mb 0.00 in0.0 mm 0.00 in/hr0.0 mm/hr 0.00 in0.0 mm
07:14 AM 17.2°F-8.2°C -15.0°F-26.1°C 22% 7.6 mph NE12.2 kmh NE 19.0 mph30.6 kmh 29.96 in1014.6 mb 0.00 in0.0 mm 0.00 in/hr0.0 mm/hr 0.00 in0.0 mm
07:13 AM 17.6°F-8.0°C -16.5°F-26.9°C 20% 6.0 mph NE9.7 kmh NE 19.0 mph30.6 kmh 29.96 in1014.6 mb 0.00 in0.0 mm 0.00 in/hr0.0 mm/hr 0.00 in0.0 mm
07:12 AM 17.6°F-8.0°C -16.5°F-26.9°C 20% 6.0 mph ENE9.7 kmh ENE 19.0 mph30.6 kmh 29.96 in1014.6 mb 0.00 in0.0 mm 0.00 in/hr0.0 mm/hr 0.00 in0.0 mm
07:11 AM 17.1°F-8.3°C -15.1°F-26.2°C 22% 9.2 mph ENE14.8 kmh ENE 19.0 mph30.6 kmh 29.95 in1014.2 mb 0.00 in0.0 mm 0.00 in/hr0.0 mm/hr 0.00 in0.0 mm
07:10 AM 17.1°F-8.3°C -15.1°F-26.2°C 22% 9.2 mph ENE14.8 kmh ENE 19.0 mph30.6 kmh 29.96 in1014.6 mb 0.00 in0.0 mm 0.00 in/hr0.0 mm/hr 0.00 in0.0 mm
07:09 AM 17.2°F-8.2°C -15.9°F-26.6°C 21% 11.4 mph ENE18.3 kmh ENE 19.0 mph30.6 kmh 29.95 in1014.2 mb 0.00 in0.0 mm 0.00 in/hr0.0 mm/hr 0.00 in0.0 mm
07:08 AM 17.6°F-8.0°C -16.5°F-26.9°C 20% 8.3 mph ENE13.4 kmh ENE 17.4 mph28.0 kmh 29.95 in1014.2 mb 0.00 in0.0 mm 0.00 in/hr0.0 mm/hr 0.00 in0.0 mm
07:07 AM 17.6°F-8.0°C -16.5°F-26.9°C 20% 8.3 mph ENE13.4 kmh ENE 17.4 mph28.0 kmh 29.96 in1014.6 mb 0.00 in0.0 mm 0.00 in/hr0.0 mm/hr 0.00 in0.0 mm
07:06 AM 17.6°F-8.0°C -16.5°F-26.9°C 20% 8.3 mph ENE13.4 kmh ENE 17.4 mph28.0 kmh 29.95 in1014.2 mb 0.00 in0.0 mm 0.00 in/hr0.0 mm/hr 0.00 in0.0 mm
07:05 AM 17.6°F-8.0°C -16.5°F-26.9°C 20% 8.3 mph ENE13.4 kmh ENE 17.4 mph28.0 kmh 29.95 in1014.2 mb 0.00 in0.0 mm 0.00 in/hr0.0 mm/hr 0.00 in0.0 mm
07:04 AM 17.6°F-8.0°C -16.5°F-26.9°C 20% 8.3 mph ENE13.4 kmh ENE 17.4 mph28.0 kmh 29.95 in1014.2 mb 0.00 in0.0 mm 0.00 in/hr0.0 mm/hr 0.00 in0.0 mm
07:03 AM 17.6°F-8.0°C -16.5°F-26.9°C 20% 8.3 mph ENE13.4 kmh ENE 17.4 mph28.0 kmh 29.95 in1014.2 mb 0.00 in0.0 mm 0.00 in/hr0.0 mm/hr 0.00 in0.0 mm
07:02 AM 17.6°F-8.0°C -16.5°F-26.9°C 20% 8.3 mph ENE13.4 kmh ENE 17.4 mph28.0 kmh 29.95 in1014.2 mb 0.00 in0.0 mm 0.00 in/hr0.0 mm/hr 0.00 in0.0 mm
07:01 AM 17.6°F-8.0°C -16.5°F-26.9°C 20% 8.3 mph ENE13.4 kmh ENE 17.4 mph28.0 kmh 29.95 in1014.2 mb 0.00 in0.0 mm 0.00 in/hr0.0 mm/hr 0.00 in0.0 mm
07:00 AM 17.6°F-8.0°C -16.5°F-26.9°C 20% 8.3 mph ENE13.4 kmh ENE 17.4 mph28.0 kmh 29.95 in1014.2 mb 0.00 in0.0 mm 0.00 in/hr0.0 mm/hr 0.00 in0.0 mm
06:59 AM 17.4°F-8.1°C -14.8°F-26.0°C 22% 12.1 mph ENE19.5 kmh ENE 17.4 mph28.0 kmh 29.95 in1014.2 mb 0.00 in0.0 mm 0.00 in/hr0.0 mm/hr 0.00 in0.0 mm
06:58 AM 17.2°F-8.2°C -15.0°F-26.1°C 22% 13.0 mph ENE20.9 kmh ENE 17.4 mph28.0 kmh 29.95 in1014.2 mb 0.00 in0.0 mm 0.00 in/hr0.0 mm/hr 0.00 in0.0 mm
06:57 AM 17.1°F-8.3°C -15.1°F-26.2°C 22% 13.0 mph ENE20.9 kmh ENE 16.8 mph27.0 kmh 29.95 in1014.2 mb 0.00 in0.0 mm 0.00 in/hr0.0 mm/hr 0.00 in0.0 mm
06:56 AM 16.9°F-8.4°C -15.3°F-26.3°C 22% 10.7 mph ENE17.2 kmh ENE 15.9 mph25.6 kmh 29.95 in1014.2 mb 0.00 in0.0 mm 0.00 in/hr0.0 mm/hr 0.00 in0.0 mm
06:55 AM 17.1°F-8.3°C -15.1°F-26.2°C 22% 10.7 mph ENE17.2 kmh ENE 15.9 mph25.6 kmh 29.95 in1014.2 mb 0.00 in0.0 mm 0.00 in/hr0.0 mm/hr 0.00 in0.0 mm
06:54 AM 17.1°F-8.3°C -15.1°F-26.2°C 22% 9.8 mph ENE15.8 kmh ENE 15.9 mph25.6 kmh 29.95 in1014.2 mb 0.00 in0.0 mm 0.00 in/hr0.0 mm/hr 0.00 in0.0 mm
06:53 AM 17.1°F-8.3°C -15.1°F-26.2°C 22% 9.8 mph ENE15.8 kmh ENE 15.9 mph25.6 kmh 29.95 in1014.2 mb 0.00 in0.0 mm 0.00 in/hr0.0 mm/hr 0.00 in0.0 mm
06:52 AM 17.1°F-8.3°C -15.1°F-26.2°C 22% 9.2 mph ENE14.8 kmh ENE 17.4 mph28.0 kmh 29.95 in1014.2 mb 0.00 in0.0 mm 0.00 in/hr0.0 mm/hr 0.00 in0.0 mm
06:51 AM 17.1°F-8.3°C -15.1°F-26.2°C 22% 8.3 mph ENE13.4 kmh ENE 17.4 mph28.0 kmh 29.95 in1014.2 mb 0.00 in0.0 mm 0.00 in/hr0.0 mm/hr 0.00 in0.0 mm
06:50 AM 16.9°F-8.4°C -15.3°F-26.3°C 22% 9.8 mph ENE15.8 kmh ENE 17.4 mph28.0 kmh 29.95 in1014.2 mb 0.00 in0.0 mm 0.00 in/hr0.0 mm/hr 0.00 in0.0 mm
06:49 AM 16.9°F-8.4°C -15.3°F-26.3°C 22% 6.0 mph NE9.7 kmh NE 17.4 mph28.0 kmh 29.95 in1014.2 mb 0.00 in0.0 mm 0.00 in/hr0.0 mm/hr 0.00 in0.0 mm
06:48 AM 17.1°F-8.3°C -15.1°F-26.2°C 22% 7.6 mph NE12.2 kmh NE 17.4 mph28.0 kmh 29.95 in1014.2 mb 0.00 in0.0 mm 0.00 in/hr0.0 mm/hr 0.00 in0.0 mm
06:47 AM 17.1°F-8.3°C -15.1°F-26.2°C 22% 11.4 mph NE18.3 kmh NE 17.4 mph28.0 kmh 29.95 in1014.2 mb 0.00 in0.0 mm 0.00 in/hr0.0 mm/hr 0.00 in0.0 mm
06:46 AM 16.9°F-8.4°C -15.3°F-26.3°C 22% 7.6 mph NE12.2 kmh NE 17.4 mph28.0 kmh 29.94 in1013.9 mb 0.00 in0.0 mm 0.00 in/hr0.0 mm/hr 0.00 in0.0 mm
06:45 AM 16.9°F-8.4°C -15.3°F-26.3°C 22% 6.9 mph NE11.1 kmh NE 17.4 mph28.0 kmh 29.94 in1013.9 mb 0.00 in0.0 mm 0.00 in/hr0.0 mm/hr 0.00 in0.0 mm
06:44 AM 17.1°F-8.3°C -15.1°F-26.2°C 22% 7.6 mph NE12.2 kmh NE 17.4 mph28.0 kmh 29.94 in1013.9 mb 0.00 in0.0 mm 0.00 in/hr0.0 mm/hr 0.00 in0.0 mm
06:43 AM 17.1°F-8.3°C -15.1°F-26.2°C 22% 7.6 mph NE12.2 kmh NE 17.4 mph28.0 kmh 29.95 in1014.2 mb 0.00 in0.0 mm 0.00 in/hr0.0 mm/hr 0.00 in0.0 mm
06:42 AM 16.9°F-8.4°C -14.4°F-25.8°C 23% 8.3 mph NE13.4 kmh NE 15.9 mph25.6 kmh 29.94 in1013.9 mb 0.00 in0.0 mm 0.00 in/hr0.0 mm/hr 0.00 in0.0 mm
06:41 AM 16.9°F-8.4°C -14.4°F-25.8°C 23% 8.3 mph NE13.4 kmh NE 15.9 mph25.6 kmh 29.94 in1013.9 mb 0.00 in0.0 mm 0.00 in/hr0.0 mm/hr 0.00 in0.0 mm
06:40 AM 16.9°F-8.4°C -14.4°F-25.8°C 23% 7.6 mph NE12.2 kmh NE 15.9 mph25.6 kmh 29.94 in1013.9 mb 0.00 in0.0 mm 0.00 in/hr0.0 mm/hr 0.00 in0.0 mm
06:39 AM 17.1°F-8.3°C -14.2°F-25.7°C 23% 8.3 mph NE13.4 kmh NE 15.9 mph25.6 kmh 29.94 in1013.9 mb 0.00 in0.0 mm 0.00 in/hr0.0 mm/hr 0.00 in0.0 mm
06:38 AM 16.7°F-8.5°C -14.6°F-25.9°C 23% 8.3 mph ENE13.4 kmh ENE 15.9 mph25.6 kmh 29.94 in1013.9 mb 0.00 in0.0 mm 0.00 in/hr0.0 mm/hr 0.00 in0.0 mm
06:37 AM 16.9°F-8.4°C -12.8°F-24.9°C 25% 7.6 mph NE12.2 kmh NE 15.9 mph25.6 kmh 29.94 in1013.9 mb 0.00 in0.0 mm 0.00 in/hr0.0 mm/hr 0.00 in0.0 mm
06:36 AM 16.5°F-8.6°C -13.1°F-25.1°C 25% 9.8 mph ENE15.8 kmh ENE 15.9 mph25.6 kmh 29.94 in1013.9 mb 0.00 in0.0 mm 0.00 in/hr0.0 mm/hr 0.00 in0.0 mm
06:35 AM 16.5°F-8.6°C -13.1°F-25.1°C 25% 6.0 mph ENE9.7 kmh ENE 13.6 mph21.9 kmh 29.94 in1013.9 mb 0.00 in0.0 mm 0.00 in/hr0.0 mm/hr 0.00 in0.0 mm
06:34 AM 16.5°F-8.6°C -13.1°F-25.1°C 25% 5.4 mph ENE8.7 kmh ENE 13.6 mph21.9 kmh 29.94 in1013.9 mb 0.00 in0.0 mm 0.00 in/hr0.0 mm/hr 0.00 in0.0 mm
06:33 AM 16.7°F-8.5°C -12.9°F-24.9°C 25% 3.8 mph NE6.1 kmh NE 13.6 mph21.9 kmh 29.94 in1013.9 mb 0.00 in0.0 mm 0.00 in/hr0.0 mm/hr 0.00 in0.0 mm
06:32 AM 16.7°F-8.5°C -12.9°F-24.9°C 25% 8.3 mph ENE13.4 kmh ENE 13.6 mph21.9 kmh 29.94 in1013.9 mb 0.00 in0.0 mm 0.00 in/hr0.0 mm/hr 0.00 in0.0 mm
06:31 AM 16.2°F-8.8°C -13.4°F-25.2°C 25% 7.6 mph NE12.2 kmh NE 11.4 mph18.3 kmh 29.94 in1013.9 mb 0.00 in0.0 mm 0.00 in/hr0.0 mm/hr 0.00 in0.0 mm
06:30 AM 16.2°F-8.8°C -13.4°F-25.2°C 25% 3.1 mph NE5.0 kmh NE 11.4 mph18.3 kmh 29.94 in1013.9 mb 0.00 in0.0 mm 0.00 in/hr0.0 mm/hr 0.00 in0.0 mm
06:29 AM 16.5°F-8.6°C -13.1°F-25.1°C 25% 4.5 mph NE7.2 kmh NE 11.4 mph18.3 kmh 29.94 in1013.9 mb 0.00 in0.0 mm 0.00 in/hr0.0 mm/hr 0.00 in0.0 mm
06:28 AM 16.7°F-8.5°C -12.9°F-24.9°C 25% 3.8 mph NE6.1 kmh NE 11.4 mph18.3 kmh 29.94 in1013.9 mb 0.00 in0.0 mm 0.00 in/hr0.0 mm/hr 0.00 in0.0 mm
06:27 AM 16.7°F-8.5°C -12.9°F-24.9°C 25% 6.0 mph NE9.7 kmh NE 11.4 mph18.3 kmh 29.94 in1013.9 mb 0.00 in0.0 mm 0.00 in/hr0.0 mm/hr 0.00 in0.0 mm
06:26 AM 16.5°F-8.6°C -13.1°F-25.1°C 25% 4.5 mph NE7.2 kmh NE 12.1 mph19.5 kmh 29.94 in1013.9 mb 0.00 in0.0 mm 0.00 in/hr0.0 mm/hr 0.00 in0.0 mm
06:25 AM 16.7°F-8.5°C -12.9°F-24.9°C 25% 7.6 mph NE12.2 kmh NE 12.1 mph19.5 kmh 29.94 in1013.9 mb 0.00 in0.0 mm 0.00 in/hr0.0 mm/hr 0.00 in0.0 mm
06:24 AM 17.1°F-8.3°C -12.6°F-24.8°C 25% 3.1 mph NE5.0 kmh NE 12.1 mph19.5 kmh 29.94 in1013.9 mb 0.00 in0.0 mm 0.00 in/hr0.0 mm/hr 0.00 in0.0 mm
06:23 AM 16.9°F-8.4°C -12.8°F-24.9°C 25% 7.6 mph NE12.2 kmh NE 12.1 mph19.5 kmh 29.94 in1013.9 mb 0.00 in0.0 mm 0.00 in/hr0.0 mm/hr 0.00 in0.0 mm
06:22 AM 16.5°F-8.6°C -13.1°F-25.1°C 25% 5.4 mph NE8.7 kmh NE 12.1 mph19.5 kmh 29.93 in1013.5 mb 0.00 in0.0 mm 0.00 in/hr0.0 mm/hr 0.00 in0.0 mm
06:21 AM 16.7°F-8.5°C -12.9°F-24.9°C 25% 5.4 mph NE8.7 kmh NE 12.1 mph19.5 kmh 29.94 in1013.9 mb 0.00 in0.0 mm 0.00 in/hr0.0 mm/hr 0.00 in0.0 mm
06:20 AM 16.3°F-8.7°C -13.2°F-25.1°C 25% 6.9 mph NE11.1 kmh NE 12.1 mph19.5 kmh 29.94 in1013.9 mb 0.00 in0.0 mm 0.00 in/hr0.0 mm/hr 0.00 in0.0 mm
06:19 AM 16.5°F-8.6°C -13.1°F-25.1°C 25% 3.1 mph NE5.0 kmh NE 12.1 mph19.5 kmh 29.94 in1013.9 mb 0.00 in0.0 mm 0.00 in/hr0.0 mm/hr 0.00 in0.0 mm
06:18 AM 16.5°F-8.6°C -13.1°F-25.1°C 25% 5.4 mph NE8.7 kmh NE 12.1 mph19.5 kmh 29.94 in1013.9 mb 0.00 in0.0 mm 0.00 in/hr0.0 mm/hr 0.00 in0.0 mm
06:17 AM 16.7°F-8.5°C -12.9°F-24.9°C 25% 4.5 mph NE7.2 kmh NE 12.1 mph19.5 kmh 29.94 in1013.9 mb 0.00 in0.0 mm 0.00 in/hr0.0 mm/hr 0.00 in0.0 mm
06:16 AM 16.5°F-8.6°C -13.1°F-25.1°C 25% 7.6 mph NE12.2 kmh NE 12.1 mph19.5 kmh 29.93 in1013.5 mb 0.00 in0.0 mm 0.00 in/hr0.0 mm/hr 0.00 in0.0 mm
06:15 AM 16.5°F-8.6°C -12.3°F-24.6°C 26% 5.4 mph ENE8.7 kmh ENE 11.4 mph18.3 kmh 29.93 in1013.5 mb 0.00 in0.0 mm 0.00 in/hr0.0 mm/hr 0.00 in0.0 mm
06:14 AM 16.3°F-8.7°C -12.4°F-24.7°C 26% 3.8 mph ENE6.1 kmh ENE 11.4 mph18.3 kmh 29.93 in1013.5 mb 0.00 in0.0 mm 0.00 in/hr0.0 mm/hr 0.00 in0.0 mm
06:13 AM 16.2°F-8.8°C -12.6°F-24.8°C 26% 4.5 mph ENE7.2 kmh ENE 11.4 mph18.3 kmh 29.93 in1013.5 mb 0.00 in0.0 mm 0.00 in/hr0.0 mm/hr 0.00 in0.0 mm
06:12 AM 16.3°F-8.7°C -12.4°F-24.7°C 26% 2.2 mph ENE3.5 kmh ENE 12.1 mph19.5 kmh 29.94 in1013.9 mb 0.00 in0.0 mm 0.00 in/hr0.0 mm/hr 0.00 in0.0 mm
06:11 AM 16.5°F-8.6°C -12.3°F-24.6°C 26% 3.8 mph ENE6.1 kmh ENE 12.1 mph19.5 kmh 29.93 in1013.5 mb 0.00 in0.0 mm 0.00 in/hr0.0 mm/hr 0.00 in0.0 mm
06:10 AM 16.3°F-8.7°C -12.4°F-24.7°C 26% 8.3 mph ENE13.4 kmh ENE 12.1 mph19.5 kmh 29.93 in1013.5 mb 0.00 in0.0 mm 0.00 in/hr0.0 mm/hr 0.00 in0.0 mm
06:09 AM 16.3°F-8.7°C -12.4°F-24.7°C 26% 5.4 mph ENE8.7 kmh ENE 12.1 mph19.5 kmh 29.94 in1013.9 mb 0.00 in0.0 mm 0.00 in/hr0.0 mm/hr 0.00 in0.0 mm
06:08 AM 16.2°F-8.8°C -12.6°F-24.8°C 26% 5.4 mph NE8.7 kmh NE 12.1 mph19.5 kmh 29.93 in1013.5 mb 0.00 in0.0 mm 0.00 in/hr0.0 mm/hr 0.00 in0.0 mm
06:07 AM 16.3°F-8.7°C -12.4°F-24.7°C 26% 4.5 mph NE7.2 kmh NE 12.1 mph19.5 kmh 29.93 in1013.5 mb 0.00 in0.0 mm 0.00 in/hr0.0 mm/hr 0.00 in0.0 mm
06:06 AM 16.3°F-8.7°C -11.7°F-24.3°C 27% 5.4 mph NE8.7 kmh NE 12.1 mph19.5 kmh 29.93 in1013.5 mb 0.00 in0.0 mm 0.00 in/hr0.0 mm/hr 0.00 in0.0 mm
06:05 AM 16.2°F-8.8°C -11.8°F-24.3°C 27% 6.9 mph NE11.1 kmh NE 12.1 mph19.5 kmh 29.93 in1013.5 mb 0.00 in0.0 mm 0.00 in/hr0.0 mm/hr 0.00 in0.0 mm
06:04 AM 16.5°F-8.6°C -11.5°F-24.2°C 27% 3.8 mph NE6.1 kmh NE 13.0 mph20.9 kmh 29.93 in1013.5 mb 0.00 in0.0 mm 0.00 in/hr0.0 mm/hr 0.00 in0.0 mm
06:03 AM 16.5°F-8.6°C -11.5°F-24.2°C 27% 5.4 mph NE8.7 kmh NE 13.0 mph20.9 kmh 29.93 in1013.5 mb 0.00 in0.0 mm 0.00 in/hr0.0 mm/hr 0.00 in0.0 mm
06:02 AM 15.8°F-9.0°C -12.2°F-24.6°C 27% 8.3 mph NE13.4 kmh NE 13.0 mph20.9 kmh 29.93 in1013.5 mb 0.00 in0.0 mm 0.00 in/hr0.0 mm/hr 0.00 in0.0 mm
06:01 AM 16.0°F-8.9°C -12.0°F-24.4°C 27% 1.6 mph NE2.6 kmh NE 15.9 mph25.6 kmh 29.93 in1013.5 mb 0.00 in0.0 mm 0.00 in/hr0.0 mm/hr 0.00 in0.0 mm
06:00 AM 16.2°F-8.8°C -11.8°F-24.3°C 27% 1.6 mph NE2.6 kmh NE 15.9 mph25.6 kmh 29.93 in1013.5 mb 0.00 in0.0 mm 0.00 in/hr0.0 mm/hr 0.00 in0.0 mm
05:59 AM 16.2°F-8.8°C -12.6°F-24.8°C 26% 3.8 mph NE6.1 kmh NE 15.9 mph25.6 kmh 29.93 in1013.5 mb 0.00 in0.0 mm 0.00 in/hr0.0 mm/hr 0.00 in0.0 mm
05:58 AM 16.3°F-8.7°C -12.4°F-24.7°C 26% 6.0 mph NE9.7 kmh NE 15.9 mph25.6 kmh 29.93 in1013.5 mb 0.00 in0.0 mm 0.00 in/hr0.0 mm/hr 0.00 in0.0 mm
05:57 AM 16.2°F-8.8°C -12.6°F-24.8°C 26% 5.4 mph NE8.7 kmh NE 15.9 mph25.6 kmh 29.93 in1013.5 mb 0.00 in0.0 mm 0.00 in/hr0.0 mm/hr 0.00 in0.0 mm
05:56 AM 16.5°F-8.6°C -12.3°F-24.6°C 26% 1.6 mph NE2.6 kmh NE 15.9 mph25.6 kmh 29.93 in1013.5 mb 0.00 in0.0 mm 0.00 in/hr0.0 mm/hr 0.00 in0.0 mm
05:55 AM 16.5°F-8.6°C -12.3°F-24.6°C 26% 4.5 mph NE7.2 kmh NE 15.9 mph25.6 kmh 29.93 in1013.5 mb 0.00 in0.0 mm 0.00 in/hr0.0 mm/hr 0.00 in0.0 mm
05:54 AM 16.5°F-8.6°C -12.3°F-24.6°C 26% 5.4 mph NNE8.7 kmh NNE 15.9 mph25.6 kmh 29.93 in1013.5 mb 0.00 in0.0 mm 0.00 in/hr0.0 mm/hr 0.00 in0.0 mm
05:53 AM 16.5°F-8.6°C -12.3°F-24.6°C 26% 4.5 mph NE7.2 kmh NE 15.9 mph25.6 kmh 29.93 in1013.5 mb 0.00 in0.0 mm 0.00 in/hr0.0 mm/hr 0.00 in0.0 mm
05:52 AM 16.5°F-8.6°C -11.5°F-24.2°C 27% 6.9 mph NE11.1 kmh NE 15.9 mph25.6 kmh 29.93 in1013.5 mb 0.00 in0.0 mm 0.00 in/hr0.0 mm/hr 0.00 in0.0 mm
05:51 AM 16.2°F-8.8°C -11.8°F-24.3°C 27% 8.3 mph NE13.4 kmh NE 15.9 mph25.6 kmh 29.92 in1013.2 mb 0.00 in0.0 mm 0.00 in/hr0.0 mm/hr 0.00 in0.0 mm
05:50 AM 16.2°F-8.8°C -12.6°F-24.8°C 26% 2.2 mph NE3.5 kmh NE 13.0 mph20.9 kmh 29.92 in1013.2 mb 0.00 in0.0 mm 0.00 in/hr0.0 mm/hr 0.00 in0.0 mm
05:49 AM 16.3°F-8.7°C -12.4°F-24.7°C 26% 3.1 mph NE5.0 kmh NE 13.0 mph20.9 kmh 29.92 in1013.2 mb 0.00 in0.0 mm 0.00 in/hr0.0 mm/hr 0.00 in0.0 mm
05:48 AM 16.7°F-8.5°C -12.1°F-24.5°C 26% 3.1 mph NE5.0 kmh NE 13.0 mph20.9 kmh 29.92 in1013.2 mb 0.00 in0.0 mm 0.00 in/hr0.0 mm/hr 0.00 in0.0 mm
05:47 AM 16.3°F-8.7°C -12.4°F-24.7°C 26% 9.2 mph NE14.8 kmh NE 13.6 mph21.9 kmh 29.92 in1013.2 mb 0.00 in0.0 mm 0.00 in/hr0.0 mm/hr 0.00 in0.0 mm
05:46 AM 16.5°F-8.6°C -12.3°F-24.6°C 26% 9.2 mph NE14.8 kmh NE 15.2 mph24.5 kmh 29.92 in1013.2 mb 0.00 in0.0 mm 0.00 in/hr0.0 mm/hr 0.00 in0.0 mm
05:45 AM 16.7°F-8.5°C -12.1°F-24.5°C 26% 7.6 mph NE12.2 kmh NE 15.2 mph24.5 kmh 29.92 in1013.2 mb 0.00 in0.0 mm 0.00 in/hr0.0 mm/hr 0.00 in0.0 mm
05:44 AM 16.5°F-8.6°C -12.3°F-24.6°C 26% 10.7 mph NE17.2 kmh NE 15.2 mph24.5 kmh 29.92 in1013.2 mb 0.00 in0.0 mm 0.00 in/hr0.0 mm/hr 0.00 in0.0 mm
05:43 AM 16.5°F-8.6°C -12.3°F-24.6°C 26% 5.4 mph ENE8.7 kmh ENE 15.2 mph24.5 kmh 29.92 in1013.2 mb 0.00 in0.0 mm 0.00 in/hr0.0 mm/hr 0.00 in0.0 mm
05:42 AM 16.9°F-8.4°C -12.0°F-24.4°C 26% 5.4 mph NE8.7 kmh NE 15.2 mph24.5 kmh 29.92 in1013.2 mb 0.00 in0.0 mm 0.00 in/hr0.0 mm/hr 0.00 in0.0 mm
05:41 AM 16.5°F-8.6°C -11.5°F-24.2°C 27% 6.9 mph NE11.1 kmh NE 15.2 mph24.5 kmh 29.92 in1013.2 mb 0.00 in0.0 mm 0.00 in/hr0.0 mm/hr 0.00 in0.0 mm
05:40 AM 16.5°F-8.6°C -12.3°F-24.6°C 26% 6.9 mph NE11.1 kmh NE 15.2 mph24.5 kmh 29.92 in1013.2 mb 0.00 in0.0 mm 0.00 in/hr0.0 mm/hr 0.00 in0.0 mm
05:39 AM 16.7°F-8.5°C -12.1°F-24.5°C 26% 7.6 mph NE12.2 kmh NE 15.2 mph24.5 kmh 29.92 in1013.2 mb 0.00 in0.0 mm 0.00 in/hr0.0 mm/hr 0.00 in0.0 mm
05:38 AM 16.7°F-8.5°C -11.4°F-24.1°C 27% 7.6 mph NE12.2 kmh NE 15.2 mph24.5 kmh 29.92 in1013.2 mb 0.00 in0.0 mm 0.00 in/hr0.0 mm/hr 0.00 in0.0 mm
05:37 AM 16.7°F-8.5°C -11.4°F-24.1°C 27% 9.8 mph NE15.8 kmh NE 18.3 mph29.5 kmh 29.92 in1013.2 mb 0.00 in0.0 mm 0.00 in/hr0.0 mm/hr 0.00 in0.0 mm
05:36 AM 16.5°F-8.6°C -11.5°F-24.2°C 27% 10.7 mph NE17.2 kmh NE 18.3 mph29.5 kmh 29.92 in1013.2 mb 0.00 in0.0 mm 0.00 in/hr0.0 mm/hr 0.00 in0.0 mm
05:35 AM 16.5°F-8.6°C -11.5°F-24.2°C 27% 9.2 mph NE14.8 kmh NE 18.3 mph29.5 kmh 29.92 in1013.2 mb 0.00 in0.0 mm 0.00 in/hr0.0 mm/hr 0.00 in0.0 mm
05:34 AM 16.7°F-8.5°C -11.4°F-24.1°C 27% 6.9 mph NE11.1 kmh NE 18.3 mph29.5 kmh 29.92 in1013.2 mb 0.00 in0.0 mm 0.00 in/hr0.0 mm/hr 0.00 in0.0 mm
05:33 AM 16.2°F-8.8°C -11.1°F-23.9°C 28% 10.7 mph NE17.2 kmh NE 18.3 mph29.5 kmh 29.92 in1013.2 mb 0.00 in0.0 mm 0.00 in/hr0.0 mm/hr 0.00 in0.0 mm
05:32 AM 16.5°F-8.6°C -11.5°F-24.2°C 27% 4.5 mph NE7.2 kmh NE 18.3 mph29.5 kmh 29.92 in1013.2 mb 0.00 in0.0 mm 0.00 in/hr0.0 mm/hr 0.00 in0.0 mm
05:31 AM 16.5°F-8.6°C -11.5°F-24.2°C 27% 6.0 mph NE9.7 kmh NE 18.3 mph29.5 kmh 29.92 in1013.2 mb 0.00 in0.0 mm 0.00 in/hr0.0 mm/hr 0.00 in0.0 mm
05:30 AM 16.5°F-8.6°C -11.5°F-24.2°C 27% 6.9 mph NE11.1 kmh NE 18.3 mph29.5 kmh 29.92 in1013.2 mb 0.00 in0.0 mm 0.00 in/hr0.0 mm/hr 0.00 in0.0 mm
05:29 AM 16.7°F-8.5°C -11.4°F-24.1°C 27% 5.4 mph NE8.7 kmh NE 18.3 mph29.5 kmh 29.91 in1012.9 mb 0.00 in0.0 mm 0.00 in/hr0.0 mm/hr 0.00 in0.0 mm
05:28 AM 16.7°F-8.5°C -11.4°F-24.1°C 27% 8.3 mph NE13.4 kmh NE 18.3 mph29.5 kmh 29.92 in1013.2 mb 0.00 in0.0 mm 0.00 in/hr0.0 mm/hr 0.00 in0.0 mm
05:27 AM 16.7°F-8.5°C -10.6°F-23.7°C 28% 13.0 mph NE20.9 kmh NE 18.3 mph29.5 kmh 29.91 in1012.9 mb 0.00 in0.0 mm 0.00 in/hr0.0 mm/hr 0.00 in0.0 mm
05:26 AM 16.3°F-8.7°C -11.0°F-23.9°C 28% 6.9 mph NE11.1 kmh NE 15.9 mph25.6 kmh 29.92 in1013.2 mb 0.00 in0.0 mm 0.00 in/hr0.0 mm/hr 0.00 in0.0 mm
05:25 AM 16.5°F-8.6°C -10.8°F-23.8°C 28% 6.9 mph NE11.1 kmh NE 18.3 mph29.5 kmh 29.92 in1013.2 mb 0.00 in0.0 mm 0.00 in/hr0.0 mm/hr 0.00 in0.0 mm
05:24 AM 16.2°F-8.8°C -11.1°F-23.9°C 28% 6.9 mph NE11.1 kmh NE 18.3 mph29.5 kmh 29.91 in1012.9 mb 0.00 in0.0 mm 0.00 in/hr0.0 mm/hr 0.00 in0.0 mm
05:23 AM 16.5°F-8.6°C -11.5°F-24.2°C 27% 5.4 mph NE8.7 kmh NE 18.3 mph29.5 kmh 29.91 in1012.9 mb 0.00 in0.0 mm 0.00 in/hr0.0 mm/hr 0.00 in0.0 mm
05:22 AM 16.7°F-8.5°C -10.6°F-23.7°C 28% 10.7 mph NE17.2 kmh NE 18.3 mph29.5 kmh 29.91 in1012.9 mb 0.00 in0.0 mm 0.00 in/hr0.0 mm/hr 0.00 in0.0 mm
05:21 AM 16.5°F-8.6°C -10.8°F-23.8°C 28% 12.1 mph NE19.5 kmh NE 18.3 mph29.5 kmh 29.91 in1012.9 mb 0.00 in0.0 mm 0.00 in/hr0.0 mm/hr 0.00 in0.0 mm
05:20 AM 16.5°F-8.6°C -10.8°F-23.8°C 28% 9.8 mph NE15.8 kmh NE 18.3 mph29.5 kmh 29.91 in1012.9 mb 0.00 in0.0 mm 0.00 in/hr0.0 mm/hr 0.00 in0.0 mm
05:19 AM 16.5°F-8.6°C -10.8°F-23.8°C 28% 9.2 mph NE14.8 kmh NE 18.3 mph29.5 kmh 29.91 in1012.9 mb 0.00 in0.0 mm 0.00 in/hr0.0 mm/hr 0.00 in0.0 mm
05:18 AM 16.3°F-8.7°C -11.0°F-23.9°C 28% 6.9 mph NE11.1 kmh NE 18.3 mph29.5 kmh 29.91 in1012.9 mb 0.00 in0.0 mm 0.00 in/hr0.0 mm/hr 0.00 in0.0 mm
05:17 AM 16.7°F-8.5°C -10.6°F-23.7°C 28% 6.9 mph NE11.1 kmh NE 18.3 mph29.5 kmh 29.91 in1012.9 mb 0.00 in0.0 mm 0.00 in/hr0.0 mm/hr 0.00 in0.0 mm
05:16 AM 16.9°F-8.4°C -10.5°F-23.6°C 28% 10.7 mph NE17.2 kmh NE 18.3 mph29.5 kmh 29.91 in1012.9 mb 0.00 in0.0 mm 0.00 in/hr0.0 mm/hr 0.00 in0.0 mm
05:15 AM 16.3°F-8.7°C -9.6°F-23.1°C 30% 11.4 mph NE18.3 kmh NE 18.3 mph29.5 kmh 29.91 in1012.9 mb 0.00 in0.0 mm 0.00 in/hr0.0 mm/hr 0.00 in0.0 mm
05:14 AM 16.3°F-8.7°C -9.6°F-23.1°C 30% 5.4 mph NE8.7 kmh NE 15.2 mph24.5 kmh 29.91 in1012.9 mb 0.00 in0.0 mm 0.00 in/hr0.0 mm/hr 0.00 in0.0 mm
05:13 AM 16.3°F-8.7°C -9.6°F-23.1°C 30% 9.2 mph NE14.8 kmh NE 15.2 mph24.5 kmh 29.91 in1012.9 mb 0.00 in0.0 mm 0.00 in/hr0.0 mm/hr 0.00 in0.0 mm
05:12 AM 16.3°F-8.7°C -9.6°F-23.1°C 30% 8.3 mph NE13.4 kmh NE 15.2 mph24.5 kmh 29.91 in1012.9 mb 0.00 in0.0 mm 0.00 in/hr0.0 mm/hr 0.00 in0.0 mm
05:11 AM 16.5°F-8.6°C -9.4°F-23.0°C 30% 6.9 mph NNE11.1 kmh NNE 15.2 mph24.5 kmh 29.91 in1012.9 mb 0.00 in0.0 mm 0.00 in/hr0.0 mm/hr 0.00 in0.0 mm
05:10 AM 16.2°F-8.8°C -9.7°F-23.2°C 30% 6.0 mph NNE9.7 kmh NNE 15.2 mph24.5 kmh 29.91 in1012.9 mb 0.00 in0.0 mm 0.00 in/hr0.0 mm/hr 0.00 in0.0 mm
05:09 AM 16.2°F-8.8°C -9.7°F-23.2°C 30% 6.9 mph NNE11.1 kmh NNE 15.2 mph24.5 kmh 29.91 in1012.9 mb 0.00 in0.0 mm 0.00 in/hr0.0 mm/hr 0.00 in0.0 mm
05:08 AM 16.2°F-8.8°C -9.7°F-23.2°C 30% 6.0 mph NNE9.7 kmh NNE 16.8 mph27.0 kmh 29.91 in1012.9 mb 0.00 in0.0 mm 0.00 in/hr0.0 mm/hr 0.00 in0.0 mm
05:07 AM 16.5°F-8.6°C -9.4°F-23.0°C 30% 6.0 mph NNE9.7 kmh NNE 16.8 mph27.0 kmh 29.91 in1012.9 mb 0.00 in0.0 mm 0.00 in/hr0.0 mm/hr 0.00 in0.0 mm
05:06 AM 16.5°F-8.6°C -9.4°F-23.0°C 30% 12.1 mph NNE19.5 kmh NNE 16.8 mph27.0 kmh 29.90 in1012.5 mb 0.00 in0.0 mm 0.00 in/hr0.0 mm/hr 0.00 in0.0 mm
05:05 AM 16.5°F-8.6°C -9.4°F-23.0°C 30% 12.1 mph NNE19.5 kmh NNE 16.8 mph27.0 kmh 29.90 in1012.5 mb 0.00 in0.0 mm 0.00 in/hr0.0 mm/hr 0.00 in0.0 mm
05:04 AM 16.5°F-8.6°C -9.4°F-23.0°C 30% 12.1 mph NNE19.5 kmh NNE 16.8 mph27.0 kmh 29.90 in1012.5 mb 0.00 in0.0 mm 0.00 in/hr0.0 mm/hr 0.00 in0.0 mm
05:03 AM 16.5°F-8.6°C -9.4°F-23.0°C 30% 12.1 mph NE19.5 kmh NE 16.8 mph27.0 kmh 29.90 in1012.5 mb 0.00 in0.0 mm 0.00 in/hr0.0 mm/hr 0.00 in0.0 mm
05:02 AM 16.5°F-8.6°C -9.4°F-23.0°C 30% 12.1 mph NE19.5 kmh NE 18.3 mph29.5 kmh 29.90 in1012.5 mb 0.00 in0.0 mm 0.00 in/hr0.0 mm/hr 0.00 in0.0 mm
05:01 AM 16.5°F-8.6°C -9.4°F-23.0°C 30% 12.1 mph NE19.5 kmh NE 18.3 mph29.5 kmh 29.90 in1012.5 mb 0.00 in0.0 mm 0.00 in/hr0.0 mm/hr 0.00 in0.0 mm
05:00 AM 16.5°F-8.6°C -9.4°F-23.0°C 30% 12.1 mph NE19.5 kmh NE 18.3 mph29.5 kmh 29.90 in1012.5 mb 0.00 in0.0 mm 0.00 in/hr0.0 mm/hr 0.00 in0.0 mm
04:59 AM 16.5°F-8.6°C -9.4°F-23.0°C 30% 12.1 mph NE19.5 kmh NE 18.3 mph29.5 kmh 29.90 in1012.5 mb 0.00 in0.0 mm 0.00 in/hr0.0 mm/hr 0.00 in0.0 mm
04:58 AM 16.2°F-8.8°C -9.7°F-23.2°C 30% 11.4 mph NE18.3 kmh NE 18.3 mph29.5 kmh 29.90 in1012.5 mb 0.00 in0.0 mm 0.00 in/hr0.0 mm/hr 0.00 in0.0 mm
04:57 AM 16.3°F-8.7°C -9.6°F-23.1°C 30% 4.5 mph NE7.2 kmh NE 18.3 mph29.5 kmh 29.90 in1012.5 mb 0.00 in0.0 mm 0.00 in/hr0.0 mm/hr 0.00 in0.0 mm
04:56 AM 16.5°F-8.6°C -9.4°F-23.0°C 30% 6.0 mph NE9.7 kmh NE 18.3 mph29.5 kmh 29.90 in1012.5 mb 0.00 in0.0 mm 0.00 in/hr0.0 mm/hr 0.00 in0.0 mm
04:55 AM 16.5°F-8.6°C -9.4°F-23.0°C 30% 8.3 mph NE13.4 kmh NE 19.7 mph31.7 kmh 29.90 in1012.5 mb 0.00 in0.0 mm 0.00 in/hr0.0 mm/hr 0.00 in0.0 mm
04:54 AM 16.5°F-8.6°C -9.4°F-23.0°C 30% 13.6 mph NE21.9 kmh NE 19.7 mph31.7 kmh 29.90 in1012.5 mb 0.00 in0.0 mm 0.00 in/hr0.0 mm/hr 0.00 in0.0 mm
04:53 AM 16.5°F-8.6°C -9.4°F-23.0°C 30% 13.6 mph NNE21.9 kmh NNE 19.7 mph31.7 kmh 29.90 in1012.5 mb 0.00 in0.0 mm 0.00 in/hr0.0 mm/hr 0.00 in0.0 mm
04:52 AM 16.2°F-8.8°C -9.7°F-23.2°C 30% 9.2 mph N14.8 kmh N 19.7 mph31.7 kmh 29.90 in1012.5 mb 0.00 in0.0 mm 0.00 in/hr0.0 mm/hr 0.00 in0.0 mm
04:51 AM 16.2°F-8.8°C -9.7°F-23.2°C 30% 9.2 mph N14.8 kmh N 19.7 mph31.7 kmh 29.90 in1012.5 mb 0.00 in0.0 mm 0.00 in/hr0.0 mm/hr 0.00 in0.0 mm
04:50 AM 16.2°F-8.8°C -9.7°F-23.2°C 30% 7.6 mph N12.2 kmh N 19.7 mph31.7 kmh 29.89 in1012.2 mb 0.00 in0.0 mm 0.00 in/hr0.0 mm/hr 0.00 in0.0 mm
04:49 AM 16.3°F-8.7°C -9.6°F-23.1°C 30% 6.0 mph NNE9.7 kmh NNE 19.7 mph31.7 kmh 29.90 in1012.5 mb 0.00 in0.0 mm 0.00 in/hr0.0 mm/hr 0.00 in0.0 mm
04:48 AM 16.5°F-8.6°C -9.4°F-23.0°C 30% 9.8 mph NNE15.8 kmh NNE 19.7 mph31.7 kmh 29.89 in1012.2 mb 0.00 in0.0 mm 0.00 in/hr0.0 mm/hr 0.00 in0.0 mm
04:47 AM 16.5°F-8.6°C -9.4°F-23.0°C 30% 8.3 mph NE13.4 kmh NE 19.7 mph31.7 kmh 29.90 in1012.5 mb 0.00 in0.0 mm 0.00 in/hr0.0 mm/hr 0.00 in0.0 mm
04:46 AM 16.3°F-8.7°C -9.6°F-23.1°C 30% 9.8 mph NE15.8 kmh NE 19.7 mph31.7 kmh 29.90 in1012.5 mb 0.00 in0.0 mm 0.00 in/hr0.0 mm/hr 0.00 in0.0 mm
04:45 AM 16.2°F-8.8°C -9.7°F-23.2°C 30% 13.0 mph NE20.9 kmh NE 18.3 mph29.5 kmh 29.90 in1012.5 mb 0.00 in0.0 mm 0.00 in/hr0.0 mm/hr 0.00 in0.0 mm
04:44 AM 16.3°F-8.7°C -9.6°F-23.1°C 30% 5.4 mph ENE8.7 kmh ENE 17.4 mph28.0 kmh 29.89 in1012.2 mb 0.00 in0.0 mm 0.00 in/hr0.0 mm/hr 0.00 in0.0 mm
04:43 AM 16.5°F-8.6°C -9.4°F-23.0°C 30% 7.6 mph NE12.2 kmh NE 17.4 mph28.0 kmh 29.89 in1012.2 mb 0.00 in0.0 mm 0.00 in/hr0.0 mm/hr 0.00 in0.0 mm
04:42 AM 16.3°F-8.7°C -9.6°F-23.1°C 30% 5.4 mph NE8.7 kmh NE 15.2 mph24.5 kmh 29.89 in1012.2 mb 0.00 in0.0 mm 0.00 in/hr0.0 mm/hr 0.00 in0.0 mm
04:41 AM 16.2°F-8.8°C -9.7°F-23.2°C 30% 7.6 mph NE12.2 kmh NE 15.2 mph24.5 kmh 29.89 in1012.2 mb 0.00 in0.0 mm 0.00 in/hr0.0 mm/hr 0.00 in0.0 mm
04:40 AM 16.2°F-8.8°C -9.7°F-23.2°C 30% 6.0 mph ENE9.7 kmh ENE 15.2 mph24.5 kmh 29.89 in1012.2 mb 0.00 in0.0 mm 0.00 in/hr0.0 mm/hr 0.00 in0.0 mm
04:39 AM 16.3°F-8.7°C -9.6°F-23.1°C 30% 6.0 mph ENE9.7 kmh ENE 15.2 mph24.5 kmh 29.89 in1012.2 mb 0.00 in0.0 mm 0.00 in/hr0.0 mm/hr 0.00 in0.0 mm
04:38 AM 16.2°F-8.8°C -9.7°F-23.2°C 30% 6.0 mph ENE9.7 kmh ENE 15.2 mph24.5 kmh 29.89 in1012.2 mb 0.00 in0.0 mm 0.00 in/hr0.0 mm/hr 0.00 in0.0 mm
04:37 AM 16.5°F-8.6°C -9.4°F-23.0°C 30% 6.9 mph ENE11.1 kmh ENE 15.2 mph24.5 kmh 29.89 in1012.2 mb 0.00 in0.0 mm 0.00 in/hr0.0 mm/hr 0.00 in0.0 mm
04:36 AM 16.5°F-8.6°C -9.4°F-23.0°C 30% 9.2 mph NE14.8 kmh NE 15.2 mph24.5 kmh 29.89 in1012.2 mb 0.00 in0.0 mm 0.00 in/hr0.0 mm/hr 0.00 in0.0 mm
04:35 AM 16.5°F-8.6°C -9.4°F-23.0°C 30% 8.3 mph NE13.4 kmh NE 15.2 mph24.5 kmh 29.89 in1012.2 mb 0.00 in0.0 mm 0.00 in/hr0.0 mm/hr 0.00 in0.0 mm
04:34 AM 16.3°F-8.7°C -9.6°F-23.1°C 30% 7.6 mph NE12.2 kmh NE 12.1 mph19.5 kmh 29.89 in1012.2 mb 0.00 in0.0 mm 0.00 in/hr0.0 mm/hr 0.00 in0.0 mm
04:33 AM 16.3°F-8.7°C -9.6°F-23.1°C 30% 7.6 mph NE12.2 kmh NE 12.1 mph19.5 kmh 29.89 in1012.2 mb 0.00 in0.0 mm 0.00 in/hr0.0 mm/hr 0.00 in0.0 mm
04:32 AM 16.2°F-8.8°C -9.7°F-23.2°C 30% 7.6 mph ENE12.2 kmh ENE 12.1 mph19.5 kmh 29.89 in1012.2 mb 0.00 in0.0 mm 0.00 in/hr0.0 mm/hr 0.00 in0.0 mm
04:31 AM 16.2°F-8.8°C -9.7°F-23.2°C 30% 6.0 mph NE9.7 kmh NE 12.1 mph19.5 kmh 29.89 in1012.2 mb 0.00 in0.0 mm 0.00 in/hr0.0 mm/hr 0.00 in0.0 mm
04:30 AM 16.2°F-8.8°C -9.7°F-23.2°C 30% 6.0 mph NE9.7 kmh NE 12.1 mph19.5 kmh 29.89 in1012.2 mb 0.00 in0.0 mm 0.00 in/hr0.0 mm/hr 0.00 in0.0 mm
04:29 AM 16.3°F-8.7°C -9.6°F-23.1°C 30% 5.4 mph NE8.7 kmh NE 13.0 mph20.9 kmh 29.89 in1012.2 mb 0.00 in0.0 mm 0.00 in/hr0.0 mm/hr 0.00 in0.0 mm
04:28 AM 16.3°F-8.7°C -9.6°F-23.1°C 30% 7.6 mph NE12.2 kmh NE 15.9 mph25.6 kmh 29.89 in1012.2 mb 0.00 in0.0 mm 0.00 in/hr0.0 mm/hr 0.00 in0.0 mm
04:27 AM 16.2°F-8.8°C -9.7°F-23.2°C 30% 6.0 mph NE9.7 kmh NE 15.9 mph25.6 kmh 29.89 in1012.2 mb 0.00 in0.0 mm 0.00 in/hr0.0 mm/hr 0.00 in0.0 mm
04:26 AM 16.2°F-8.8°C -9.7°F-23.2°C 30% 4.5 mph NE7.2 kmh NE 15.9 mph25.6 kmh 29.89 in1012.2 mb 0.00 in0.0 mm 0.00 in/hr0.0 mm/hr 0.00 in0.0 mm
04:25 AM 16.0°F-8.9°C -9.9°F-23.3°C 30% 5.4 mph NE8.7 kmh NE 15.9 mph25.6 kmh 29.89 in1012.2 mb 0.00 in0.0 mm 0.00 in/hr0.0 mm/hr 0.00 in0.0 mm
04:24 AM 16.2°F-8.8°C -9.7°F-23.2°C 30% 4.5 mph NE7.2 kmh NE 15.9 mph25.6 kmh 29.88 in1011.9 mb 0.00 in0.0 mm 0.00 in/hr0.0 mm/hr 0.00 in0.0 mm
04:23 AM 16.5°F-8.6°C -9.4°F-23.0°C 30% 4.5 mph NE7.2 kmh NE 15.9 mph25.6 kmh 29.89 in1012.2 mb 0.00 in0.0 mm 0.00 in/hr0.0 mm/hr 0.00 in0.0 mm
04:22 AM 16.3°F-8.7°C -9.6°F-23.1°C 30% 6.9 mph NE11.1 kmh NE 15.9 mph25.6 kmh 29.89 in1012.2 mb 0.00 in0.0 mm 0.00 in/hr0.0 mm/hr 0.00 in0.0 mm
04:21 AM 16.3°F-8.7°C -9.6°F-23.1°C 30% 6.9 mph NE11.1 kmh NE 15.9 mph25.6 kmh 29.88 in1011.9 mb 0.00 in0.0 mm 0.00 in/hr0.0 mm/hr 0.00 in0.0 mm
04:20 AM 16.5°F-8.6°C -9.4°F-23.0°C 30% 6.0 mph NE9.7 kmh NE 15.9 mph25.6 kmh 29.89 in1012.2 mb 0.00 in0.0 mm 0.00 in/hr0.0 mm/hr 0.00 in0.0 mm
04:19 AM 16.5°F-8.6°C -9.4°F-23.0°C 30% 11.4 mph NE18.3 kmh NE 15.9 mph25.6 kmh 29.89 in1012.2 mb 0.00 in0.0 mm 0.00 in/hr0.0 mm/hr 0.00 in0.0 mm
04:18 AM 16.5°F-8.6°C -9.4°F-23.0°C 30% 5.4 mph NE8.7 kmh NE 15.9 mph25.6 kmh 29.88 in1011.9 mb 0.00 in0.0 mm 0.00 in/hr0.0 mm/hr 0.00 in0.0 mm
04:17 AM 16.5°F-8.6°C -9.4°F-23.0°C 30% 8.3 mph NE13.4 kmh NE 15.9 mph25.6 kmh 29.89 in1012.2 mb 0.00 in0.0 mm 0.00 in/hr0.0 mm/hr 0.00 in0.0 mm
04:16 AM 16.5°F-8.6°C -9.4°F-23.0°C 30% 9.2 mph NE14.8 kmh NE 15.9 mph25.6 kmh 29.89 in1012.2 mb 0.00 in0.0 mm 0.00 in/hr0.0 mm/hr 0.00 in0.0 mm
04:15 AM 16.5°F-8.6°C -9.4°F-23.0°C 30% 8.3 mph ENE13.4 kmh ENE 17.4 mph28.0 kmh 29.88 in1011.9 mb 0.00 in0.0 mm 0.00 in/hr0.0 mm/hr 0.00 in0.0 mm
04:14 AM 16.5°F-8.6°C -9.4°F-23.0°C 30% 7.6 mph ENE12.2 kmh ENE 17.4 mph28.0 kmh 29.88 in1011.9 mb 0.00 in0.0 mm 0.00 in/hr0.0 mm/hr 0.00 in0.0 mm
04:13 AM 16.3°F-8.7°C -9.6°F-23.1°C 30% 9.2 mph ENE14.8 kmh ENE 17.4 mph28.0 kmh 29.88 in1011.9 mb 0.00 in0.0 mm 0.00 in/hr0.0 mm/hr 0.00 in0.0 mm
04:12 AM 16.5°F-8.6°C -9.4°F-23.0°C 30% 7.6 mph ENE12.2 kmh ENE 17.4 mph28.0 kmh 29.88 in1011.9 mb 0.00 in0.0 mm 0.00 in/hr0.0 mm/hr 0.00 in0.0 mm
04:11 AM 16.3°F-8.7°C -9.6°F-23.1°C 30% 7.6 mph NE12.2 kmh NE 17.4 mph28.0 kmh 29.88 in1011.9 mb 0.00 in0.0 mm 0.00 in/hr0.0 mm/hr 0.00 in0.0 mm
04:10 AM 16.5°F-8.6°C -9.4°F-23.0°C 30% 6.0 mph NE9.7 kmh NE 17.4 mph28.0 kmh 29.88 in1011.9 mb 0.00 in0.0 mm 0.00 in/hr0.0 mm/hr 0.00 in0.0 mm
04:09 AM 16.7°F-8.5°C -9.3°F-22.9°C 30% 7.6 mph NE12.2 kmh NE 17.4 mph28.0 kmh 29.88 in1011.9 mb 0.00 in0.0 mm 0.00 in/hr0.0 mm/hr 0.00 in0.0 mm
04:08 AM 16.7°F-8.5°C -9.3°F-22.9°C 30% 10.7 mph NE17.2 kmh NE 17.4 mph28.0 kmh 29.88 in1011.9 mb 0.00 in0.0 mm 0.00 in/hr0.0 mm/hr 0.00 in0.0 mm
04:07 AM 16.5°F-8.6°C -9.4°F-23.0°C 30% 10.7 mph ENE17.2 kmh ENE 19.7 mph31.7 kmh 29.88 in1011.9 mb 0.00 in0.0 mm 0.00 in/hr0.0 mm/hr 0.00 in0.0 mm
04:06 AM 16.5°F-8.6°C -9.4°F-23.0°C 30% 9.8 mph NE15.8 kmh NE 19.7 mph31.7 kmh 29.88 in1011.9 mb 0.00 in0.0 mm 0.00 in/hr0.0 mm/hr 0.00 in0.0 mm
04:05 AM 16.5°F-8.6°C -9.4°F-23.0°C 30% 6.9 mph NE11.1 kmh NE 19.7 mph31.7 kmh 29.88 in1011.9 mb 0.00 in0.0 mm 0.00 in/hr0.0 mm/hr 0.00 in0.0 mm
04:04 AM 16.3°F-8.7°C -9.6°F-23.1°C 30% 7.6 mph ENE12.2 kmh ENE 19.7 mph31.7 kmh 29.88 in1011.9 mb 0.00 in0.0 mm 0.00 in/hr0.0 mm/hr 0.00 in0.0 mm
04:03 AM 16.5°F-8.6°C -9.4°F-23.0°C 30% 5.4 mph ENE8.7 kmh ENE 19.7 mph31.7 kmh 29.88 in1011.9 mb 0.00 in0.0 mm 0.00 in/hr0.0 mm/hr 0.00 in0.0 mm
04:02 AM 16.5°F-8.6°C -10.8°F-23.8°C 28% 6.9 mph ENE11.1 kmh ENE 19.7 mph31.7 kmh 29.88 in1011.9 mb 0.00 in0.0 mm 0.00 in/hr0.0 mm/hr 0.00 in0.0 mm
04:01 AM 16.7°F-8.5°C -10.6°F-23.7°C 28% 7.6 mph ENE12.2 kmh ENE 19.7 mph31.7 kmh 29.88 in1011.9 mb 0.00 in0.0 mm 0.00 in/hr0.0 mm/hr 0.00 in0.0 mm
04:00 AM 16.5°F-8.6°C -10.8°F-23.8°C 28% 11.4 mph ENE18.3 kmh ENE 19.7 mph31.7 kmh 29.88 in1011.9 mb 0.00 in0.0 mm 0.00 in/hr0.0 mm/hr 0.00 in0.0 mm
03:59 AM 16.5°F-8.6°C -10.8°F-23.8°C 28% 8.3 mph ENE13.4 kmh ENE 19.7 mph31.7 kmh 29.88 in1011.9 mb 0.00 in0.0 mm 0.00 in/hr0.0 mm/hr 0.00 in0.0 mm
03:58 AM 16.7°F-8.5°C -10.6°F-23.7°C 28% 6.0 mph ENE9.7 kmh ENE 19.7 mph31.7 kmh 29.88 in1011.9 mb 0.00 in0.0 mm 0.00 in/hr0.0 mm/hr 0.00 in0.0 mm
03:57 AM 16.5°F-8.6°C -10.8°F-23.8°C 28% 11.4 mph ENE18.3 kmh ENE 19.7 mph31.7 kmh 29.88 in1011.9 mb 0.00 in0.0 mm 0.00 in/hr0.0 mm/hr 0.00 in0.0 mm
03:56 AM 16.5°F-8.6°C -10.8°F-23.8°C 28% 11.4 mph ENE18.3 kmh ENE 19.7 mph31.7 kmh 29.88 in1011.9 mb 0.00 in0.0 mm 0.00 in/hr0.0 mm/hr 0.00 in0.0 mm
03:55 AM 16.5°F-8.6°C -10.8°F-23.8°C 28% 11.4 mph ENE18.3 kmh ENE 19.7 mph31.7 kmh 29.88 in1011.9 mb 0.00 in0.0 mm 0.00 in/hr0.0 mm/hr 0.00 in0.0 mm
03:54 AM 16.5°F-8.6°C -10.8°F-23.8°C 28% 11.4 mph ENE18.3 kmh ENE 19.7 mph31.7 kmh 29.88 in1011.9 mb 0.00 in0.0 mm 0.00 in/hr0.0 mm/hr 0.00 in0.0 mm
03:53 AM 16.5°F-8.6°C -10.8°F-23.8°C 28% 11.4 mph ENE18.3 kmh ENE 19.7 mph31.7 kmh 29.88 in1011.9 mb 0.00 in0.0 mm 0.00 in/hr0.0 mm/hr 0.00 in0.0 mm
03:52 AM 16.5°F-8.6°C -10.8°F-23.8°C 28% 11.4 mph ENE18.3 kmh ENE 19.7 mph31.7 kmh 29.88 in1011.9 mb 0.00 in0.0 mm 0.00 in/hr0.0 mm/hr 0.00 in0.0 mm
03:51 AM 16.5°F-8.6°C -10.8°F-23.8°C 28% 11.4 mph ENE18.3 kmh ENE 19.7 mph31.7 kmh 29.88 in1011.9 mb 0.00 in0.0 mm 0.00 in/hr0.0 mm/hr 0.00 in0.0 mm
03:50 AM 16.5°F-8.6°C -10.8°F-23.8°C 28% 11.4 mph ENE18.3 kmh ENE 19.7 mph31.7 kmh 29.88 in1011.9 mb 0.00 in0.0 mm 0.00 in/hr0.0 mm/hr 0.00 in0.0 mm
03:49 AM 16.5°F-8.6°C -10.8°F-23.8°C 28% 11.4 mph ENE18.3 kmh ENE 19.7 mph31.7 kmh 29.88 in1011.9 mb 0.00 in0.0 mm 0.00 in/hr0.0 mm/hr 0.00 in0.0 mm
03:48 AM 16.5°F-8.6°C -10.8°F-23.8°C 28% 11.4 mph ENE18.3 kmh ENE 19.7 mph31.7 kmh 29.88 in1011.9 mb 0.00 in0.0 mm 0.00 in/hr0.0 mm/hr 0.00 in0.0 mm
03:47 AM 16.5°F-8.6°C -10.8°F-23.8°C 28% 11.4 mph ENE18.3 kmh ENE 19.7 mph31.7 kmh 29.88 in1011.9 mb 0.00 in0.0 mm 0.00 in/hr0.0 mm/hr 0.00 in0.0 mm
03:46 AM 16.7°F-8.5°C -10.6°F-23.7°C 28% 12.1 mph ENE19.5 kmh ENE 18.3 mph29.5 kmh 29.88 in1011.9 mb 0.00 in0.0 mm 0.00 in/hr0.0 mm/hr 0.00 in0.0 mm
03:45 AM 16.7°F-8.5°C -10.6°F-23.7°C 28% 11.4 mph ENE18.3 kmh ENE 18.3 mph29.5 kmh 29.88 in1011.9 mb 0.00 in0.0 mm 0.00 in/hr0.0 mm/hr 0.00 in0.0 mm
03:44 AM 16.7°F-8.5°C -10.6°F-23.7°C 28% 10.7 mph ENE17.2 kmh ENE 18.3 mph29.5 kmh 29.88 in1011.9 mb 0.00 in0.0 mm 0.00 in/hr0.0 mm/hr 0.00 in0.0 mm
03:43 AM 16.9°F-8.4°C -10.5°F-23.6°C 28% 8.3 mph ENE13.4 kmh ENE 18.3 mph29.5 kmh 29.88 in1011.9 mb 0.00 in0.0 mm 0.00 in/hr0.0 mm/hr 0.00 in0.0 mm
03:42 AM 16.7°F-8.5°C -9.3°F-22.9°C 30% 10.7 mph ENE17.2 kmh ENE 18.3 mph29.5 kmh 29.88 in1011.9 mb 0.00 in0.0 mm 0.00 in/hr0.0 mm/hr 0.00 in0.0 mm
03:41 AM 16.5°F-8.6°C -9.4°F-23.0°C 30% 9.8 mph NE15.8 kmh NE 18.3 mph29.5 kmh 29.88 in1011.9 mb 0.00 in0.0 mm 0.00 in/hr0.0 mm/hr 0.00 in0.0 mm
03:40 AM 16.7°F-8.5°C -9.3°F-22.9°C 30% 8.3 mph ENE13.4 kmh ENE 18.3 mph29.5 kmh 29.87 in1011.5 mb 0.00 in0.0 mm 0.00 in/hr0.0 mm/hr 0.00 in0.0 mm
03:39 AM 16.7°F-8.5°C -9.3°F-22.9°C 30% 9.8 mph ENE15.8 kmh ENE 18.3 mph29.5 kmh 29.87 in1011.5 mb 0.00 in0.0 mm 0.00 in/hr0.0 mm/hr 0.00 in0.0 mm
03:38 AM 16.7°F-8.5°C -10.6°F-23.7°C 28% 9.2 mph ENE14.8 kmh ENE 18.3 mph29.5 kmh 29.88 in1011.9 mb 0.00 in0.0 mm 0.00 in/hr0.0 mm/hr 0.00 in0.0 mm
03:37 AM 16.9°F-8.4°C -9.1°F-22.8°C 30% 12.1 mph NE19.5 kmh NE 18.3 mph29.5 kmh 29.87 in1011.5 mb 0.00 in0.0 mm 0.00 in/hr0.0 mm/hr 0.00 in0.0 mm
03:36 AM 16.7°F-8.5°C -9.3°F-22.9°C 30% 11.4 mph NE18.3 kmh NE 19.0 mph30.6 kmh 29.87 in1011.5 mb 0.00 in0.0 mm 0.00 in/hr0.0 mm/hr 0.00 in0.0 mm
03:35 AM 16.9°F-8.4°C -9.1°F-22.8°C 30% 9.8 mph NE15.8 kmh NE 21.3 mph34.3 kmh 29.87 in1011.5 mb 0.00 in0.0 mm 0.00 in/hr0.0 mm/hr 0.00 in0.0 mm
03:34 AM 16.5°F-8.6°C -9.4°F-23.0°C 30% 9.8 mph NE15.8 kmh NE 21.3 mph34.3 kmh 29.87 in1011.5 mb 0.00 in0.0 mm 0.00 in/hr0.0 mm/hr 0.00 in0.0 mm